Provisional Data: Blockhouse Creek near English Center, PA


Please select a monitoring station.
Please select start date.
Please select start date.

Toggle Unit: C/F Toggle Unit: C/F
Sample Time Temperature (C) Temperature (F) Specific Conductivity (mS/cm) pH   Turbidity (NTU+) DO (mg/L)
12/4/2020 12:00:00 AM 4.19 39.542 0.11 7.36 2.83 12.45
12/4/2020 12:15:00 AM 4.18 39.524 0.11 7.36 2.88 12.46
12/4/2020 12:30:00 AM 4.17 39.506 0.11 7.36 2.96 12.46
12/4/2020 12:45:00 AM 4.16 39.488 0.11 7.35 2.94 12.46
12/4/2020 1:00:00 AM 4.15 39.47 0.11 7.36 2.89 12.46
12/4/2020 1:15:00 AM 4.15 39.47 0.11 7.37 2.94 12.46
12/4/2020 1:30:00 AM 4.14 39.452 0.11 7.36 2.86 12.46
12/4/2020 1:45:00 AM 4.13 39.434 0.11 7.36 2.85 12.45
12/4/2020 2:00:00 AM 4.12 39.416 0.11 7.36 2.89 12.46
12/4/2020 2:15:00 AM 4.11 39.398 0.11 7.37 2.87 12.46
12/4/2020 2:30:00 AM 4.1 39.38 0.11 7.36 3 12.47
12/4/2020 2:45:00 AM 4.11 39.398 0.11 7.36 2.95 12.46
12/4/2020 3:00:00 AM 4.11 39.398 0.11 7.37 2.92 12.46
12/4/2020 3:15:00 AM 4.12 39.416 0.11 7.36 2.94 12.46
12/4/2020 3:30:00 AM 4.13 39.434 0.11 7.36 2.95 12.46
12/4/2020 3:45:00 AM 4.13 39.434 0.11 7.36 2.92 12.46
12/4/2020 4:00:00 AM 4.14 39.452 0.11 7.37 2.84 12.46
12/4/2020 4:15:00 AM 4.14 39.452 0.109 7.35 2.87 12.45
12/4/2020 4:30:00 AM 4.15 39.47 0.11 7.36 2.92 12.45
12/4/2020 4:45:00 AM 4.16 39.488 0.11 7.36 2.83 12.44
12/4/2020 5:00:00 AM 4.16 39.488 0.11 7.36 2.86 12.45
12/4/2020 5:15:00 AM 4.17 39.506 0.11 7.38 2.8 12.44
12/4/2020 5:30:00 AM 4.17 39.506 0.11 7.36 3.09 12.44
12/4/2020 5:45:00 AM 4.17 39.506 0.109 7.36 3.13 12.43
12/4/2020 6:00:00 AM 4.17 39.506 0.109 7.36 3.07 12.44
12/4/2020 6:15:00 AM 4.17 39.506 0.11 7.35 2.97 12.43
12/4/2020 6:30:00 AM 4.18 39.524 0.11 7.35 3.01 12.43
12/4/2020 6:45:00 AM 4.17 39.506 0.11 7.35 2.72 12.43
12/4/2020 7:00:00 AM 4.19 39.542 0.11 7.36 3.03 12.43
12/4/2020 7:15:00 AM 4.19 39.542 0.11 7.36 2.91 12.43
12/4/2020 7:30:00 AM 4.2 39.56 0.11 7.36 2.81 12.44
12/4/2020 7:45:00 AM 4.2 39.56 0.109 7.38 2.94 12.48
12/4/2020 8:00:00 AM 4.21 39.578 0.11 7.4 2.81 12.57
12/4/2020 8:15:00 AM 4.21 39.578 0.109 7.42 2.72 12.65
12/4/2020 8:30:00 AM 4.23 39.614 0.109 7.45 2.88 12.76
12/4/2020 8:45:00 AM 4.25 39.65 0.109 7.46 2.83 12.85
12/4/2020 9:00:00 AM 4.25 39.65 0.109 7.5 2.8 12.88
12/4/2020 9:15:00 AM 4.24 39.632 0.109 7.51 2.68 12.88
12/4/2020 9:30:00 AM 4.24 39.632 0.109 7.52 2.78 12.89
12/4/2020 9:45:00 AM 4.24 39.632 0.109 7.53 2.83 12.91
12/4/2020 10:00:00 AM 4.29 39.722 0.108 7.54 2.81 12.95
12/4/2020 10:15:00 AM 4.35 39.83 0.108 7.56 2.78 12.97
12/4/2020 10:30:00 AM 4.4 39.92 0.109 7.59 2.85 13
12/4/2020 10:45:00 AM 4.47 40.046 0.108 7.6 2.76 13
12/4/2020 11:00:00 AM 4.54 40.172 0.108 7.62 2.75 13
12/4/2020 11:15:00 AM 4.61 40.298 0.108 7.65 2.82 13.01
12/4/2020 11:30:00 AM 4.69 40.442 0.108 7.65 2.64 13
12/4/2020 11:45:00 AM 4.78 40.604 0.109 7.67 2.75 13
12/4/2020 12:00:00 PM 4.86 40.748 0.108 7.68 2.98 12.99
12/4/2020 12:15:00 PM 4.95 40.91 0.108 7.7 2.91 12.97
12/4/2020 12:30:00 PM 5.01 41.018 0.108 7.71 2.76 12.97
12/4/2020 12:45:00 PM 5.1 41.18 0.108 7.74 2.85 12.99
12/4/2020 1:00:00 PM 5.21 41.378 0.108 7.77 2.72 13.01
12/4/2020 1:15:00 PM 5.27 41.486 0.107 7.78 2.89 13
12/4/2020 1:30:00 PM 5.31 41.558 0.107 7.8 2.85 13
12/4/2020 1:45:00 PM 5.34 41.612 0.107 7.8 2.87 12.96
12/4/2020 2:00:00 PM 5.35 41.63 0.107 7.8 2.78 12.93
12/4/2020 2:15:00 PM 5.38 41.684 0.107 7.79 2.92 12.9
12/4/2020 2:30:00 PM 5.39 41.702 0.107 7.76 2.71 12.85
12/4/2020 2:45:00 PM 5.39 41.702 0.107 7.72 2.84 12.77
12/4/2020 3:00:00 PM 5.39 41.702 0.107 7.72 2.83 12.7
12/4/2020 3:15:00 PM 5.38 41.684 0.107 7.68 2.84 12.63
12/4/2020 3:30:00 PM 5.38 41.684 0.107 7.64 2.76 12.56
12/4/2020 3:45:00 PM 5.38 41.684 0.107 7.62 2.89 12.52
12/4/2020 4:00:00 PM 5.38 41.684 0.107 7.6 3.22 12.48
12/4/2020 4:15:00 PM 5.38 41.684 0.107 7.58 2.77 12.42
12/4/2020 4:30:00 PM 5.37 41.666 0.107 7.56 2.77 12.36
12/4/2020 4:45:00 PM 5.35 41.63 0.107 7.53 2.76 12.28
12/4/2020 5:00:00 PM 5.31 41.558 0.107 7.49 2.85 12.22
12/4/2020 5:15:00 PM 5.28 41.504 0.107 7.47 2.93 12.16
12/4/2020 5:30:00 PM 5.25 41.45 0.107 7.46 2.77 12.12
12/4/2020 5:45:00 PM 5.22 41.396 0.107 7.44 2.89 12.09
12/4/2020 6:00:00 PM 5.19 41.342 0.107 7.3 2.92 12.08
12/4/2020 6:15:00 PM 5.16 41.288 0.107 7.42 2.82 12.07
12/4/2020 6:30:00 PM 5.13 41.234 0.107 7.4 2.97 12.07
12/4/2020 6:45:00 PM 5.11 41.198 0.107 7.4 2.87 12.07
12/4/2020 7:00:00 PM 5.09 41.162 0.107 7.4 2.84 12.07
12/4/2020 7:15:00 PM 5.08 41.144 0.107 7.39 2.82 12.08
12/4/2020 7:30:00 PM 5.06 41.108 0.108 7.39 3.09 12.07
12/4/2020 7:45:00 PM 5.04 41.072 0.108 7.38 2.92 12.07
12/4/2020 8:00:00 PM 5.03 41.054 0.107 7.39 3.03 12.09
12/4/2020 8:15:00 PM 5.01 41.018 0.107 7.39 2.94 12.09
12/4/2020 8:30:00 PM 5 41 0.108 7.38 3.01 12.09
12/4/2020 8:45:00 PM 4.97 40.946 0.107 7.38 2.84 12.1
12/4/2020 9:00:00 PM 4.95 40.91 0.107 7.38 3.06 12.11
12/4/2020 9:15:00 PM 4.93 40.874 0.108 7.38 2.94 12.12
12/4/2020 9:30:00 PM 4.91 40.838 0.108 7.38 2.94 12.13
12/4/2020 9:45:00 PM 4.9 40.82 0.108 7.37 2.98 12.13
12/4/2020 10:00:00 PM 4.89 40.802 0.108 7.38 3.03 12.14
12/4/2020 10:15:00 PM 4.89 40.802 0.108 7.37 2.92 12.14
12/4/2020 10:30:00 PM 4.88 40.784 0.108 7.37 2.84 12.14
12/4/2020 10:45:00 PM 4.89 40.802 0.108 7.37 2.86 12.15
12/4/2020 11:00:00 PM 4.88 40.784 0.108 7.38 2.88 12.14
12/4/2020 11:15:00 PM 4.87 40.766 0.108 7.37 2.94 12.14
12/4/2020 11:30:00 PM 4.85 40.73 0.108 7.37 2.86 12.15
12/4/2020 11:45:00 PM 4.84 40.712 0.108 7.37 3.01 12.15
12/5/2020 12:00:00 AM 4.82 40.676 0.108 7.37 2.91 12.15
12/5/2020 12:15:00 AM 4.81 40.658 0.108 7.37 2.82 12.15
12/5/2020 12:30:00 AM 4.8 40.64 0.108 7.37 2.89 12.16
12/5/2020 12:45:00 AM 4.78 40.604 0.108 7.37 2.86 12.16
12/5/2020 1:00:00 AM 4.77 40.586 0.108 7.36 2.82 12.16
12/5/2020 1:15:00 AM 4.75 40.55 0.108 7.36 2.76 12.16
12/5/2020 1:30:00 AM 4.73 40.514 0.108 7.37 2.99 12.17
12/5/2020 1:45:00 AM 4.71 40.478 0.108 7.37 2.79 12.17
12/5/2020 2:00:00 AM 4.68 40.424 0.108 7.35 2.98 12.18
12/5/2020 2:15:00 AM 4.66 40.388 0.108 7.36 2.91 12.17
12/5/2020 2:30:00 AM 4.65 40.37 0.108 7.36 2.9 12.18
12/5/2020 2:45:00 AM 4.63 40.334 0.107 7.34 3.03 12.17
12/5/2020 3:00:00 AM 4.63 40.334 0.108 7.36 2.9 12.18
12/5/2020 3:15:00 AM 4.63 40.334 0.108 7.37 2.83 12.18
12/5/2020 3:30:00 AM 4.62 40.316 0.108 7.36 2.83 12.18
12/5/2020 3:45:00 AM 4.62 40.316 0.108 7.36 2.89 12.18
12/5/2020 4:00:00 AM 4.62 40.316 0.108 7.35 2.82 12.19
12/5/2020 4:15:00 AM 4.63 40.334 0.108 7.34 2.85 12.19
12/5/2020 4:30:00 AM 4.63 40.334 0.108 7.36 2.81 12.18
12/5/2020 4:45:00 AM 4.63 40.334 0.108 7.36 2.83 12.18
12/5/2020 5:00:00 AM 4.63 40.334 0.108 7.36 2.75 12.18
12/5/2020 5:15:00 AM 4.63 40.334 0.108 7.35 2.92 12.18
12/5/2020 5:30:00 AM 4.64 40.352 0.108 7.35 2.81 12.18
12/5/2020 5:45:00 AM 4.65 40.37 0.108 7.36 3.25 12.18
12/5/2020 6:00:00 AM 4.66 40.388 0.108 7.36 2.85 12.18
12/5/2020 6:15:00 AM 4.68 40.424 0.108 7.35 2.98 12.18
12/5/2020 6:30:00 AM 4.69 40.442 0.108 7.36 2.86 12.17
12/5/2020 6:45:00 AM 4.7 40.46 0.108 7.38 2.89 12.18
12/5/2020 7:00:00 AM 4.71 40.478 0.108 7.36 2.92 12.18
12/5/2020 7:15:00 AM 4.72 40.496 0.108 7.35 2.88 12.17
12/5/2020 7:30:00 AM 4.72 40.496 0.108 7.36 2.8 12.18
12/5/2020 7:45:00 AM 4.72 40.496 0.108 7.36 2.81 12.2
12/5/2020 8:00:00 AM 4.73 40.514 0.108 7.38 2.81 12.24
12/5/2020 8:15:00 AM 4.73 40.514 0.108 7.4 2.78 12.29
12/5/2020 8:30:00 AM 4.75 40.55 0.108 7.41 2.74 12.35
12/5/2020 8:45:00 AM 4.76 40.568 0.108 7.44 2.77 12.46
12/5/2020 9:00:00 AM 4.79 40.622 0.107 7.48 2.74 12.58
12/5/2020 9:15:00 AM 4.82 40.676 0.107 7.53 2.87 12.7
12/5/2020 9:30:00 AM 4.85 40.73 0.107 7.57 2.77 12.8
12/5/2020 9:45:00 AM 4.89 40.802 0.107 7.6 2.74 12.88
12/5/2020 10:00:00 AM 4.93 40.874 0.107 7.64 2.69 12.92
12/5/2020 10:15:00 AM 4.96 40.928 0.106 7.67 2.79 12.92
12/5/2020 10:30:00 AM 5 41 0.107 7.68 2.8 12.94
12/5/2020 10:45:00 AM 5.04 41.072 0.107 7.72 2.79 12.96
12/5/2020 11:00:00 AM 5.06 41.108 0.107 7.72 2.81 12.93
12/5/2020 11:15:00 AM 5.03 41.054 0.107 7.71 2.74 12.86
12/5/2020 11:30:00 AM 5.04 41.072 0.106 7.71 2.87 12.88
12/5/2020 11:45:00 AM 5.07 41.126 0.106 7.74 2.7 12.92
12/5/2020 12:00:00 PM 5.1 41.18 0.106 7.76 2.74 12.93
12/5/2020 12:15:00 PM 5.12 41.216 0.106 7.77 2.68 12.93
12/5/2020 12:30:00 PM 5.15 41.27 0.106 7.79 2.88 12.95
12/5/2020 12:45:00 PM 5.18 41.324 0.106 7.83 2.87 12.97
12/5/2020 1:00:00 PM 5.18 41.324 0.106 7.81 3.38 12.92
12/5/2020 1:15:00 PM 5.2 41.36 0.106 7.77 2.99 12.84
12/5/2020 1:30:00 PM 5.23 41.414 0.106 7.78 2.75 12.87
12/5/2020 1:45:00 PM 5.29 41.522 0.106 7.82 2.71 12.92
12/5/2020 2:00:00 PM 5.31 41.558 0.106 7.83 3.03 12.93
12/5/2020 2:15:00 PM 5.29 41.522 0.106 7.83 2.79 12.9
12/5/2020 2:30:00 PM 5.3 41.54 0.106 7.83 2.8 12.88
12/5/2020 2:45:00 PM 5.32 41.576 0.106 7.85 2.74 12.91
12/5/2020 3:00:00 PM 5.32 41.576 0.106 7.82 2.89 12.84
12/5/2020 3:15:00 PM 5.29 41.522 0.106 7.77 2.73 12.73
12/5/2020 3:30:00 PM 5.27 41.486 0.106 7.73 2.73 12.65
12/5/2020 3:45:00 PM 5.26 41.468 0.106 7.58 2.66 12.63
12/5/2020 4:00:00 PM 5.23 41.414 0.106 7.67 2.91 12.56
12/5/2020 4:15:00 PM 5.21 41.378 0.106 7.63 2.82 12.48
12/5/2020 4:30:00 PM 5.19 41.342 0.106 7.59 2.92 12.4
12/5/2020 4:45:00 PM 5.17 41.306 0.106 7.55 2.92 12.31
12/5/2020 5:00:00 PM 5.13 41.234 0.106 7.52 2.73 12.24
12/5/2020 5:15:00 PM 5.11 41.198 0.106 7.49 2.9 12.19
12/5/2020 5:30:00 PM 5.09 41.162 0.106 7.47 2.95 12.16
12/5/2020 5:45:00 PM 5.07 41.126 0.107 7.46 2.74 12.14
12/5/2020 6:00:00 PM 5.05 41.09 0.106 7.45 2.88 12.13
12/5/2020 6:15:00 PM 5.02 41.036 0.107 7.45 2.94 12.12
12/5/2020 6:30:00 PM 5.01 41.018 0.107 7.43 2.85 12.12
12/5/2020 6:45:00 PM 4.98 40.964 0.107 7.43 2.81 12.12
12/5/2020 7:00:00 PM 4.95 40.91 0.107 7.43 2.84 12.12
12/5/2020 7:15:00 PM 4.92 40.856 0.107 7.42 2.75 12.14
12/5/2020 7:30:00 PM 4.9 40.82 0.107 7.42 2.8 12.14
12/5/2020 7:45:00 PM 4.86 40.748 0.107 7.41 2.74 12.15
12/5/2020 8:00:00 PM 4.83 40.694 0.107 7.41 2.89 12.15
12/5/2020 8:15:00 PM 4.81 40.658 0.107 7.41 2.76 12.16
12/5/2020 8:30:00 PM 4.79 40.622 0.107 7.41 3.6 12.17
12/5/2020 8:45:00 PM 4.77 40.586 0.107 7.4 2.87 12.18
12/5/2020 9:00:00 PM 4.75 40.55 0.107 7.39 2.72 12.18
12/5/2020 9:15:00 PM 4.72 40.496 0.107 7.4 2.88 12.19
12/5/2020 9:30:00 PM 4.7 40.46 0.107 7.4 2.84 12.19
12/5/2020 9:45:00 PM 4.68 40.424 0.107 7.4 2.87 12.21
12/5/2020 10:00:00 PM 4.65 40.37 0.107 7.41 2.81 12.2
12/5/2020 10:15:00 PM 4.62 40.316 0.107 7.4 2.82 12.21
12/5/2020 10:30:00 PM 4.59 40.262 0.107 7.4 2.81 12.21
12/5/2020 10:45:00 PM 4.56 40.208 0.108 7.4 2.74 12.23
12/5/2020 11:00:00 PM 4.55 40.19 0.108 7.4 3.15 12.23
12/5/2020 11:15:00 PM 4.52 40.136 0.107 7.39 2.78 12.24
12/5/2020 11:30:00 PM 4.5 40.1 0.107 7.39 2.74 12.24
12/5/2020 11:45:00 PM 4.48 40.064 0.107 7.4 2.74 12.25
12/6/2020 12:00:00 AM 4.46 40.028 0.107 7.4 2.72 12.26
12/6/2020 12:15:00 AM 4.44 39.992 0.107 7.39 2.8 12.26
12/6/2020 12:30:00 AM 4.42 39.956 0.107 7.38 2.76 12.27
12/6/2020 12:45:00 AM 4.39 39.902 0.107 7.38 2.84 12.28
12/6/2020 1:00:00 AM 4.37 39.866 0.107 7.39 2.78 12.29
12/6/2020 1:15:00 AM 4.35 39.83 0.107 7.38 2.8 12.29
12/6/2020 1:30:00 AM 4.31 39.758 0.108 7.39 2.71 12.3
12/6/2020 1:45:00 AM 4.26 39.668 0.107 7.39 2.72 12.32
12/6/2020 2:00:00 AM 4.23 39.614 0.107 7.39 2.69 12.33
12/6/2020 2:15:00 AM 4.22 39.596 0.107 7.39 2.67 12.34
12/6/2020 2:30:00 AM 4.19 39.542 0.107 7.38 2.72 12.34
12/6/2020 2:45:00 AM 4.17 39.506 0.107 7.39 2.72 12.35
12/6/2020 3:00:00 AM 4.15 39.47 0.107 7.38 2.7 12.36
12/6/2020 3:15:00 AM 4.14 39.452 0.107 7.4 2.65 12.37
12/6/2020 3:30:00 AM 4.12 39.416 0.108 7.41 2.84 12.37
12/6/2020 3:45:00 AM 4.09 39.362 0.107 7.41 2.72 12.38
12/6/2020 4:00:00 AM 4.08 39.344 0.107 7.41 2.76 12.39
12/6/2020 4:15:00 AM 4.06 39.308 0.108 7.39 2.58 12.4
12/6/2020 4:30:00 AM 4.05 39.29 0.108 7.39 2.67 12.4
12/6/2020 4:45:00 AM 4.02 39.236 0.107 7.4 2.81 12.41
12/6/2020 5:00:00 AM 3.98 39.164 0.108 7.39 2.78 12.42
12/6/2020 5:15:00 AM 3.97 39.146 0.108 7.4 2.72 12.42
12/6/2020 5:30:00 AM 3.93 39.074 0.108 7.38 2.75 12.43
12/6/2020 5:45:00 AM 3.89 39.002 0.107 7.4 2.76 12.44
12/6/2020 6:00:00 AM 3.86 38.948 0.108 7.38 2.62 12.45
12/6/2020 6:15:00 AM 3.83 38.894 0.108 7.4 2.7 12.45
12/6/2020 6:30:00 AM 3.8 38.84 0.108 7.39 2.82 12.47
12/6/2020 6:45:00 AM 3.77 38.786 0.108 7.37 3.02 12.48
12/6/2020 7:00:00 AM 3.75 38.75 0.108 7.4 2.68 12.49
12/6/2020 7:15:00 AM 3.71 38.678 0.108 7.4 2.76 12.51
12/6/2020 7:30:00 AM 3.67 38.606 0.108 7.4 2.79 12.55
12/6/2020 7:45:00 AM 3.63 38.534 0.108 7.41 2.64 12.6
12/6/2020 8:00:00 AM 3.61 38.498 0.108 7.43 2.69 12.69
12/6/2020 8:15:00 AM 3.59 38.462 0.108 7.46 2.67 12.82
12/6/2020 8:30:00 AM 3.59 38.462 0.107 7.49 2.71 12.93
12/6/2020 8:45:00 AM 3.61 38.498 0.107 7.53 2.71 13.05
12/6/2020 9:00:00 AM 3.62 38.516 0.107 7.57 2.71 13.17
12/6/2020 9:15:00 AM 3.64 38.552 0.107 7.61 2.75 13.27
12/6/2020 9:30:00 AM 3.66 38.588 0.107 7.66 2.63 13.33
12/6/2020 9:45:00 AM 3.68 38.624 0.107 7.69 2.65 13.38
12/6/2020 10:00:00 AM 3.71 38.678 0.107 7.72 2.65 13.41
12/6/2020 10:15:00 AM 3.74 38.732 0.107 7.75 2.54 13.41
12/6/2020 10:30:00 AM 3.75 38.75 0.106 7.76 2.66 13.41
12/6/2020 10:45:00 AM 3.79 38.822 0.107 7.76 2.61 13.4
12/6/2020 11:00:00 AM 3.78 38.804 0.107 7.76 2.69 13.39
12/6/2020 11:15:00 AM 3.8 38.84 0.106 7.78 2.54 13.39
12/6/2020 11:30:00 AM 3.89 39.002 0.107 7.79 2.61 13.39
12/6/2020 11:45:00 AM 3.93 39.074 0.106 7.8 2.57 13.38
12/6/2020 12:00:00 PM 3.98 39.164 0.106 7.8 2.65 13.35
12/6/2020 12:15:00 PM 4.03 39.254 0.106 7.79 2.58 13.32
12/6/2020 12:30:00 PM 4.07 39.326 0.107 7.8 2.64 13.3
12/6/2020 12:45:00 PM 4.14 39.452 0.106 7.82 2.55 13.29
12/6/2020 1:00:00 PM 4.19 39.542 0.106 7.81 2.73 13.28
12/6/2020 1:15:00 PM 4.21 39.578 0.106 7.8 2.7 13.24
12/6/2020 1:30:00 PM 4.22 39.596 0.106 7.8 2.64 13.22
12/6/2020 1:45:00 PM 4.23 39.614 0.106 7.8 2.59 13.2
12/6/2020 2:00:00 PM 4.23 39.614 0.106 7.8 2.6 13.16
12/6/2020 2:15:00 PM 4.21 39.578 0.106 7.79 2.65 13.14
12/6/2020 2:30:00 PM 4.23 39.614 0.106 7.77 2.66 13.11
12/6/2020 2:45:00 PM 4.24 39.632 0.106 7.76 2.73 13.09
12/6/2020 3:00:00 PM 4.23 39.614 0.106 7.76 2.6 13.06
12/6/2020 3:15:00 PM 4.22 39.596 0.106 7.74 2.71 13.03
12/6/2020 3:30:00 PM 4.19 39.542 0.106 7.73 2.72 13.02
12/6/2020 3:45:00 PM 4.14 39.452 0.106 7.71 2.66 12.99
12/6/2020 4:00:00 PM 4.08 39.344 0.106 7.69 2.8 12.96
12/6/2020 4:15:00 PM 4.02 39.236 0.106 7.66 2.82 12.92
12/6/2020 4:30:00 PM 3.96 39.128 0.106 7.63 2.65 12.87
12/6/2020 4:45:00 PM 3.9 39.02 0.106 7.6 2.74 12.81
12/6/2020 5:00:00 PM 3.83 38.894 0.106 7.57 2.86 12.73
12/6/2020 5:15:00 PM 3.76 38.768 0.106 7.53 2.77 12.68
12/6/2020 5:30:00 PM 3.7 38.66 0.107 7.51 2.67 12.65
12/6/2020 5:45:00 PM 3.64 38.552 0.107 7.49 2.63 12.64
12/6/2020 6:00:00 PM 3.59 38.462 0.107 7.48 2.74 12.64
12/6/2020 6:15:00 PM 3.53 38.354 0.107 7.48 2.67 12.64
12/6/2020 6:30:00 PM 3.48 38.264 0.107 7.46 2.75 12.65
12/6/2020 6:45:00 PM 3.43 38.174 0.107 7.45 2.63 12.66
12/6/2020 7:00:00 PM 3.37 38.066 0.107 7.44 2.8 12.66
12/6/2020 7:15:00 PM 3.32 37.976 0.107 7.44 2.66 12.68
12/6/2020 7:30:00 PM 3.28 37.904 0.107 7.43 2.7 12.69
12/6/2020 7:45:00 PM 3.26 37.868 0.108 7.43 2.73 12.69
12/6/2020 8:00:00 PM 3.25 37.85 0.107 7.43 2.8 12.7
12/6/2020 8:15:00 PM 3.22 37.796 0.107 7.42 2.75 12.71
12/6/2020 8:30:00 PM 3.2 37.76 0.107 7.43 2.72 12.72
12/6/2020 8:45:00 PM 3.17 37.706 0.107 7.42 2.92 12.72
12/6/2020 9:00:00 PM 3.16 37.688 0.107 7.42 2.81 12.73
12/6/2020 9:15:00 PM 3.14 37.652 0.107 7.43 2.75 12.73
12/6/2020 9:30:00 PM 3.12 37.616 0.107 7.41 2.74 12.74
12/6/2020 9:45:00 PM 3.13 37.634 0.107 7.4 2.76 12.74
12/6/2020 10:00:00 PM 3.12 37.616 0.108 7.41 2.67 12.74
12/6/2020 10:15:00 PM 3.1 37.58 0.108 7.4 2.69 12.75
12/6/2020 10:30:00 PM 3.06 37.508 0.107 7.39 2.67 12.76
12/6/2020 10:45:00 PM 3 37.4 0.107 7.4 2.69 12.78
12/6/2020 11:00:00 PM 2.95 37.31 0.108 7.4 2.7 12.79
12/6/2020 11:15:00 PM 2.92 37.256 0.108 7.4 3.04 12.8
12/6/2020 11:30:00 PM 2.91 37.238 0.108 7.4 2.72 12.8
12/6/2020 11:45:00 PM 2.9 37.22 0.108 7.41 2.74 12.81
12/7/2020 12:00:00 AM 2.89 37.202 0.108 7.4 2.75 12.83
12/7/2020 12:15:00 AM 2.88 37.184 0.108 7.4 2.72 12.84
12/7/2020 12:30:00 AM 2.87 37.166 0.108 7.39 2.57 12.83
12/7/2020 12:45:00 AM 2.85 37.13 0.108 7.4 2.76 12.84
12/7/2020 1:00:00 AM 2.83 37.094 0.108 7.4 2.7 12.84
12/7/2020 1:15:00 AM 2.81 37.058 0.109 7.39 2.72 12.85
12/7/2020 1:30:00 AM 2.8 37.04 0.108 7.39 2.67 12.85
12/7/2020 1:45:00 AM 2.78 37.004 0.108 7.4 2.7 12.85
12/7/2020 2:00:00 AM 2.78 37.004 0.108 7.4 2.57 12.86
12/7/2020 2:15:00 AM 2.77 36.986 0.108 7.39 2.72 12.85
12/7/2020 2:30:00 AM 2.76 36.968 0.108 7.4 3.01 12.86
12/7/2020 2:45:00 AM 2.74 36.932 0.108 7.39 2.64 12.87
12/7/2020 3:00:00 AM 2.74 36.932 0.108 7.39 2.63 12.86
12/7/2020 3:15:00 AM 2.73 36.914 0.108 7.4 2.67 12.86
12/7/2020 3:30:00 AM 2.71 36.878 0.108 7.4 2.83 12.87
12/7/2020 3:45:00 AM 2.69 36.842 0.108 7.39 2.69 12.87
12/7/2020 4:00:00 AM 2.68 36.824 0.108 7.4 2.67 12.88
12/7/2020 4:15:00 AM 2.68 36.824 0.108 7.4 2.61 12.88
12/7/2020 4:30:00 AM 2.67 36.806 0.108 7.4 2.75 12.89
12/7/2020 4:45:00 AM 2.67 36.806 0.108 7.4 2.55 12.88
12/7/2020 5:00:00 AM 2.67 36.806 0.108 7.42 2.66 12.88
12/7/2020 5:15:00 AM 2.66 36.788 0.108 7.4 2.61 12.89
12/7/2020 5:30:00 AM 2.64 36.752 0.108 7.4 2.68 12.9
12/7/2020 5:45:00 AM 2.63 36.734 0.108 7.41 2.8 12.89
12/7/2020 6:00:00 AM 2.6 36.68 0.108 7.4 2.81 12.9
12/7/2020 6:15:00 AM 2.58 36.644 0.108 7.41 2.55 12.9
12/7/2020 6:30:00 AM 2.56 36.608 0.108 7.4 2.61 12.91
12/7/2020 6:45:00 AM 2.56 36.608 0.108 7.39 2.59 12.91
12/7/2020 7:00:00 AM 2.54 36.572 0.108 7.4 2.57 12.92
12/7/2020 7:15:00 AM 2.51 36.518 0.109 7.39 2.52 12.93
12/7/2020 7:30:00 AM 2.5 36.5 0.108 7.42 2.64 12.95
12/7/2020 7:45:00 AM 2.49 36.482 0.108 7.4 2.63 13
12/7/2020 8:00:00 AM 2.5 36.5 0.108 7.43 2.61 13.06
12/7/2020 8:15:00 AM 2.51 36.518 0.108 7.44 2.52 13.13
12/7/2020 8:30:00 AM 2.52 36.536 0.108 7.47 2.61 13.23
12/7/2020 8:45:00 AM 2.53 36.554 0.108 7.51 2.53 13.35
12/7/2020 9:00:00 AM 2.54 36.572 0.107 7.52 2.71 13.44
12/7/2020 9:15:00 AM 2.56 36.608 0.107 7.56 2.6 13.52
12/7/2020 9:30:00 AM 2.57 36.626 0.107 7.6 2.52 13.62
12/7/2020 9:45:00 AM 2.6 36.68 0.107 7.64 2.56 13.69
12/7/2020 10:00:00 AM 2.62 36.716 0.107 7.66 2.52 13.74
12/7/2020 10:15:00 AM 2.63 36.734 0.107 7.71 2.59 13.77
12/7/2020 10:30:00 AM 2.65 36.77 0.107 7.73 2.41 13.81
12/7/2020 10:45:00 AM 2.72 36.896 0.107 7.76 2.66 13.84
12/7/2020 11:00:00 AM 2.81 37.058 0.106 7.79 2.58 13.83
12/7/2020 11:15:00 AM 2.88 37.184 0.107 7.81 2.41 13.83
12/7/2020 11:30:00 AM 2.93 37.274 0.107 7.83 2.57 13.82
12/7/2020 11:45:00 AM 3.02 37.436 0.106 7.85 2.56 13.8
12/7/2020 12:00:00 PM 3.17 37.706 0.106 7.87 2.6 13.77
12/7/2020 12:15:00 PM 3.23 37.814 0.106 7.89 2.57 13.75
12/7/2020 12:30:00 PM 3.28 37.904 0.106 7.88 2.56 13.72
12/7/2020 12:45:00 PM 3.32 37.976 0.106 7.89 2.66 13.71
12/7/2020 1:00:00 PM 3.4 38.12 0.106 7.91 2.65 13.69
12/7/2020 1:15:00 PM 3.48 38.264 0.106 7.94 2.62 13.67
12/7/2020 1:30:00 PM 3.55 38.39 0.106 7.94 2.61 13.64
12/7/2020 1:45:00 PM 3.61 38.498 0.106 7.94 2.63 13.62
12/7/2020 2:00:00 PM 3.66 38.588 0.106 7.97 2.56 13.59
12/7/2020 2:15:00 PM 3.69 38.642 0.106 7.95 2.51 13.57
12/7/2020 2:30:00 PM 3.71 38.678 0.106 7.96 2.6 13.54
12/7/2020 2:45:00 PM 3.74 38.732 0.106 7.93 2.65 13.49
12/7/2020 3:00:00 PM 3.75 38.75 0.106 7.94 2.73 13.44
12/7/2020 3:15:00 PM 3.76 38.768 0.106 7.91 2.62 13.4
12/7/2020 3:30:00 PM 3.77 38.786 0.106 7.9 2.61 13.37
12/7/2020 3:45:00 PM 3.78 38.804 0.106 7.87 2.71 13.33
12/7/2020 4:00:00 PM 3.75 38.75 0.106 7.82 2.67 13.25
12/7/2020 4:15:00 PM 3.71 38.678 0.106 7.76 2.65 13.16
12/7/2020 4:30:00 PM 3.67 38.606 0.106 7.71 2.58 13.05
12/7/2020 4:45:00 PM 3.63 38.534 0.106 7.66 2.71 12.94
12/7/2020 5:00:00 PM 3.59 38.462 0.106 7.61 2.62 12.84
12/7/2020 5:15:00 PM 3.55 38.39 0.107 7.56 2.61 12.76
12/7/2020 5:30:00 PM 3.52 38.336 0.107 7.53 2.5 12.72
12/7/2020 5:45:00 PM 3.48 38.264 0.106 7.5 2.62 12.68
12/7/2020 6:00:00 PM 3.46 38.228 0.106 7.48 2.59 12.66
12/7/2020 6:15:00 PM 3.42 38.156 0.107 7.47 2.68 12.66
12/7/2020 6:30:00 PM 3.37 38.066 0.107 7.47 2.68 12.65
12/7/2020 6:45:00 PM 3.33 37.994 0.107 7.45 2.7 12.66
12/7/2020 7:00:00 PM 3.29 37.922 0.107 7.45 2.7 12.67
12/7/2020 7:15:00 PM 3.23 37.814 0.107 7.45 2.89 12.67
12/7/2020 7:30:00 PM 3.18 37.724 0.107 7.44 2.77 12.68
12/7/2020 7:45:00 PM 3.12 37.616 0.107 7.43 2.68 12.7
12/7/2020 8:00:00 PM 3.1 37.58 0.107 7.42 2.61 12.7
12/7/2020 8:15:00 PM 3.05 37.49 0.107 7.43 2.71 12.71
12/7/2020 8:30:00 PM 2.99 37.382 0.107 7.43 2.72 12.73
12/7/2020 8:45:00 PM 2.97 37.346 0.107 7.43 2.67 12.74
12/7/2020 9:00:00 PM 2.94 37.292 0.107 7.42 2.73 12.75
12/7/2020 9:15:00 PM 2.9 37.22 0.108 7.42 2.61 12.76
12/7/2020 9:30:00 PM 2.85 37.13 0.107 7.42 2.62 12.78
12/7/2020 9:45:00 PM 2.8 37.04 0.107 7.41 2.82 12.79
12/7/2020 10:00:00 PM 2.76 36.968 0.107 7.41 3.08 12.82
12/7/2020 10:15:00 PM 2.72 36.896 0.107 7.41 2.62 12.81
12/7/2020 10:30:00 PM 2.7 36.86 0.108 7.41 2.66 12.83
12/7/2020 10:45:00 PM 2.67 36.806 0.108 7.41 2.66 12.84
12/7/2020 11:00:00 PM 2.64 36.752 0.108 7.43 2.66 12.85
12/7/2020 11:15:00 PM 2.64 36.752 0.108 7.41 2.78 12.86
12/7/2020 11:30:00 PM 2.64 36.752 0.108 7.41 2.68 12.86
12/7/2020 11:45:00 PM 2.62 36.716 0.108 7.41 2.67 12.86
12/8/2020 12:00:00 AM 2.62 36.716 0.108 7.4 2.73 12.87
12/8/2020 12:15:00 AM 2.62 36.716 0.108 7.4 2.61 12.87
12/8/2020 12:30:00 AM 2.6 36.68 0.108 7.4 2.64 12.88
12/8/2020 12:45:00 AM 2.59 36.662 0.108 7.43 2.61 12.88
12/8/2020 1:00:00 AM 2.58 36.644 0.108 7.41 2.57 12.89
12/8/2020 1:15:00 AM 2.57 36.626 0.108 7.42 2.69 12.89
12/8/2020 1:30:00 AM 2.57 36.626 0.108 7.4 2.7 12.89
12/8/2020 1:45:00 AM 2.56 36.608 0.108 7.41 2.54 12.89
12/8/2020 2:00:00 AM 2.54 36.572 0.108 7.42 2.57 12.9
12/8/2020 2:15:00 AM 2.53 36.554 0.108 7.42 2.6 12.9
12/8/2020 2:30:00 AM 2.49 36.482 0.108 7.42 2.63 12.91
12/8/2020 2:45:00 AM 2.45 36.41 0.108 7.41 2.54 12.92
12/8/2020 3:00:00 AM 2.41 36.338 0.108 7.42 2.6 12.93
12/8/2020 3:15:00 AM 2.36 36.248 0.108 7.4 2.62 12.94
12/8/2020 3:30:00 AM 2.32 36.176 0.109 7.41 2.53 12.96
12/8/2020 3:45:00 AM 2.29 36.122 0.108 7.41 2.55 12.97
12/8/2020 4:00:00 AM 2.24 36.032 0.109 7.42 2.58 12.99
12/8/2020 4:15:00 AM 2.21 35.978 0.108 7.41 2.53 13
12/8/2020 4:30:00 AM 2.21 35.978 0.109 7.4 2.51 13.01
12/8/2020 4:45:00 AM 2.2 35.96 0.109 7.4 2.54 13.01
12/8/2020 5:00:00 AM 2.17 35.906 0.109 7.41 2.58 13.02
12/8/2020 5:15:00 AM 2.11 35.798 0.109 7.4 2.52 13.04
12/8/2020 5:30:00 AM 2.06 35.708 0.109 7.4 2.7 13.05
12/8/2020 5:45:00 AM 2.02 35.636 0.109 7.41 2.67 13.07
12/8/2020 6:00:00 AM 2 35.6 0.109 7.4 2.58 13.08
12/8/2020 6:15:00 AM 1.96 35.528 0.109 7.41 2.49 13.09
12/8/2020 6:30:00 AM 1.93 35.474 0.109 7.4 2.62 13.1
12/8/2020 6:45:00 AM 1.91 35.438 0.109 7.42 2.62 13.12
12/8/2020 7:00:00 AM 1.87 35.366 0.109 7.41 2.62 13.13
12/8/2020 7:15:00 AM 1.84 35.312 0.109 7.4 2.64 13.15
12/8/2020 7:30:00 AM 1.82 35.276 0.109 7.4 2.54 13.18
12/8/2020 7:45:00 AM 1.78 35.204 0.109 7.44 2.73 13.25
12/8/2020 8:00:00 AM 1.77 35.186 0.109 7.45 2.54 13.35
12/8/2020 8:15:00 AM 1.74 35.132 0.108 7.47 2.64 13.45
12/8/2020 8:30:00 AM 1.71 35.078 0.108 7.5 2.62 13.53
12/8/2020 8:45:00 AM 1.69 35.042 0.108 7.52 2.56 13.63
12/8/2020 9:00:00 AM 1.7 35.06 0.108 7.56 2.58 13.74
12/8/2020 9:15:00 AM 1.7 35.06 0.108 7.59 2.61 13.83
12/8/2020 9:30:00 AM 1.71 35.078 0.108 7.61 2.67 13.89
12/8/2020 9:45:00 AM 1.7 35.06 0.108 7.64 2.55 13.91
12/8/2020 10:00:00 AM 1.7 35.06 0.108 7.65 2.56 13.95
12/8/2020 10:15:00 AM 1.75 35.15 0.108 7.67 2.53 14
12/8/2020 10:30:00 AM 1.8 35.24 0.108 7.7 2.61 14.03
12/8/2020 10:45:00 AM 1.89 35.402 0.108 7.73 2.54 14.06
12/8/2020 11:00:00 AM 1.96 35.528 0.108 7.75 2.54 14.09
12/8/2020 11:15:00 AM 2.05 35.69 0.108 7.79 2.32 14.1
12/8/2020 11:30:00 AM 2.14 35.852 0.108 7.81 2.5 14.09
12/8/2020 11:45:00 AM 2.21 35.978 0.107 7.81 2.59 14.05
12/8/2020 12:00:00 PM 2.28 36.104 0.107 7.81 2.79 14
12/8/2020 12:15:00 PM 2.32 36.176 0.107 7.8 2.63 13.96
12/8/2020 12:30:00 PM 2.35 36.23 0.107 7.8 2.71 13.91
12/8/2020 12:45:00 PM 2.41 36.338 0.107 7.78 2.56 13.89
12/8/2020 1:00:00 PM 2.45 36.41 0.107 7.8 2.54 13.87
12/8/2020 1:15:00 PM 2.51 36.518 0.107 7.78 2.63 13.83
12/8/2020 1:30:00 PM 2.57 36.626 0.108 7.8 2.54 13.8
12/8/2020 1:45:00 PM 2.62 36.716 0.107 7.78 2.49 13.76
12/8/2020 2:00:00 PM 2.64 36.752 0.107 7.78 2.56 13.71
12/8/2020 2:15:00 PM 2.69 36.842 0.107 7.78 2.6 13.68
12/8/2020 2:30:00 PM 2.72 36.896 0.107 7.77 2.64 13.65
12/8/2020 2:45:00 PM 2.75 36.95 0.107 7.76 2.63 13.61
12/8/2020 3:00:00 PM 2.78 37.004 0.107 7.77 2.49 13.58
12/8/2020 3:15:00 PM 2.8 37.04 0.107 7.74 2.66 13.54
12/8/2020 3:30:00 PM 2.82 37.076 0.107 7.73 2.61 13.5
12/8/2020 3:45:00 PM 2.84 37.112 0.107 7.71 2.6 13.47
12/8/2020 4:00:00 PM 2.85 37.13 0.107 7.71 2.79 13.42
12/8/2020 4:15:00 PM 2.84 37.112 0.107 7.67 2.48 13.35
12/8/2020 4:30:00 PM 2.82 37.076 0.107 7.65 2.46 13.28
12/8/2020 4:45:00 PM 2.79 37.022 0.107 7.6 2.6 13.22
12/8/2020 5:00:00 PM 2.76 36.968 0.107 7.57 2.54 13.13
12/8/2020 5:15:00 PM 2.72 36.896 0.108 7.53 2.46 13.08
12/8/2020 5:30:00 PM 2.67 36.806 0.107 7.51 2.53 13.03
12/8/2020 5:45:00 PM 2.62 36.716 0.107 7.5 2.78 13.02
12/8/2020 6:00:00 PM 2.58 36.644 0.107 7.49 2.52 13
12/8/2020 6:15:00 PM 2.54 36.572 0.107 7.48 2.64 13
12/8/2020 6:30:00 PM 2.49 36.482 0.108 7.48 2.65 13
12/8/2020 6:45:00 PM 2.45 36.41 0.108 7.47 2.59 13.01
12/8/2020 7:00:00 PM 2.41 36.338 0.108 7.47 2.59 13.01
12/8/2020 7:15:00 PM 2.38 36.284 0.108 7.46 2.9 13.02
12/8/2020 7:30:00 PM 2.33 36.194 0.108 7.45 2.56 13.03
12/8/2020 7:45:00 PM 2.31 36.158 0.108 7.43 2.59 13.04
12/8/2020 8:00:00 PM 2.28 36.104 0.108 7.43 2.6 13.05
12/8/2020 8:15:00 PM 2.26 36.068 0.108 7.45 2.61 13.07
12/8/2020 8:30:00 PM 2.24 36.032 0.108 7.43 2.56 13.07
12/8/2020 8:45:00 PM 2.22 35.996 0.108 7.43 2.56 13.07
12/8/2020 9:00:00 PM 2.22 35.996 0.108 7.42 2.55 13.08
12/8/2020 9:15:00 PM 2.24 36.032 0.108 7.43 2.65 13.08
12/8/2020 9:30:00 PM 2.24 36.032 0.108 7.43 2.61 13.08
12/8/2020 9:45:00 PM 2.25 36.05 0.108 7.43 2.66 13.08
12/8/2020 10:00:00 PM 2.25 36.05 0.108 7.42 2.68 13.08
12/8/2020 10:15:00 PM 2.24 36.032 0.109 7.44 2.51 13.07
12/8/2020 10:30:00 PM 2.23 36.014 0.109 7.42 2.58 13.08
12/8/2020 10:45:00 PM 2.23 36.014 0.108 7.43 2.64 13.08
12/8/2020 11:00:00 PM 2.22 35.996 0.109 7.41 2.62 13.08
12/8/2020 11:15:00 PM 2.21 35.978 0.108 7.42 2.69 13.08
12/8/2020 11:30:00 PM 2.2 35.96 0.109 7.42 2.73 13.08
12/8/2020 11:45:00 PM 2.18 35.924 0.109 7.42 2.59 13.09
12/9/2020 12:00:00 AM 2.16 35.888 0.109 7.44 2.78 13.1
12/9/2020 12:15:00 AM 2.15 35.87 0.109 7.42 2.55 13.1
12/9/2020 12:30:00 AM 2.14 35.852 0.109 7.41 2.45 13.1
12/9/2020 12:45:00 AM 2.13 35.834 0.109 7.43 2.65 13.11
12/9/2020 1:00:00 AM 2.12 35.816 0.109 7.41 2.65 13.11
12/9/2020 1:15:00 AM 2.12 35.816 0.109 7.43 2.64 13.11
12/9/2020 1:30:00 AM 2.12 35.816 0.109 7.43 2.57 13.11
12/9/2020 1:45:00 AM 2.12 35.816 0.109 7.42 2.67 13.11
12/9/2020 2:00:00 AM 2.11 35.798 0.109 7.43 2.59 13.11
12/9/2020 2:15:00 AM 2.11 35.798 0.109 7.41 2.57 13.11
12/9/2020 2:30:00 AM 2.1 35.78 0.109 7.43 2.56 13.1
12/9/2020 2:45:00 AM 2.11 35.798 0.109 7.41 2.64 13.1
12/9/2020 3:00:00 AM 2.11 35.798 0.109 7.42 2.53 13.1
12/9/2020 3:15:00 AM 2.09 35.762 0.109 7.43 2.61 13.11
12/9/2020 3:30:00 AM 2.08 35.744 0.109 7.42 2.61 13.1
12/9/2020 3:45:00 AM 2.08 35.744 0.11 7.43 2.52 13.1
12/9/2020 4:00:00 AM 2.08 35.744 0.109 7.42 2.65 13.1
12/9/2020 4:15:00 AM 2.06 35.708 0.109 7.42 2.59 13.11
12/9/2020 4:30:00 AM 2.06 35.708 0.109 7.43 2.47 13.1
12/9/2020 4:45:00 AM 2.07 35.726 0.109 7.42 2.51 13.1
12/9/2020 5:00:00 AM 2.06 35.708 0.109 7.43 2.55 13.11
12/9/2020 5:15:00 AM 2.05 35.69 0.109 7.41 2.64 13.11
12/9/2020 5:30:00 AM 2.05 35.69 0.109 7.42 2.5 13.11
12/9/2020 5:45:00 AM 2.06 35.708 0.109 7.41 2.59 13.11
12/9/2020 6:00:00 AM 2.06 35.708 0.11 7.42 2.53 13.1
12/9/2020 6:15:00 AM 2.07 35.726 0.109 7.41 2.64 13.1
12/9/2020 6:30:00 AM 2.07 35.726 0.109 7.42 2.58 13.1
12/9/2020 6:45:00 AM 2.08 35.744 0.11 7.41 2.53 13.1
12/9/2020 7:00:00 AM 2.08 35.744 0.109 7.42 2.59 13.09
12/9/2020 7:15:00 AM 2.08 35.744 0.109 7.43 2.47 13.09
12/9/2020 7:30:00 AM 2.08 35.744 0.109 7.42 2.46 13.1
12/9/2020 7:45:00 AM 2.09 35.762 0.109 7.41 2.44 13.1
12/9/2020 8:00:00 AM 2.11 35.798 0.109 7.44 2.45 13.13
12/9/2020 8:15:00 AM 2.12 35.816 0.109 7.43 2.52 13.15
12/9/2020 8:30:00 AM 2.12 35.816 0.109 7.44 2.38 13.18
12/9/2020 8:45:00 AM 2.13 35.834 0.109 7.46 2.57 13.21
12/9/2020 9:00:00 AM 2.12 35.816 0.109 7.48 2.47 13.26
12/9/2020 9:15:00 AM 2.11 35.798 0.109 7.48 2.55 13.32
12/9/2020 9:30:00 AM 2.09 35.762 0.109 7.52 2.57 13.4
12/9/2020 9:45:00 AM 2.07 35.726 0.109 7.53 2.58 13.51
12/9/2020 10:00:00 AM 2.1 35.78 0.109 7.57 2.55 13.64
12/9/2020 10:15:00 AM 2.13 35.834 0.108 7.6 2.43 13.71
12/9/2020 10:30:00 AM 2.17 35.906 0.108 7.64 2.42 13.77
12/9/2020 10:45:00 AM 2.21 35.978 0.108 7.68 2.43 13.8
12/9/2020 11:00:00 AM 2.26 36.068 0.108 7.68 2.53 13.84
12/9/2020 11:15:00 AM 2.29 36.122 0.108 7.71 2.52 13.83
12/9/2020 11:30:00 AM 2.32 36.176 0.108 7.72 2.51 13.8
12/9/2020 11:45:00 AM 2.33 36.194 0.108 7.7 2.49 13.76
12/9/2020 12:00:00 PM 2.34 36.212 0.108 7.71 2.51 13.73
12/9/2020 12:15:00 PM 2.36 36.248 0.108 7.7 2.5 13.72
12/9/2020 12:30:00 PM 2.4 36.32 0.108 7.72 2.63 13.74
12/9/2020 12:45:00 PM 2.43 36.374 0.108 7.75 2.5 13.75
12/9/2020 1:00:00 PM 2.46 36.428 0.108 7.76 2.45 13.78
12/9/2020 1:15:00 PM 2.5 36.5 0.108 7.79 2.49 13.79
12/9/2020 1:30:00 PM 2.53 36.554 0.107 7.78 2.46 13.77
12/9/2020 1:45:00 PM 2.54 36.572 0.108 7.74 2.51 13.67
12/9/2020 2:00:00 PM 2.56 36.608 0.108 7.73 2.58 13.59
12/9/2020 2:15:00 PM 2.57 36.626 0.108 7.69 2.59 13.51
12/9/2020 2:30:00 PM 2.59 36.662 0.109 7.67 2.47 13.45
12/9/2020 2:45:00 PM 2.6 36.68 0.108 7.66 2.51 13.41
12/9/2020 3:00:00 PM 2.61 36.698 0.108 7.65 2.48 13.38
12/9/2020 3:15:00 PM 2.62 36.716 0.108 7.62 2.54 13.35
12/9/2020 3:30:00 PM 2.63 36.734 0.108 7.61 2.61 13.33
12/9/2020 3:45:00 PM 2.65 36.77 0.108 7.6 2.49 13.3
12/9/2020 4:00:00 PM 2.66 36.788 0.108 7.61 2.51 13.28
12/9/2020 4:15:00 PM 2.67 36.806 0.108 7.58 2.51 13.22
12/9/2020 4:30:00 PM 2.68 36.824 0.108 7.56 2.69 13.15
12/9/2020 4:45:00 PM 2.69 36.842 0.108 7.54 2.48 13.08
12/9/2020 5:00:00 PM 2.71 36.878 0.108 7.51 2.53 13.02
12/9/2020 5:15:00 PM 2.72 36.896 0.108 7.5 2.44 12.97
12/9/2020 5:30:00 PM 2.73 36.914 0.108 7.49 2.56 12.95
12/9/2020 5:45:00 PM 2.75 36.95 0.109 7.47 2.44 12.92
12/9/2020 6:00:00 PM 2.76 36.968 0.108 7.47 2.53 12.9
12/9/2020 6:15:00 PM 2.79 37.022 0.108 7.47 2.57 12.89
12/9/2020 6:30:00 PM 2.8 37.04 0.108 7.47 2.5 12.88
12/9/2020 6:45:00 PM 2.82 37.076 0.108 7.46 2.52 12.88
12/9/2020 7:00:00 PM 2.83 37.094 0.108 7.44 2.76 12.87
12/9/2020 7:15:00 PM 2.84 37.112 0.108 7.45 2.49 12.86
12/9/2020 7:30:00 PM 2.86 37.148 0.108 7.44 2.58 12.86
12/9/2020 7:45:00 PM 2.87 37.166 0.108 7.42 2.47 12.85
12/9/2020 8:00:00 PM 2.88 37.184 0.109 7.43 2.47 12.84
12/9/2020 8:15:00 PM 2.9 37.22 0.109 7.43 2.68 12.83
12/9/2020 8:30:00 PM 2.91 37.238 0.109 7.43 2.64 12.84
12/9/2020 8:45:00 PM 2.93 37.274 0.108 7.31 2.59 12.83
12/9/2020 9:00:00 PM 2.94 37.292 0.109 7.43 2.44 12.82
12/9/2020 9:15:00 PM 2.95 37.31 0.109 7.43 2.56 12.82
12/9/2020 9:30:00 PM 2.96 37.328 0.109 7.42 2.73 12.81
12/9/2020 9:45:00 PM 2.98 37.364 0.109 7.43 2.52 12.81
12/9/2020 10:00:00 PM 2.98 37.364 0.109 7.43 2.49 12.82
12/9/2020 10:15:00 PM 3 37.4 0.108 7.41 2.48 12.81
12/9/2020 10:30:00 PM 3.01 37.418 0.109 7.42 2.9 12.8
12/9/2020 10:45:00 PM 3.02 37.436 0.109 7.42 2.54 12.79
12/9/2020 11:00:00 PM 3.02 37.436 0.109 7.41 2.63 12.79
12/9/2020 11:15:00 PM 3.03 37.454 0.109 7.42 2.53 12.79
12/9/2020 11:30:00 PM 3.03 37.454 0.109 7.41 2.45 12.78
12/9/2020 11:45:00 PM 3.04 37.472 0.109 7.41 2.63 12.78
12/10/2020 12:00:00 AM 3.04 37.472 0.109 7.42 2.63 12.79
12/10/2020 12:15:00 AM 3.05 37.49 0.109 7.42 2.54 12.79
12/10/2020 12:30:00 AM 3.05 37.49 0.109 7.43 2.48 12.79
12/10/2020 12:45:00 AM 3.06 37.508 0.109 7.43 2.48 12.78
12/10/2020 1:00:00 AM 3.06 37.508 0.109 7.41 2.6 12.78
12/10/2020 1:15:00 AM 3.08 37.544 0.109 7.41 2.54 12.79
12/10/2020 1:30:00 AM 3.1 37.58 0.109 7.41 2.6 12.77
12/10/2020 1:45:00 AM 3.1 37.58 0.109 7.41 2.44 12.77
12/10/2020 2:00:00 AM 3.1 37.58 0.109 7.41 2.54 12.77
12/10/2020 2:15:00 AM 3.1 37.58 0.109 7.42 3.04 12.77
12/10/2020 2:30:00 AM 3.1 37.58 0.109 7.42 2.6 12.78
12/10/2020 2:45:00 AM 3.08 37.544 0.109 7.41 2.59 12.79
12/10/2020 3:00:00 AM 3.08 37.544 0.109 7.42 2.5 12.79
12/10/2020 3:15:00 AM 3.07 37.526 0.109 7.42 2.51 12.79
12/10/2020 3:30:00 AM 3.06 37.508 0.109 7.42 2.54 12.79
12/10/2020 3:45:00 AM 3.05 37.49 0.109 7.42 2.63 12.8
12/10/2020 4:00:00 AM 3.04 37.472 0.109 7.4 2.55 12.8
12/10/2020 4:15:00 AM 3.04 37.472 0.109 7.42 2.54 12.81
12/10/2020 4:30:00 AM 3.04 37.472 0.109 7.43 2.5 12.81
12/10/2020 4:45:00 AM 3.03 37.454 0.109 7.43 2.67 12.82
12/10/2020 5:00:00 AM 3.01 37.418 0.109 7.43 2.86 12.82
12/10/2020 5:15:00 AM 2.98 37.364 0.109 7.41 2.62 12.83
12/10/2020 5:30:00 AM 2.95 37.31 0.109 7.41 2.68 12.84
12/10/2020 5:45:00 AM 2.95 37.31 0.109 7.4 2.53 12.85
12/10/2020 6:00:00 AM 2.96 37.328 0.109 7.42 2.47 12.84
12/10/2020 6:15:00 AM 2.97 37.346 0.109 7.42 2.73 12.86
12/10/2020 6:30:00 AM 2.97 37.346 0.109 7.41 2.48 12.85
12/10/2020 6:45:00 AM 2.97 37.346 0.109 7.41 2.48 12.86
12/10/2020 7:00:00 AM 2.97 37.346 0.109 7.41 2.48 12.86
12/10/2020 7:15:00 AM 2.98 37.364 0.109 7.41 2.49 12.87
12/10/2020 7:30:00 AM 2.99 37.382 0.109 7.41 2.67 12.87
12/10/2020 7:45:00 AM 3 37.4 0.109 7.4 2.68 12.9
12/10/2020 8:00:00 AM 3.03 37.454 0.109 7.45 2.44 12.96
12/10/2020 8:15:00 AM 3.04 37.472 0.109 7.48 2.51 13.08
12/10/2020 8:30:00 AM 3.05 37.49 0.109 7.49 2.65 13.22
12/10/2020 8:45:00 AM 3.08 37.544 0.109 7.54 2.5 13.38
12/10/2020 9:00:00 AM 3.13 37.634 0.109 7.6 2.53 13.51
12/10/2020 9:15:00 AM 3.19 37.742 0.108 7.64 2.61 13.62
12/10/2020 9:30:00 AM 3.26 37.868 0.108 7.7 2.54 13.7
12/10/2020 9:45:00 AM 3.35 38.03 0.108 7.76 2.45 13.76
12/10/2020 10:00:00 AM 3.43 38.174 0.108 7.81 2.51 13.79
12/10/2020 10:15:00 AM 3.52 38.336 0.108 7.85 2.41 13.8
12/10/2020 10:30:00 AM 3.6 38.48 0.108 7.89 2.51 13.81
12/10/2020 10:45:00 AM 3.69 38.642 0.108 7.93 2.48 13.81
12/10/2020 11:00:00 AM 3.75 38.75 0.108 7.95 2.52 13.8
12/10/2020 11:15:00 AM 3.83 38.894 0.108 8 2.38 13.79
12/10/2020 11:30:00 AM 3.9 39.02 0.108 8.01 2.47 13.78
12/10/2020 11:45:00 AM 4 39.2 0.107 8.04 2.51 13.77
12/10/2020 12:00:00 PM 4.18 39.524 0.107 8.08 2.58 13.76
12/10/2020 12:15:00 PM 4.27 39.686 0.107 8.11 2.51 13.74
12/10/2020 12:30:00 PM 4.29 39.722 0.108 8.12 2.63 13.69
12/10/2020 12:45:00 PM 4.32 39.776 0.108 8.1 2.46 13.64
12/10/2020 1:00:00 PM 4.38 39.884 0.108 8.1 2.38 13.59
12/10/2020 1:15:00 PM 4.38 39.884 0.108 8.06 2.45 13.52
12/10/2020 1:30:00 PM 4.38 39.884 0.107 8.03 2.43 13.47
12/10/2020 1:45:00 PM 4.42 39.956 0.108 8.02 2.5 13.42
12/10/2020 2:00:00 PM 4.45 40.01 0.108 7.98 2.46 13.35
12/10/2020 2:15:00 PM 4.5 40.1 0.108 7.97 2.72 13.29
12/10/2020 2:30:00 PM 4.53 40.154 0.108 7.95 2.48 13.25
12/10/2020 2:45:00 PM 4.55 40.19 0.108 7.92 2.59 13.2
12/10/2020 3:00:00 PM 4.57 40.226 0.108 7.91 2.44 13.16
12/10/2020 3:15:00 PM 4.58 40.244 0.108 7.89 2.54 13.14
12/10/2020 3:30:00 PM 4.57 40.226 0.108 7.86 2.59 13.1
12/10/2020 3:45:00 PM 4.56 40.208 0.108 7.83 2.6 13.06
12/10/2020 4:00:00 PM 4.53 40.154 0.108 7.81 2.55 13
12/10/2020 4:15:00 PM 4.49 40.082 0.108 7.75 2.49 12.95
12/10/2020 4:30:00 PM 4.45 40.01 0.108 7.71 2.57 12.87
12/10/2020 4:45:00 PM 4.4 39.92 0.109 7.67 2.76 12.78
12/10/2020 5:00:00 PM 4.34 39.812 0.109 7.62 2.63 12.7
12/10/2020 5:15:00 PM 4.29 39.722 0.109 7.56 2.57 12.64
12/10/2020 5:30:00 PM 4.23 39.614 0.109 7.55 2.78 12.59
12/10/2020 5:45:00 PM 4.16 39.488 0.109 7.51 2.67 12.57
12/10/2020 6:00:00 PM 4.09 39.362 0.109 7.51 2.61 12.56
12/10/2020 6:15:00 PM 4.01 39.218 0.109 7.51 2.72 12.56
12/10/2020 6:30:00 PM 3.93 39.074 0.109 7.49 2.62 12.58
12/10/2020 6:45:00 PM 3.87 38.966 0.109 7.48 2.59 12.59
12/10/2020 7:00:00 PM 3.81 38.858 0.109 7.49 2.82 12.6
12/10/2020 7:15:00 PM 3.75 38.75 0.11 7.47 2.5 12.62
12/10/2020 7:30:00 PM 3.69 38.642 0.11 7.48 2.54 12.64
12/10/2020 7:45:00 PM 3.62 38.516 0.11 7.46 2.63 12.66
12/10/2020 8:00:00 PM 3.56 38.408 0.11 7.45 2.58 12.68
12/10/2020 8:15:00 PM 3.49 38.282 0.11 7.46 2.54 12.71
12/10/2020 8:30:00 PM 3.44 38.192 0.11 7.46 2.49 12.72
12/10/2020 8:45:00 PM 3.38 38.084 0.11 7.45 2.98 12.74
12/10/2020 9:00:00 PM 3.33 37.994 0.111 7.44 2.67 12.75
12/10/2020 9:15:00 PM 3.27 37.886 0.11 7.45 2.51 12.77
12/10/2020 9:30:00 PM 3.22 37.796 0.111 7.43 2.51 12.78
12/10/2020 9:45:00 PM 3.17 37.706 0.11 7.43 2.71 12.79
12/10/2020 10:00:00 PM 3.12 37.616 0.11 7.43 2.53 12.81
12/10/2020 10:15:00 PM 3.08 37.544 0.11 7.43 2.48 12.83
12/10/2020 10:30:00 PM 3.03 37.454 0.111 7.43 2.58 12.84
12/10/2020 10:45:00 PM 2.99 37.382 0.111 7.42 2.69 12.86
12/10/2020 11:00:00 PM 2.95 37.31 0.11 7.42 2.64 12.87
12/10/2020 11:15:00 PM 2.91 37.238 0.111 7.42 2.75 12.89
12/10/2020 11:30:00 PM 2.86 37.148 0.111 7.41 2.56 12.9
12/10/2020 11:45:00 PM 2.82 37.076 0.111 7.42 2.6 12.92
12/11/2020 12:00:00 AM 2.78 37.004 0.111 7.43 2.71 12.93
12/11/2020 12:15:00 AM 2.73 36.914 0.111 7.44 2.81 12.95
12/11/2020 12:30:00 AM 2.69 36.842 0.111 7.42 2.73 12.97
12/11/2020 12:45:00 AM 2.64 36.752 0.111 7.42 2.6 12.98
12/11/2020 1:00:00 AM 2.61 36.698 0.111 7.42 2.58 12.99
12/11/2020 1:15:00 AM 2.57 36.626 0.111 7.42 2.46 13.01
12/11/2020 1:30:00 AM 2.53 36.554 0.112 7.4 2.52 13.02
12/11/2020 1:45:00 AM 2.49 36.482 0.112 7.43 2.44 13.04
12/11/2020 2:00:00 AM 2.45 36.41 0.112 7.41 2.54 13.05
12/11/2020 2:15:00 AM 2.41 36.338 0.112 7.41 2.61 13.07
12/11/2020 2:30:00 AM 2.37 36.266 0.112 7.42 2.54 13.08
12/11/2020 2:45:00 AM 2.33 36.194 0.112 7.4 2.53 13.1
12/11/2020 3:00:00 AM 2.3 36.14 0.112 7.42 2.43 13.1
12/11/2020 3:15:00 AM 2.26 36.068 0.113 7.42 2.4 13.12
12/11/2020 3:30:00 AM 2.22 35.996 0.112 7.42 2.61 13.13
12/11/2020 3:45:00 AM 2.18 35.924 0.112 7.41 2.63 13.15
12/11/2020 4:00:00 AM 2.15 35.87 0.112 7.41 2.5 13.16
12/11/2020 4:15:00 AM 2.11 35.798 0.112 7.41 2.53 13.17
12/11/2020 4:30:00 AM 2.08 35.744 0.112 7.41 2.49 13.18
12/11/2020 4:45:00 AM 2.05 35.69 0.112 7.4 2.46 13.2
12/11/2020 5:00:00 AM 2.01 35.618 0.112 7.42 2.51 13.2
12/11/2020 5:15:00 AM 1.98 35.564 0.112 7.4 2.48 13.21
12/11/2020 5:30:00 AM 1.95 35.51 0.112 7.4 2.39 13.23
12/11/2020 5:45:00 AM 1.92 35.456 0.112 7.41 2.4 13.25
12/11/2020 6:00:00 AM 1.89 35.402 0.112 7.4 2.4 13.26
12/11/2020 6:15:00 AM 1.85 35.33 0.112 7.4 2.51 13.27
12/11/2020 6:30:00 AM 1.83 35.294 0.112 7.42 2.53 13.29
12/11/2020 6:45:00 AM 1.8 35.24 0.112 7.41 2.5 13.29
12/11/2020 7:00:00 AM 1.78 35.204 0.113 7.41 2.39 13.3
12/11/2020 7:15:00 AM 1.74 35.132 0.112 7.42 2.46 13.32
12/11/2020 7:30:00 AM 1.72 35.096 0.112 7.42 2.44 13.35
12/11/2020 7:45:00 AM 1.7 35.06 0.112 7.42 2.57 13.42
12/11/2020 8:00:00 AM 1.69 35.042 0.112 7.45 2.46 13.52
12/11/2020 8:15:00 AM 1.68 35.024 0.112 7.49 2.43 13.66
12/11/2020 8:30:00 AM 1.69 35.042 0.112 7.54 2.52 13.79
12/11/2020 8:45:00 AM 1.7 35.06 0.112 7.57 2.48 13.92
12/11/2020 9:00:00 AM 1.7 35.06 0.111 7.59 2.46 14.03
12/11/2020 9:15:00 AM 1.73 35.114 0.111 7.65 2.39 14.11
12/11/2020 9:30:00 AM 1.77 35.186 0.111 7.65 2.53 14.17
12/11/2020 9:45:00 AM 1.81 35.258 0.111 7.7 2.4 14.21
12/11/2020 10:00:00 AM 1.86 35.348 0.111 7.73 2.39 14.24
12/11/2020 10:15:00 AM 1.96 35.528 0.111 7.76 2.49 14.28
12/11/2020 10:30:00 AM 2.07 35.726 0.111 7.79 2.55 14.29
12/11/2020 10:45:00 AM 2.18 35.924 0.11 7.84 2.4 14.29
12/11/2020 11:00:00 AM 2.29 36.122 0.111 7.87 2.32 14.27
12/11/2020 11:15:00 AM 2.4 36.32 0.11 7.89 2.46 14.24
12/11/2020 11:30:00 AM 2.5 36.5 0.111 7.9 2.42 14.19
12/11/2020 11:45:00 AM 2.62 36.716 0.11 7.91 2.39 14.15
12/11/2020 12:00:00 PM 2.73 36.914 0.11 7.93 2.5 14.13
12/11/2020 12:15:00 PM 2.86 37.148 0.11 7.95 2.35 14.11
12/11/2020 12:30:00 PM 2.99 37.382 0.11 7.98 2.24 14.07
12/11/2020 12:45:00 PM 3.1 37.58 0.11 7.99 2.38 14.02
12/11/2020 1:00:00 PM 3.22 37.796 0.11 8.02 2.43 13.98
12/11/2020 1:15:00 PM 3.33 37.994 0.109 8.04 2.44 13.94
12/11/2020 1:30:00 PM 3.43 38.174 0.11 8.04 2.67 13.9
12/11/2020 1:45:00 PM 3.5 38.3 0.109 8.06 2.49 13.87
12/11/2020 2:00:00 PM 3.56 38.408 0.11 8.04 2.48 13.82
12/11/2020 2:15:00 PM 3.62 38.516 0.11 8.05 2.48 13.78
12/11/2020 2:30:00 PM 3.68 38.624 0.109 8.06 2.51 13.74
12/11/2020 2:45:00 PM 3.75 38.75 0.109 8.06 2.46 13.73
12/11/2020 3:00:00 PM 3.79 38.822 0.109 8.06 2.45 13.68
12/11/2020 3:15:00 PM 3.83 38.894 0.109 8.02 2.4 13.59
12/11/2020 3:30:00 PM 3.85 38.93 0.109 7.99 2.39 13.52
12/11/2020 3:45:00 PM 3.86 38.948 0.109 7.93 2.45 13.44
12/11/2020 4:00:00 PM 3.87 38.966 0.11 7.87 2.39 13.33
12/11/2020 4:15:00 PM 3.87 38.966 0.11 7.83 2.51 13.23
12/11/2020 4:30:00 PM 3.86 38.948 0.11 7.75 2.33 13.12
12/11/2020 4:45:00 PM 3.85 38.93 0.11 7.69 2.55 13
12/11/2020 5:00:00 PM 3.83 38.894 0.11 7.65 2.47 12.89
12/11/2020 5:15:00 PM 3.8 38.84 0.11 7.6 2.46 12.8
12/11/2020 5:30:00 PM 3.77 38.786 0.11 7.59 2.53 12.75
12/11/2020 5:45:00 PM 3.73 38.714 0.11 7.55 2.45 12.72
12/11/2020 6:00:00 PM 3.68 38.624 0.11 7.53 2.52 12.7
12/11/2020 6:15:00 PM 3.64 38.552 0.11 7.51 2.46 12.69
12/11/2020 6:30:00 PM 3.62 38.516 0.11 7.49 2.44 12.69
12/11/2020 6:45:00 PM 3.58 38.444 0.11 7.51 2.5 12.68
12/11/2020 7:00:00 PM 3.55 38.39 0.11 7.48 2.41 12.68
12/11/2020 7:15:00 PM 3.51 38.318 0.11 7.48 2.43 12.69
12/11/2020 7:30:00 PM 3.47 38.246 0.11 7.47 2.53 12.7
12/11/2020 7:45:00 PM 3.45 38.21 0.11 7.47 2.67 12.71
12/11/2020 8:00:00 PM 3.43 38.174 0.111 7.46 2.59 12.71
12/11/2020 8:15:00 PM 3.41 38.138 0.111 7.45 2.54 12.72
12/11/2020 8:30:00 PM 3.38 38.084 0.111 7.46 2.5 12.73
12/11/2020 8:45:00 PM 3.34 38.012 0.11 7.44 2.59 12.74
12/11/2020 9:00:00 PM 3.3 37.94 0.111 7.45 2.58 12.74
12/11/2020 9:15:00 PM 3.28 37.904 0.111 7.44 2.55 12.74
12/11/2020 9:30:00 PM 3.26 37.868 0.111 7.42 2.59 12.75
12/11/2020 9:45:00 PM 3.23 37.814 0.112 7.44 2.48 12.76
12/11/2020 10:00:00 PM 3.2 37.76 0.111 7.43 2.54 12.77
12/11/2020 10:15:00 PM 3.17 37.706 0.111 7.43 2.47 12.78
12/11/2020 10:30:00 PM 3.14 37.652 0.111 7.42 2.63 12.78
12/11/2020 10:45:00 PM 3.11 37.598 0.111 7.42 2.66 12.79
12/11/2020 11:00:00 PM 3.08 37.544 0.111 7.41 2.47 12.8
12/11/2020 11:15:00 PM 3.07 37.526 0.111 7.42 2.49 12.81
12/11/2020 11:30:00 PM 3.05 37.49 0.111 7.42 2.54 12.82
12/11/2020 11:45:00 PM 3.02 37.436 0.111 7.42 2.55 12.82
12/12/2020 12:00:00 AM 3 37.4 0.112 7.42 2.55 12.83
12/12/2020 12:15:00 AM 2.98 37.364 0.112 7.41 2.56 12.85
12/12/2020 12:30:00 AM 2.97 37.346 0.112 7.4 2.66 12.85
12/12/2020 12:45:00 AM 2.95 37.31 0.112 7.4 2.57 12.85
12/12/2020 1:00:00 AM 2.92 37.256 0.112 7.41 2.58 12.86
12/12/2020 1:15:00 AM 2.9 37.22 0.112 7.43 2.83 12.87
12/12/2020 1:30:00 AM 2.87 37.166 0.112 7.41 2.64 12.89
12/12/2020 1:45:00 AM 2.86 37.148 0.112 7.41 2.66 12.9
12/12/2020 2:00:00 AM 2.84 37.112 0.112 7.43 2.67 12.89
12/12/2020 2:15:00 AM 2.82 37.076 0.113 7.41 2.62 12.9
12/12/2020 2:30:00 AM 2.81 37.058 0.112 7.42 2.57 12.91
12/12/2020 2:45:00 AM 2.79 37.022 0.112 7.42 2.55 12.91
12/12/2020 3:00:00 AM 2.76 36.968 0.112 7.43 2.37 12.92
12/12/2020 3:15:00 AM 2.73 36.914 0.112 7.41 2.44 12.93
12/12/2020 3:30:00 AM 2.7 36.86 0.112 7.41 2.66 12.94
12/12/2020 3:45:00 AM 2.69 36.842 0.113 7.42 2.45 12.95
12/12/2020 4:00:00 AM 2.66 36.788 0.113 7.41 2.45 12.96
12/12/2020 4:15:00 AM 2.63 36.734 0.112 7.42 2.64 12.97
12/12/2020 4:30:00 AM 2.6 36.68 0.112 7.41 2.49 12.97
12/12/2020 4:45:00 AM 2.57 36.626 0.113 7.41 2.44 12.98
12/12/2020 5:00:00 AM 2.55 36.59 0.113 7.41 2.45 12.99
12/12/2020 5:15:00 AM 2.52 36.536 0.113 7.4 2.53 13
12/12/2020 5:30:00 AM 2.52 36.536 0.113 7.4 2.42 13
12/12/2020 5:45:00 AM 2.52 36.536 0.112 7.41 2.58 13.01
12/12/2020 6:00:00 AM 2.53 36.554 0.112 7.42 2.44 13.01
12/12/2020 6:15:00 AM 2.54 36.572 0.113 7.4 2.38 13.01
12/12/2020 6:30:00 AM 2.55 36.59 0.112 7.4 2.49 13
12/12/2020 6:45:00 AM 2.55 36.59 0.112 7.4 2.44 13
12/12/2020 7:00:00 AM 2.57 36.626 0.113 7.41 2.44 13
12/12/2020 7:15:00 AM 2.57 36.626 0.113 7.41 2.43 13
12/12/2020 7:30:00 AM 2.57 36.626 0.113 7.4 2.57 13
12/12/2020 7:45:00 AM 2.58 36.644 0.112 7.4 2.48 13.03
12/12/2020 8:00:00 AM 2.6 36.68 0.112 7.44 2.51 13.07
12/12/2020 8:15:00 AM 2.62 36.716 0.112 7.46 2.49 13.16
12/12/2020 8:30:00 AM 2.65 36.77 0.112 7.47 2.48 13.3
12/12/2020 8:45:00 AM 2.68 36.824 0.112 7.53 2.53 13.45
12/12/2020 9:00:00 AM 2.72 36.896 0.112 7.57 2.51 13.59
12/12/2020 9:15:00 AM 2.78 37.004 0.112 7.63 2.41 13.69
12/12/2020 9:30:00 AM 2.82 37.076 0.111 7.64 2.49 13.77
12/12/2020 9:45:00 AM 2.88 37.184 0.112 7.69 2.43 13.84
12/12/2020 10:00:00 AM 2.96 37.328 0.11 7.75 2.53 13.92
12/12/2020 10:15:00 AM 3.03 37.454 0.111 7.78 2.41 13.94
12/12/2020 10:30:00 AM 3.08 37.544 0.111 7.82 2.46 13.93
12/12/2020 10:45:00 AM 3.16 37.688 0.11 7.87 2.44 13.93
12/12/2020 11:00:00 AM 3.21 37.778 0.11 7.89 2.44 13.92
12/12/2020 11:15:00 AM 3.3 37.94 0.11 7.92 2.44 13.92
12/12/2020 11:30:00 AM 3.4 38.12 0.11 7.94 2.49 13.92
12/12/2020 11:45:00 AM 3.55 38.39 0.11 7.99 2.45 13.92
12/12/2020 12:00:00 PM 3.7 38.66 0.11 8.03 2.32 13.9
12/12/2020 12:15:00 PM 3.88 38.984 0.11 8.07 2.54 13.87
12/12/2020 12:30:00 PM 3.99 39.182 0.11 8.08 2.54 13.81
12/12/2020 12:45:00 PM 4.08 39.344 0.11 8.11 2.46 13.76
12/12/2020 1:00:00 PM 4.12 39.416 0.11 8.11 2.4 13.7
12/12/2020 1:15:00 PM 4.17 39.506 0.11 8.13 2.48 13.66
12/12/2020 1:30:00 PM 4.3 39.74 0.11 8.17 2.65 13.61
12/12/2020 1:45:00 PM 4.46 40.028 0.109 8.2 2.46 13.58
12/12/2020 2:00:00 PM 4.58 40.244 0.11 8.2 2.56 13.53
12/12/2020 2:15:00 PM 4.68 40.424 0.11 8.21 2.46 13.47
12/12/2020 2:30:00 PM 4.76 40.568 0.109 8.22 2.41 13.43
12/12/2020 2:45:00 PM 4.82 40.676 0.11 8.19 2.54 13.34
12/12/2020 3:00:00 PM 4.91 40.838 0.109 8.19 2.48 13.32
12/12/2020 3:15:00 PM 5 41 0.11 8.19 2.5 13.28
12/12/2020 3:30:00 PM 5.06 41.108 0.109 8.12 2.44 13.19
12/12/2020 3:45:00 PM 5.09 41.162 0.109 8.07 2.41 13.1
12/12/2020 4:00:00 PM 5.11 41.198 0.109 7.99 2.44 12.98
12/12/2020 4:15:00 PM 5.11 41.198 0.11 7.88 2.44 12.8
12/12/2020 4:30:00 PM 5.11 41.198 0.11 7.82 2.57 12.64
12/12/2020 4:45:00 PM 5.11 41.198 0.111 7.74 2.51 12.5
12/12/2020 5:00:00 PM 5.09 41.162 0.11 7.69 2.76 12.38
12/12/2020 5:15:00 PM 5.08 41.144 0.11 7.63 2.5 12.3
12/12/2020 5:30:00 PM 5.06 41.108 0.111 7.6 2.51 12.24
12/12/2020 5:45:00 PM 5.07 41.126 0.111 7.57 2.57 12.19
12/12/2020 6:00:00 PM 5.06 41.108 0.111 7.55 2.49 12.17
12/12/2020 6:15:00 PM 5.06 41.108 0.111 7.54 2.63 12.14
12/12/2020 6:30:00 PM 5.06 41.108 0.111 7.52 2.59 12.13
12/12/2020 6:45:00 PM 5.06 41.108 0.111 7.51 2.65 12.12
12/12/2020 7:00:00 PM 5.06 41.108 0.111 7.5 2.64 12.11
12/12/2020 7:15:00 PM 5.06 41.108 0.11 7.49 2.63 12.1
12/12/2020 7:30:00 PM 5.06 41.108 0.11 7.48 2.56 12.09
12/12/2020 7:45:00 PM 5.05 41.09 0.11 7.46 2.5 12.09
12/12/2020 8:00:00 PM 5.06 41.108 0.111 7.47 2.59 12.09
12/12/2020 8:15:00 PM 5.07 41.126 0.11 7.36 2.53 12.08
12/12/2020 8:30:00 PM 5.08 41.144 0.11 7.47 2.66 12.08
12/12/2020 8:45:00 PM 5.09 41.162 0.111 7.46 2.6 12.07
12/12/2020 9:00:00 PM 5.1 41.18 0.111 7.47 2.59 12.06
12/12/2020 9:15:00 PM 5.11 41.198 0.11 7.47 2.5 12.05
12/12/2020 9:30:00 PM 5.12 41.216 0.111 7.46 2.49 12.05
12/12/2020 9:45:00 PM 5.12 41.216 0.11 7.45 2.67 12.04
12/12/2020 10:00:00 PM 5.13 41.234 0.111 7.47 2.58 12.03
12/12/2020 10:15:00 PM 5.13 41.234 0.111 7.45 2.58 12.03
12/12/2020 10:30:00 PM 5.1 41.18 0.111 7.46 2.54 12.03
12/12/2020 10:45:00 PM 5.08 41.144 0.111 7.44 2.53 12.03
12/12/2020 11:00:00 PM 5.08 41.144 0.111 7.44 2.64 12.03
12/12/2020 11:15:00 PM 5.08 41.144 0.111 7.44 2.65 12.03
12/12/2020 11:30:00 PM 5.1 41.18 0.111 7.44 2.69 12.03
12/12/2020 11:45:00 PM 5.11 41.198 0.111 7.43 2.46 12.02
12/13/2020 12:00:00 AM 5.12 41.216 0.111 7.43 2.6 12.01
12/13/2020 12:15:00 AM 5.13 41.234 0.111 7.45 2.69 12.01
12/13/2020 12:30:00 AM 5.14 41.252 0.111 7.44 2.8 12.01
12/13/2020 12:45:00 AM 5.14 41.252 0.111 7.44 2.62 12
12/13/2020 1:00:00 AM 5.12 41.216 0.111 7.44 2.6 12.01
12/13/2020 1:15:00 AM 5.12 41.216 0.111 7.44 2.53 12.01
12/13/2020 1:30:00 AM 5.11 41.198 0.111 7.45 2.84 12
12/13/2020 1:45:00 AM 5.09 41.162 0.112 7.43 2.7 12.01
12/13/2020 2:00:00 AM 5.09 41.162 0.111 7.44 2.64 12.01
12/13/2020 2:15:00 AM 5.08 41.144 0.112 7.44 2.72 12.02
12/13/2020 2:30:00 AM 5.07 41.126 0.112 7.45 2.58 12.02
12/13/2020 2:45:00 AM 5.05 41.09 0.112 7.45 2.71 12.02
12/13/2020 3:00:00 AM 5.01 41.018 0.112 7.45 2.48 12.03
12/13/2020 3:15:00 AM 5.01 41.018 0.112 7.45 2.57 12.04
12/13/2020 3:30:00 AM 5 41 0.112 7.43 2.51 12.04
12/13/2020 3:45:00 AM 5.01 41.018 0.112 7.45 2.74 12.04
12/13/2020 4:00:00 AM 5.01 41.018 0.112 7.44 2.56 12.05
12/13/2020 4:30:00 AM 4.97 40.946 0.112 7.44 2.59 12.05
12/13/2020 4:45:00 AM 4.96 40.928 0.112 7.43 2.64 12.06
12/13/2020 5:00:00 AM 4.96 40.928 0.112 7.43 2.43 12.06
12/13/2020 5:15:00 AM 4.97 40.946 0.113 7.43 2.58 12.05
12/13/2020 5:30:00 AM 4.96 40.928 0.112 7.41 2.62 12.06
12/13/2020 5:45:00 AM 4.94 40.892 0.112 7.43 2.67 12.06
12/13/2020 6:00:00 AM 4.92 40.856 0.112 7.41 2.61 12.07
12/13/2020 6:15:00 AM 4.9 40.82 0.112 7.3 2.58 12.08
12/13/2020 6:30:00 AM 4.87 40.766 0.112 7.42 2.6 12.09
12/13/2020 6:45:00 AM 4.83 40.694 0.112 7.42 2.53 12.09
12/13/2020 7:00:00 AM 4.84 40.712 0.112 7.43 2.58 12.11
12/13/2020 7:15:00 AM 4.84 40.712 0.112 7.46 2.59 12.12
12/13/2020 7:30:00 AM 4.83 40.694 0.112 7.45 2.56 12.14
12/13/2020 7:45:00 AM 4.83 40.694 0.112 7.45 2.6 12.2
12/13/2020 8:00:00 AM 4.85 40.73 0.112 7.49 2.49 12.25
12/13/2020 8:15:00 AM 4.86 40.748 0.112 7.51 2.47 12.33
12/13/2020 8:30:00 AM 4.88 40.784 0.112 7.52 2.81 12.4
12/13/2020 8:45:00 AM 4.91 40.838 0.112 7.56 2.63 12.52
12/13/2020 9:00:00 AM 4.95 40.91 0.112 7.6 2.58 12.68
12/13/2020 9:15:00 AM 4.97 40.946 0.111 7.61 2.72 12.71
12/13/2020 9:30:00 AM 5.01 41.018 0.111 7.64 2.68 12.74
12/13/2020 9:45:00 AM 5.04 41.072 0.111 7.69 2.54 12.82
12/13/2020 10:00:00 AM 5.07 41.126 0.111 7.72 2.53 12.89
12/13/2020 10:15:00 AM 5.16 41.288 0.11 7.8 2.52 13.04
12/13/2020 10:30:00 AM 5.24 41.432 0.111 7.91 2.47 13.17
12/13/2020 10:45:00 AM 5.26 41.468 0.11 7.95 2.41 13.2
12/13/2020 11:00:00 AM 5.33 41.594 0.11 7.99 2.45 13.24
12/13/2020 11:15:00 AM 5.42 41.756 0.11 8.09 2.56 13.3
12/13/2020 11:30:00 AM 5.49 41.882 0.11 8.15 2.57 13.33
12/13/2020 11:45:00 AM 5.57 42.026 0.11 8.22 2.74 13.33
12/13/2020 12:00:00 PM 5.65 42.17 0.11 8.26 2.43 13.31
12/13/2020 12:15:00 PM 5.79 42.422 0.11 8.32 2.53 13.31
12/13/2020 12:30:00 PM 5.84 42.512 0.11 8.35 2.59 13.29
12/13/2020 12:45:00 PM 5.98 42.764 0.11 8.39 2.51 13.29
12/13/2020 1:00:00 PM 5.97 42.746 0.11 8.4 2.52 13.23
12/13/2020 1:15:00 PM 5.99 42.782 0.11 8.41 2.52 13.19
12/13/2020 1:30:00 PM 6.02 42.836 0.11 8.39 2.5 13.13
12/13/2020 1:45:00 PM 6.05 42.89 0.109 8.42 2.68 13.13
12/13/2020 2:00:00 PM 6.07 42.926 0.11 8.39 2.57 13.07
12/13/2020 2:15:00 PM 6.09 42.962 0.11 8.38 2.63 13.03
12/13/2020 2:30:00 PM 6.1 42.98 0.11 8.39 2.69 13.05
12/13/2020 2:45:00 PM 6.08 42.944 0.11 8.37 2.63 13.01
12/13/2020 3:00:00 PM 6.07 42.926 0.109 8.36 2.67 13
12/13/2020 3:15:00 PM 6.05 42.89 0.11 8.31 2.64 12.94
12/13/2020 3:30:00 PM 6.03 42.854 0.11 8.2 2.71 12.83
12/13/2020 3:45:00 PM 6.01 42.818 0.11 8.17 2.8 12.81
12/13/2020 4:00:00 PM 5.97 42.746 0.11 8.12 2.62 12.77
12/13/2020 4:15:00 PM 5.92 42.656 0.11 8 2.71 12.66
12/13/2020 4:30:00 PM 5.88 42.584 0.11 7.92 2.68 12.51
12/13/2020 4:45:00 PM 5.84 42.512 0.111 7.81 2.73 12.35
12/13/2020 5:00:00 PM 5.8 42.44 0.111 7.73 2.59 12.23
12/13/2020 5:15:00 PM 5.76 42.368 0.111 7.69 2.87 12.12
12/13/2020 5:30:00 PM 5.73 42.314 0.111 7.64 2.65 12.06
12/13/2020 5:45:00 PM 5.7 42.26 0.111 7.61 2.86 12.02
12/13/2020 6:00:00 PM 5.67 42.206 0.111 7.58 2.79 11.99
12/13/2020 6:15:00 PM 5.64 42.152 0.112 7.56 3.02 11.98
12/13/2020 6:30:00 PM 5.62 42.116 0.112 7.55 2.73 11.98
12/13/2020 6:45:00 PM 5.59 42.062 0.111 7.53 2.58 11.97
12/13/2020 7:00:00 PM 5.57 42.026 0.112 7.52 2.6 11.98
12/13/2020 7:15:00 PM 5.54 41.972 0.112 7.51 2.7 11.99
12/13/2020 7:30:00 PM 5.51 41.918 0.112 7.52 2.72 11.99
12/13/2020 7:45:00 PM 5.48 41.864 0.111 7.51 2.65 11.99
12/13/2020 8:00:00 PM 5.46 41.828 0.112 7.52 2.76 11.99
12/13/2020 8:15:00 PM 5.44 41.792 0.112 7.48 2.63 11.99
12/13/2020 8:30:00 PM 5.42 41.756 0.111 7.48 2.66 12.01
12/13/2020 8:45:00 PM 5.41 41.738 0.112 7.47 2.71 12.01
12/13/2020 9:00:00 PM 5.38 41.684 0.112 7.47 2.63 12.01
12/13/2020 9:15:00 PM 5.37 41.666 0.112 7.49 2.61 12.01
12/13/2020 9:30:00 PM 5.35 41.63 0.111 7.47 2.58 12.02
12/13/2020 9:45:00 PM 5.33 41.594 0.112 7.46 2.62 12.02
12/13/2020 10:00:00 PM 5.31 41.558 0.112 7.47 2.69 12.01
12/13/2020 10:15:00 PM 5.3 41.54 0.112 7.45 2.69 12.02
12/13/2020 10:30:00 PM 5.28 41.504 0.112 7.46 2.65 12.03
12/13/2020 10:45:00 PM 5.26 41.468 0.112 7.47 2.68 12.02
12/13/2020 11:00:00 PM 5.25 41.45 0.112 7.47 2.66 12.04
12/13/2020 11:15:00 PM 5.23 41.414 0.112 7.46 2.64 12.03
12/13/2020 11:30:00 PM 5.21 41.378 0.112 7.46 2.65 12.03
12/13/2020 11:45:00 PM 5.17 41.306 0.112 7.47 2.55 12.04
12/14/2020 12:00:00 AM 5.14 41.252 0.112 7.46 2.5 12.05
12/14/2020 12:15:00 AM 5.11 41.198 0.113 7.46 2.51 12.06
12/14/2020 12:30:00 AM 5.09 41.162 0.112 7.46 2.65 12.07
12/14/2020 12:45:00 AM 5.07 41.126 0.113 7.46 2.61 12.07
12/14/2020 1:00:00 AM 5.06 41.108 0.113 7.47 2.66 12.07
12/14/2020 1:15:00 AM 5.04 41.072 0.113 7.46 2.51 12.08
12/14/2020 1:30:00 AM 5.02 41.036 0.113 7.45 2.64 12.08
12/14/2020 1:45:00 AM 5 41 0.113 7.46 2.61 12.09
12/14/2020 2:00:00 AM 4.98 40.964 0.113 7.45 2.57 12.1
12/14/2020 2:15:00 AM 4.96 40.928 0.113 7.45 2.51 12.1
12/14/2020 2:30:00 AM 4.94 40.892 0.113 7.46 2.59 12.1
12/14/2020 2:45:00 AM 4.92 40.856 0.113 7.45 2.62 12.11
12/14/2020 3:00:00 AM 4.9 40.82 0.113 7.44 2.6 12.12
12/14/2020 3:15:00 AM 4.88 40.784 0.113 7.46 2.58 12.12
12/14/2020 3:30:00 AM 4.86 40.748 0.113 7.46 2.62 12.12
12/14/2020 3:45:00 AM 4.84 40.712 0.114 7.45 2.49 12.13
12/14/2020 4:00:00 AM 4.82 40.676 0.113 7.46 2.57 12.15
12/14/2020 4:15:00 AM 4.8 40.64 0.113 7.46 2.61 12.15
12/14/2020 4:30:00 AM 4.78 40.604 0.113 7.46 2.6 12.16
12/14/2020 4:45:00 AM 4.77 40.586 0.114 7.46 2.57 12.17
12/14/2020 5:00:00 AM 4.75 40.55 0.114 7.46 2.6 12.16
12/14/2020 5:15:00 AM 4.73 40.514 0.114 7.46 2.49 12.17
12/14/2020 5:30:00 AM 4.71 40.478 0.113 7.46 2.55 12.18
12/14/2020 5:45:00 AM 4.66 40.388 0.114 7.45 2.62 12.18
12/14/2020 6:00:00 AM 4.6 40.28 0.113 7.45 2.75 12.19
12/14/2020 6:15:00 AM 4.57 40.226 0.113 7.45 2.67 12.2
12/14/2020 6:30:00 AM 4.52 40.136 0.113 7.46 2.54 12.21
12/14/2020 6:45:00 AM 4.46 40.028 0.113 7.45 2.58 12.22
12/14/2020 7:00:00 AM 4.38 39.884 0.113 7.44 2.59 12.23
12/14/2020 7:15:00 AM 4.3 39.74 0.113 7.46 2.59 12.25
12/14/2020 7:30:00 AM 4.27 39.686 0.113 7.44 2.59 12.28
12/14/2020 7:45:00 AM 4.25 39.65 0.113 7.46 2.61 12.31
12/14/2020 8:00:00 AM 4.24 39.632 0.113 7.45 2.53 12.34
12/14/2020 8:15:00 AM 4.18 39.524 0.113 7.49 2.64 12.39
12/14/2020 8:30:00 AM 4.15 39.47 0.113 7.49 2.61 12.45
12/14/2020 8:45:00 AM 4.13 39.434 0.113 7.5 2.42 12.52
12/14/2020 9:00:00 AM 4.09 39.362 0.112 7.52 2.5 12.62
12/14/2020 9:15:00 AM 4.08 39.344 0.112 7.57 2.48 12.78
12/14/2020 9:30:00 AM 4.08 39.344 0.112 7.59 2.51 12.93
12/14/2020 9:45:00 AM 4.1 39.38 0.112 7.65 2.71 13.04
12/14/2020 10:00:00 AM 4.12 39.416 0.112 7.68 2.61 13.13
12/14/2020 10:15:00 AM 4.15 39.47 0.111 7.74 2.61 13.22
12/14/2020 10:30:00 AM 4.19 39.542 0.111 7.8 2.57 13.31
12/14/2020 10:45:00 AM 4.25 39.65 0.111 7.85 2.58 13.41
12/14/2020 11:00:00 AM 4.29 39.722 0.111 7.92 2.63 13.46
12/14/2020 11:15:00 AM 4.33 39.794 0.111 7.96 2.59 13.5
12/14/2020 11:30:00 AM 4.38 39.884 0.11 8.01 2.61 13.51
12/14/2020 11:45:00 AM 4.42 39.956 0.11 8.06 2.67 13.52
12/14/2020 12:00:00 PM 4.45 40.01 0.111 8.08 2.49 13.48
12/14/2020 12:15:00 PM 4.46 40.028 0.111 8.04 2.73 13.39
12/14/2020 12:30:00 PM 4.47 40.046 0.111 8.04 2.43 13.36
12/14/2020 12:45:00 PM 4.49 40.082 0.111 8.05 2.61 13.38
12/14/2020 1:00:00 PM 4.51 40.118 0.11 8.09 2.64 13.42
12/14/2020 1:15:00 PM 4.55 40.19 0.11 8.17 2.57 13.46
12/14/2020 1:30:00 PM 4.57 40.226 0.11 8.2 2.63 13.47
12/14/2020 1:45:00 PM 4.61 40.298 0.11 8.22 2.59 13.48
12/14/2020 2:00:00 PM 4.66 40.388 0.11 8.28 2.59 13.51
12/14/2020 2:15:00 PM 4.67 40.406 0.11 8.27 2.64 13.47
12/14/2020 2:30:00 PM 4.68 40.424 0.11 8.24 2.55 13.4
12/14/2020 2:45:00 PM 4.67 40.406 0.11 8.18 2.47 13.32
12/14/2020 3:00:00 PM 4.67 40.406 0.11 8.13 2.67 13.25
12/14/2020 3:15:00 PM 4.66 40.388 0.11 8.09 2.55 13.19
12/14/2020 3:30:00 PM 4.63 40.334 0.11 8.01 2.57 13.1
12/14/2020 3:45:00 PM 4.59 40.262 0.111 7.99 2.6 13.1
12/14/2020 4:00:00 PM 4.57 40.226 0.111 7.93 2.64 13.01
12/14/2020 4:15:00 PM 4.54 40.172 0.111 7.85 2.75 12.88
12/14/2020 4:30:00 PM 4.51 40.118 0.112 7.79 2.56 12.76
12/14/2020 4:45:00 PM 4.47 40.046 0.111 7.72 2.61 12.65
12/14/2020 5:00:00 PM 4.41 39.938 0.112 7.68 2.51 12.57
12/14/2020 5:15:00 PM 4.36 39.848 0.112 7.65 2.66 12.51
12/14/2020 5:30:00 PM 4.32 39.776 0.112 7.62 2.51 12.46
12/14/2020 5:45:00 PM 4.29 39.722 0.112 7.58 2.79 12.43
12/14/2020 6:00:00 PM 4.23 39.614 0.112 7.57 2.52 12.43
12/14/2020 6:15:00 PM 4.15 39.47 0.112 7.54 2.61 12.43
12/14/2020 6:30:00 PM 4.11 39.398 0.112 7.54 2.49 12.44
12/14/2020 6:45:00 PM 4.09 39.362 0.112 7.55 2.55 12.44
12/14/2020 7:00:00 PM 4.03 39.254 0.112 7.52 2.57 12.44
12/14/2020 7:15:00 PM 3.95 39.11 0.112 7.52 2.62 12.46
12/14/2020 7:30:00 PM 3.89 39.002 0.112 7.53 2.45 12.49
12/14/2020 7:45:00 PM 3.82 38.876 0.112 7.4 2.66 12.5
12/14/2020 8:00:00 PM 3.74 38.732 0.112 7.52 2.57 12.53
12/14/2020 8:15:00 PM 3.63 38.534 0.112 7.51 2.56 12.55
12/14/2020 8:30:00 PM 3.53 38.354 0.112 7.51 2.6 12.59
12/14/2020 8:45:00 PM 3.45 38.21 0.113 7.49 2.71 12.62
12/14/2020 9:00:00 PM 3.41 38.138 0.113 7.5 2.48 12.63
12/14/2020 9:15:00 PM 3.4 38.12 0.113 7.49 2.73 12.65
12/14/2020 9:30:00 PM 3.38 38.084 0.113 7.48 2.57 12.66
12/14/2020 9:45:00 PM 3.35 38.03 0.113 7.48 2.6 12.68
12/14/2020 10:00:00 PM 3.31 37.958 0.113 7.48 2.68 12.69
12/14/2020 10:15:00 PM 3.26 37.868 0.113 7.47 2.58 12.71
12/14/2020 10:30:00 PM 3.24 37.832 0.113 7.48 2.54 12.72
12/14/2020 10:45:00 PM 3.22 37.796 0.113 7.47 2.61 12.73
12/14/2020 11:00:00 PM 3.22 37.796 0.114 7.47 2.55 12.74
12/14/2020 11:15:00 PM 3.2 37.76 0.113 7.48 2.52 12.74
12/14/2020 11:30:00 PM 3.18 37.724 0.114 7.47 2.54 12.76
12/14/2020 11:45:00 PM 3.17 37.706 0.114 7.47 2.63 12.76
12/15/2020 12:00:00 AM 3.13 37.634 0.114 7.47 2.63 12.78
12/15/2020 12:15:00 AM 3.1 37.58 0.114 7.47 2.71 12.79
12/15/2020 12:30:00 AM 3.08 37.544 0.114 7.46 2.6 12.79
12/15/2020 12:45:00 AM 3.05 37.49 0.114 7.47 2.59 12.8
12/15/2020 1:00:00 AM 3.01 37.418 0.115 7.48 2.57 12.81
12/15/2020 1:15:00 AM 2.95 37.31 0.115 7.47 2.53 12.83
12/15/2020 1:30:00 AM 2.89 37.202 0.114 7.47 2.82 12.86
12/15/2020 1:45:00 AM 2.83 37.094 0.115 7.46 2.61 12.87
12/15/2020 2:00:00 AM 2.78 37.004 0.115 7.49 2.66 12.91
12/15/2020 2:15:00 AM 2.71 36.878 0.115 7.47 2.69 12.93
12/15/2020 2:30:00 AM 2.66 36.788 0.115 7.46 2.45 12.95
12/15/2020 2:45:00 AM 2.61 36.698 0.115 7.47 2.56 12.97
12/15/2020 3:00:00 AM 2.57 36.626 0.115 7.48 2.64 12.99
12/15/2020 3:15:00 AM 2.56 36.608 0.115 7.49 2.54 13
12/15/2020 3:30:00 AM 2.55 36.59 0.115 7.47 2.53 13.01
12/15/2020 3:45:00 AM 2.58 36.644 0.115 7.48 2.52 13.01
12/15/2020 4:00:00 AM 2.59 36.662 0.116 7.47 2.49 13.01
12/15/2020 4:15:00 AM 2.59 36.662 0.115 7.47 2.57 13.02
12/15/2020 4:30:00 AM 2.59 36.662 0.115 7.47 2.6 13.02
12/15/2020 4:45:00 AM 2.58 36.644 0.116 7.48 2.6 13.02
12/15/2020 5:00:00 AM 2.59 36.662 0.116 7.48 2.53 13.02
12/15/2020 5:15:00 AM 2.59 36.662 0.115 7.48 2.6 13.03
12/15/2020 5:30:00 AM 2.58 36.644 0.116 7.48 2.51 13.03
12/15/2020 5:45:00 AM 2.56 36.608 0.116 7.48 2.62 13.03
12/15/2020 6:00:00 AM 2.53 36.554 0.116 7.47 2.52 13.05
12/15/2020 6:15:00 AM 2.51 36.518 0.115 7.47 2.55 13.06
12/15/2020 6:30:00 AM 2.49 36.482 0.116 7.49 2.51 13.07
12/15/2020 6:45:00 AM 2.46 36.428 0.115 7.48 2.49 13.08
12/15/2020 7:00:00 AM 2.45 36.41 0.116 7.47 2.57 13.09
12/15/2020 7:15:00 AM 2.43 36.374 0.116 7.48 2.88 13.1
12/15/2020 7:30:00 AM 2.42 36.356 0.116 7.49 2.7 13.12
12/15/2020 7:45:00 AM 2.42 36.356 0.116 7.49 2.67 13.15
12/15/2020 8:00:00 AM 2.43 36.374 0.116 7.51 2.6 13.21
12/15/2020 8:15:00 AM 2.44 36.392 0.115 7.52 2.61 13.3
12/15/2020 8:30:00 AM 2.45 36.41 0.115 7.54 2.63 13.4
12/15/2020 8:45:00 AM 2.48 36.464 0.116 7.57 2.47 13.53
12/15/2020 9:00:00 AM 2.51 36.518 0.115 7.62 2.6 13.7
12/15/2020 9:15:00 AM 2.54 36.572 0.115 7.68 2.49 13.84
12/15/2020 9:30:00 AM 2.58 36.644 0.115 7.74 2.38 13.98
12/15/2020 9:45:00 AM 2.59 36.662 0.114 7.8 2.56 14.08
12/15/2020 10:00:00 AM 2.62 36.716 0.114 7.87 2.44 14.14
12/15/2020 10:15:00 AM 2.65 36.77 0.114 7.91 2.45 14.21
12/15/2020 10:30:00 AM 2.68 36.824 0.114 7.96 2.49 14.23
12/15/2020 10:45:00 AM 2.75 36.95 0.114 8.02 2.49 14.26
12/15/2020 11:00:00 AM 2.75 36.95 0.113 8.05 2.57 14.26
12/15/2020 11:15:00 AM 2.76 36.968 0.113 8.07 2.5 14.26
12/15/2020 11:30:00 AM 2.84 37.112 0.113 8.1 2.52 14.28
12/15/2020 11:45:00 AM 2.89 37.202 0.113 8.14 2.53 14.27
12/15/2020 12:00:00 PM 2.99 37.382 0.113 8.18 2.41 14.26
12/15/2020 12:15:00 PM 3.06 37.508 0.113 8.19 2.5 14.23
12/15/2020 12:30:00 PM 3.15 37.67 0.114 8.24 2.41 14.21
12/15/2020 12:45:00 PM 3.26 37.868 0.113 8.25 2.37 14.18
12/15/2020 1:00:00 PM 3.33 37.994 0.113 8.28 2.51 14.16
12/15/2020 1:15:00 PM 3.35 38.03 0.113 8.29 2.51 14.12
12/15/2020 1:30:00 PM 3.35 38.03 0.113 8.3 2.36 14.11
12/15/2020 1:45:00 PM 3.39 38.102 0.113 8.3 2.51 14.08
12/15/2020 2:00:00 PM 3.42 38.156 0.113 8.29 2.42 14.04
12/15/2020 2:15:00 PM 3.42 38.156 0.113 8.28 2.57 14
12/15/2020 2:30:00 PM 3.4 38.12 0.114 8.26 2.38 13.95
12/15/2020 2:45:00 PM 3.39 38.102 0.114 8.23 2.34 13.92
12/15/2020 3:00:00 PM 3.36 38.048 0.114 8.21 2.45 13.9
12/15/2020 3:15:00 PM 3.36 38.048 0.114 8.18 2.45 13.88
12/15/2020 3:30:00 PM 3.32 37.976 0.114 8.16 2.69 13.87
12/15/2020 3:45:00 PM 3.28 37.904 0.114 8.12 2.51 13.83
12/15/2020 4:00:00 PM 3.24 37.832 0.114 8.06 2.45 13.76
12/15/2020 4:15:00 PM 3.2 37.76 0.115 7.98 2.52 13.66
12/15/2020 4:30:00 PM 3.14 37.652 0.115 7.89 2.53 13.54
12/15/2020 4:45:00 PM 3.08 37.544 0.115 7.81 2.51 13.42
12/15/2020 5:00:00 PM 3.01 37.418 0.116 7.75 2.59 13.31
12/15/2020 5:15:00 PM 2.94 37.292 0.116 7.69 2.48 13.23
12/15/2020 5:30:00 PM 2.87 37.166 0.116 7.64 2.55 13.17
12/15/2020 5:45:00 PM 2.81 37.058 0.116 7.62 2.47 13.13
12/15/2020 6:00:00 PM 2.74 36.932 0.116 7.59 2.59 13.13
12/15/2020 6:15:00 PM 2.67 36.806 0.117 7.57 2.42 13.12
12/15/2020 6:30:00 PM 2.6 36.68 0.116 7.57 2.57 13.13
12/15/2020 6:45:00 PM 2.54 36.572 0.116 7.55 2.44 13.14
12/15/2020 7:00:00 PM 2.47 36.446 0.116 7.54 2.67 13.15
12/15/2020 7:15:00 PM 2.41 36.338 0.117 7.54 2.5 13.17
12/15/2020 7:30:00 PM 2.34 36.212 0.116 7.53 2.51 13.19
12/15/2020 7:45:00 PM 2.29 36.122 0.116 7.52 2.61 13.21
12/15/2020 8:00:00 PM 2.22 35.996 0.116 7.52 2.53 13.23
12/15/2020 8:15:00 PM 2.16 35.888 0.116 7.51 2.51 13.25
12/15/2020 8:30:00 PM 2.1 35.78 0.116 7.5 2.65 13.27
12/15/2020 8:45:00 PM 2.05 35.69 0.116 7.5 2.55 13.29
12/15/2020 9:00:00 PM 1.99 35.582 0.116 7.5 2.52 13.31
12/15/2020 9:15:00 PM 1.94 35.492 0.116 7.5 2.44 13.32
12/15/2020 9:30:00 PM 1.91 35.438 0.116 7.49 2.54 13.34
12/15/2020 9:45:00 PM 1.86 35.348 0.116 7.5 2.44 13.35
12/15/2020 10:00:00 PM 1.82 35.276 0.116 7.49 2.45 13.37
12/15/2020 10:15:00 PM 1.78 35.204 0.116 7.49 2.46 13.38
12/15/2020 10:30:00 PM 1.75 35.15 0.116 7.5 2.47 13.4
12/15/2020 10:45:00 PM 1.71 35.078 0.116 7.49 2.41 13.41
12/15/2020 11:00:00 PM 1.68 35.024 0.117 7.48 2.42 13.43
12/15/2020 11:15:00 PM 1.64 34.952 0.117 7.48 2.53 13.43
12/15/2020 11:30:00 PM 1.61 34.898 0.117 7.48 2.4 13.45
12/15/2020 11:45:00 PM 1.57 34.826 0.117 7.48 2.51 13.46
12/16/2020 12:00:00 AM 1.54 34.772 0.117 7.49 2.52 13.48
12/16/2020 12:15:00 AM 1.5 34.7 0.117 7.49 2.49 13.49
12/16/2020 12:30:00 AM 1.46 34.628 0.117 7.49 2.47 13.51
12/16/2020 12:45:00 AM 1.42 34.556 0.117 7.48 2.63 13.52
12/16/2020 1:00:00 AM 1.39 34.502 0.117 7.47 2.52 13.54
12/16/2020 1:15:00 AM 1.37 34.466 0.117 7.48 2.6 13.55
12/16/2020 1:30:00 AM 1.34 34.412 0.118 7.48 2.53 13.56
12/16/2020 1:45:00 AM 1.29 34.322 0.117 7.49 2.53 13.57
12/16/2020 2:00:00 AM 1.25 34.25 0.117 7.47 2.6 13.59
12/16/2020 2:15:00 AM 1.22 34.196 0.117 7.47 2.5 13.61
12/16/2020 2:30:00 AM 1.2 34.16 0.118 7.47 2.49 13.61
12/16/2020 2:45:00 AM 1.17 34.106 0.117 7.49 2.46 13.63
12/16/2020 3:00:00 AM 1.16 34.088 0.118 7.48 2.48 13.64
12/16/2020 3:15:00 AM 1.14 34.052 0.118 7.48 2.5 13.65
12/16/2020 3:30:00 AM 1.12 34.016 0.118 7.47 2.43 13.65
12/16/2020 3:45:00 AM 1.09 33.962 0.118 7.48 2.48 13.66
12/16/2020 4:00:00 AM 1.04 33.872 0.118 7.47 2.48 13.68
12/16/2020 4:15:00 AM 1 33.8 0.118 7.48 2.52 13.69
12/16/2020 4:30:00 AM 0.97 33.746 0.118 7.47 2.51 13.7
12/16/2020 4:45:00 AM 0.95 33.71 0.118 7.47 2.65 13.72
12/16/2020 5:00:00 AM 0.92 33.656 0.118 7.48 2.85 13.72
12/16/2020 5:15:00 AM 0.91 33.638 0.119 7.47 2.47 13.73
12/16/2020 5:30:00 AM 0.88 33.584 0.119 7.47 2.47 13.74
12/16/2020 5:45:00 AM 0.86 33.548 0.118 7.47 2.45 13.76
12/16/2020 6:00:00 AM 0.83 33.494 0.118 7.46 2.48 13.76
12/16/2020 6:15:00 AM 0.82 33.476 0.118 7.47 2.48 13.77
12/16/2020 6:30:00 AM 0.8 33.44 0.118 7.48 2.52 13.78
12/16/2020 6:45:00 AM 0.79 33.422 0.119 7.47 2.47 13.79
12/16/2020 7:00:00 AM 0.77 33.386 0.118 7.47 2.53 13.79
12/16/2020 7:15:00 AM 0.76 33.368 0.118 7.47 2.54 13.8
12/16/2020 7:30:00 AM 0.73 33.314 0.118 7.49 2.48 13.81
12/16/2020 7:45:00 AM 0.72 33.296 0.119 7.48 2.52 13.83
12/16/2020 8:00:00 AM 0.7 33.26 0.118 7.5 2.46 13.88
12/16/2020 8:15:00 AM 0.7 33.26 0.119 7.51 2.5 13.95
12/16/2020 8:30:00 AM 0.7 33.26 0.118 7.53 2.38 14.02
12/16/2020 8:45:00 AM 0.7 33.26 0.118 7.55 2.45 14.1
12/16/2020 9:00:00 AM 0.7 33.26 0.118 7.56 2.44 14.21
12/16/2020 9:15:00 AM 0.71 33.278 0.118 7.6 2.52 14.34
12/16/2020 9:30:00 AM 0.72 33.296 0.118 7.64 2.41 14.47
12/16/2020 9:45:00 AM 0.74 33.332 0.117 7.7 2.49 14.57
12/16/2020 10:00:00 AM 0.74 33.332 0.117 7.72 2.39 14.62
12/16/2020 10:15:00 AM 0.75 33.35 0.117 7.74 2.5 14.66
12/16/2020 10:30:00 AM 0.78 33.404 0.117 7.77 2.4 14.67
12/16/2020 10:45:00 AM 0.79 33.422 0.117 7.79 2.44 14.67
12/16/2020 11:00:00 AM 0.82 33.476 0.117 7.8 2.52 14.68
12/16/2020 11:15:00 AM 0.83 33.494 0.116 7.81 2.5 14.66
12/16/2020 11:30:00 AM 0.85 33.53 0.116 7.81 2.52 14.64
12/16/2020 11:45:00 AM 0.85 33.53 0.117 7.81 2.38 14.61
12/16/2020 12:00:00 PM 0.85 33.53 0.116 7.81 2.34 14.59
12/16/2020 12:15:00 PM 0.8 33.44 0.116 7.8 2.46 14.58
12/16/2020 12:30:00 PM 0.73 33.314 0.116 7.82 2.49 14.57
12/16/2020 12:45:00 PM 0.67 33.206 0.116 7.81 2.46 14.59
12/16/2020 1:00:00 PM 0.66 33.188 0.116 7.83 2.41 14.6
12/16/2020 1:15:00 PM 0.62 33.116 0.116 7.82 2.49 14.58
12/16/2020 1:30:00 PM 0.52 32.936 0.116 7.78 2.42 14.55
12/16/2020 1:45:00 PM 0.45 32.81 0.115 7.78 2.48 14.54
12/16/2020 2:00:00 PM 0.38 32.684 0.115 7.77 2.45 14.53
12/16/2020 2:15:00 PM 0.3 32.54 0.115 7.76 2.49 14.54
12/16/2020 2:30:00 PM 0.23 32.414 0.115 7.75 2.52 14.53
12/16/2020 2:45:00 PM 0.13 32.234 0.115 7.74 2.64 14.51
12/16/2020 3:00:00 PM 0.08 32.144 0.115 7.7 2.56 14.48
12/16/2020 3:15:00 PM 0.03 32.054 0.115 7.7 2.74 14.47
12/16/2020 3:30:00 PM -0.01 31.982 0.115 7.68 2.88 14.42
12/16/2020 3:45:00 PM -0.03 31.946 0.115 7.66 3.1 14.37
12/16/2020 4:00:00 PM -0.04 31.928 0.115 7.65 3.07 14.36
12/16/2020 4:15:00 PM -0.04 31.928 0.115 7.63 2.92 14.27
12/16/2020 4:30:00 PM -0.04 31.928 0.115 7.62 3.12 14.19
12/16/2020 4:45:00 PM -0.02 31.964 0.115 7.6 3.08 14.13
12/16/2020 5:00:00 PM 0 32 0.116 7.58 3.06 14.03
12/16/2020 5:15:00 PM 0.03 32.054 0.116 7.56 3.16 13.95
12/16/2020 5:30:00 PM 0.11 32.198 0.117 7.57 2.89 13.8
12/16/2020 5:45:00 PM 0.24 32.432 0.118 7.57 3.06 13.76
12/16/2020 6:00:00 PM 0.41 32.738 0.119 7.58 2.83 13.62
12/16/2020 6:15:00 PM 0.15 32.27 0.115 7.52 3.02 13.74
12/16/2020 6:30:00 PM -0.02 31.964 0.114 7.5 2.88 13.62
12/16/2020 6:45:00 PM -0.04 31.928 0.114 7.46 3.39 14.07
12/16/2020 7:00:00 PM -0.04 31.928 0.114 7.46 3.68 14.07
12/16/2020 7:15:00 PM -0.03 31.946 0.115 7.46 4.09 14.09
12/16/2020 7:30:00 PM -0.04 31.928 0.115 7.45 3.39 14.06
12/16/2020 7:45:00 PM -0.03 31.946 0.115 7.44 3.72 14.06
12/16/2020 8:00:00 PM -0.02 31.964 0.115 7.46 4.27 13.99
12/16/2020 8:15:00 PM 0.03 32.054 0.116 7.44 8.94 13.97
12/16/2020 8:30:00 PM 0.03 32.054 0.116 7.44 4.88 13.94
12/16/2020 8:45:00 PM 0.04 32.072 0.116 7.43 5.52 13.93
12/16/2020 9:00:00 PM 0.03 32.054 0.116 7.42 4.54 13.89
12/16/2020 9:15:00 PM 0.06 32.108 0.116 7.42 3.73 13.88
12/16/2020 9:30:00 PM 0.09 32.162 0.116 7.42 4.18 13.87
12/16/2020 9:45:00 PM 0.1 32.18 0.116 7.42 3.98 13.84
12/16/2020 10:00:00 PM 0.07 32.126 0.116 7.4 4.24 13.84
12/16/2020 10:15:00 PM 0.05 32.09 0.116 7.39 5.08 13.82
12/16/2020 10:30:00 PM 0.07 32.126 0.116 7.38 3.82 13.75
12/16/2020 10:45:00 PM 0.06 32.108 0.116 7.35 4.29 13.74
12/16/2020 11:00:00 PM 0.11 32.198 0.116 7.34 3.91 13.63
12/16/2020 11:15:00 PM 0.09 32.162 0.115 7.33 4.08 13.62
12/16/2020 11:30:00 PM 0.11 32.198 0.115 7.32 3.59 13.58
12/16/2020 11:45:00 PM 0.15 32.27 0.116 7.32 3.98 13.52
12/17/2020 12:00:00 AM 0.12 32.216 0.115 7.31 3.54 13.47
12/17/2020 12:15:00 AM 0.06 32.108 0.116 7.31 3.34 13.32
12/17/2020 12:30:00 AM 0.2 32.36 0.116 7.29 3.26 13.29
12/17/2020 12:45:00 AM 0.22 32.396 0.116 7.29 3.16 13.26
12/17/2020 1:00:00 AM 0.18 32.324 0.116 7.27 3.31 13.24
12/17/2020 1:15:00 AM 0.21 32.378 0.116 7.27 3.5 13.19
12/17/2020 1:30:00 AM 0.27 32.486 0.116 7.27 3.39 13.12
12/17/2020 1:45:00 AM 0.27 32.486 0.115 7.25 2.9 13.1
12/17/2020 2:00:00 AM 0.27 32.486 0.115 7.25 3.23 13.05
12/17/2020 2:15:00 AM 0.29 32.522 0.115 7.22 3.01 13
12/17/2020 2:30:00 AM 0.32 32.576 0.115 7.22 2.8 12.94
12/17/2020 2:45:00 AM 0.28 32.504 0.115 7.19 2.95 12.91
12/17/2020 3:00:00 AM 0.22 32.396 0.114 7.21 3.14 12.96
12/17/2020 3:15:00 AM 0.23 32.414 0.114 7.2 3.24 12.93
12/17/2020 3:30:00 AM 0.27 32.486 0.114 7.18 3.23 12.88
12/17/2020 3:45:00 AM 0.2 32.36 0.113 7.19 4.09 12.9
12/17/2020 4:00:00 AM 0.12 32.216 0.112 7.17 4.4 12.95
12/17/2020 4:15:00 AM 0.1 32.18 0.112 7.18 3.96 12.98
12/17/2020 4:30:00 AM 0.11 32.198 0.112 7.17 3.18 12.97
12/17/2020 4:45:00 AM 0.13 32.234 0.112 7.18 3.22 12.93
12/17/2020 5:00:00 AM 0.13 32.234 0.112 7.15 3.1 12.91
12/17/2020 5:15:00 AM 0.12 32.216 0.112 7.15 3.21 12.92
12/17/2020 5:30:00 AM 0.14 32.252 0.112 7.15 3.26 12.91
12/17/2020 5:45:00 AM 0.14 32.252 0.112 7.16 3.21 12.9
12/17/2020 6:00:00 AM 0.16 32.288 0.112 7.14 3.15 12.88
12/17/2020 6:15:00 AM 0.16 32.288 0.112 7.15 2.98 12.87
12/17/2020 6:30:00 AM 0.16 32.288 0.112 7.15 2.91 12.85
12/17/2020 6:45:00 AM 0.15 32.27 0.111 7.16 2.96 12.83
12/17/2020 7:00:00 AM 0.16 32.288 0.112 7.16 2.75 12.79
12/17/2020 7:15:00 AM 0.13 32.234 0.111 7.13 3.01 12.78
12/17/2020 7:30:00 AM 0.12 32.216 0.111 7.13 3.31 12.78
12/17/2020 7:45:00 AM 0.13 32.234 0.111 7.13 2.98 12.77
12/17/2020 8:00:00 AM 0.13 32.234 0.11 7.13 2.87 12.8
12/17/2020 8:15:00 AM 0.1 32.18 0.111 7.15 2.86 12.85
12/17/2020 8:30:00 AM 0.12 32.216 0.11 7.15 2.87 12.93
12/17/2020 8:45:00 AM 0.12 32.216 0.11 7.15 2.77 13.04
12/17/2020 9:00:00 AM 0.12 32.216 0.11 7.17 3.08 13.17
12/17/2020 9:15:00 AM 0.12 32.216 0.11 7.18 2.84 13.31
12/17/2020 9:30:00 AM 0.01 32.018 0.109 7.07 3.3 13.47
12/17/2020 9:45:00 AM 0.03 32.054 0.11 7.22 3.61 13.6
12/17/2020 10:00:00 AM 0.1 32.18 0.11 7.24 3.18 13.72
12/17/2020 10:15:00 AM 0.11 32.198 0.11 7.27 3.21 13.86
12/17/2020 10:30:00 AM 0.1 32.18 0.11 7.31 3.38 14.03
12/17/2020 10:45:00 AM 0.1 32.18 0.109 7.33 3.27 14.18
12/17/2020 11:00:00 AM 0.11 32.198 0.11 7.38 3.37 14.3
12/17/2020 11:15:00 AM 0.1 32.18 0.11 7.39 3 14.42
12/17/2020 11:30:00 AM 0.1 32.18 0.11 7.42 3.04 14.54
12/17/2020 11:45:00 AM 0.1 32.18 0.11 7.44 2.95 14.64
12/17/2020 12:00:00 PM 0.09 32.162 0.11 7.49 3.28 14.73
12/17/2020 12:15:00 PM 0.09 32.162 0.11 7.51 3.32 14.82
12/17/2020 12:30:00 PM 0.09 32.162 0.11 7.42 3.18 14.89
12/17/2020 12:45:00 PM 0.09 32.162 0.11 7.56 3.14 14.95
12/17/2020 1:00:00 PM 0.07 32.126 0.109 7.59 3.08 14.99
12/17/2020 1:15:00 PM 0.09 32.162 0.109 7.61 3.09 15.01
12/17/2020 1:30:00 PM 0.09 32.162 0.109 7.63 3.01 15.03
12/17/2020 1:45:00 PM 0.08 32.144 0.108 7.64 3.24 15.04
12/17/2020 2:00:00 PM 0.09 32.162 0.108 7.66 3.31 15.03
12/17/2020 2:15:00 PM 0.09 32.162 0.108 7.66 3.18 15.02
12/17/2020 2:30:00 PM 0.08 32.144 0.109 7.68 3.33 15.01
12/17/2020 2:45:00 PM 0.09 32.162 0.108 7.67 3.52 15
12/17/2020 3:00:00 PM 0.08 32.144 0.109 7.68 3.11 15
12/17/2020 3:15:00 PM 0.06 32.108 0.108 7.67 3.13 14.97
12/17/2020 3:30:00 PM 0.05 32.09 0.108 7.67 3.01 14.94
12/17/2020 3:45:00 PM 0.04 32.072 0.107 7.64 3.57 14.88
12/17/2020 4:00:00 PM 0.07 32.126 0.108 7.63 3.23 14.81
12/17/2020 4:15:00 PM 0.07 32.126 0.107 7.61 3.79 14.72
12/17/2020 4:30:00 PM 0.07 32.126 0.107 7.59 2.93 14.64
12/17/2020 4:45:00 PM 0.07 32.126 0.107 7.56 3.05 14.55
12/17/2020 5:00:00 PM 0.07 32.126 0.107 7.53 3.23 14.45
12/17/2020 5:15:00 PM 0.07 32.126 0.107 7.51 2.98 14.36
12/17/2020 5:30:00 PM 0.07 32.126 0.107 7.48 2.99 14.28
12/17/2020 5:45:00 PM 0.05 32.09 0.107 7.46 3.05 14.22
12/17/2020 6:00:00 PM 0.04 32.072 0.107 7.44 3.07 14.16
12/17/2020 6:15:00 PM 0.05 32.09 0.107 7.42 3.14 14.11
12/17/2020 6:30:00 PM 0.04 32.072 0.107 7.39 3.01 14.07
12/17/2020 6:45:00 PM 0.05 32.09 0.107 7.4 3.21 14.02
12/17/2020 7:00:00 PM 0.05 32.09 0.107 7.38 3.26 13.98
12/17/2020 7:15:00 PM 0.04 32.072 0.107 7.38 3.09 13.95
12/17/2020 7:30:00 PM 0.05 32.09 0.107 7.36 2.98 13.93
12/17/2020 7:45:00 PM 0.05 32.09 0.107 7.36 3.09 13.9
12/17/2020 8:00:00 PM 0.04 32.072 0.107 7.35 3.36 13.88
12/17/2020 8:15:00 PM 0.04 32.072 0.107 7.34 3.01 13.87
12/17/2020 8:30:00 PM 0.04 32.072 0.107 7.34 3.5 13.85
12/17/2020 8:45:00 PM 0.05 32.09 0.107 7.32 2.92 13.85
12/17/2020 9:00:00 PM 0.06 32.108 0.107 7.33 3.36 13.84
12/17/2020 9:15:00 PM 0.05 32.09 0.107 7.32 3.08 13.82
12/17/2020 9:30:00 PM 0.05 32.09 0.107 7.32 3.17 13.82
12/17/2020 9:45:00 PM 0.04 32.072 0.107 7.32 3.7 13.81
12/17/2020 10:00:00 PM 0.05 32.09 0.107 7.31 3.62 13.8
12/17/2020 10:15:00 PM 0.05 32.09 0.107 7.3 3.65 13.8
12/17/2020 10:30:00 PM 0.04 32.072 0.107 7.3 4.09 13.79
12/17/2020 10:45:00 PM 0.06 32.108 0.107 7.3 3.62 13.78
12/17/2020 11:00:00 PM 0.06 32.108 0.107 7.3 3.89 13.77
12/17/2020 11:15:00 PM 0.08 32.144 0.107 7.29 3.31 13.75
12/17/2020 11:30:00 PM 0.08 32.144 0.107 7.3 3.46 13.76
12/17/2020 11:45:00 PM 0.07 32.126 0.107 7.3 3.43 13.75
12/18/2020 12:00:00 AM 0.08 32.144 0.107 7.29 3.25 13.74
12/18/2020 12:15:00 AM 0.07 32.126 0.108 7.29 3.21 13.74
12/18/2020 12:30:00 AM 0.07 32.126 0.107 7.29 2.98 13.74
12/18/2020 12:45:00 AM 0.08 32.144 0.108 7.28 3.06 13.74
12/18/2020 1:00:00 AM 0.06 32.108 0.107 7.28 3.23 13.75
12/18/2020 1:15:00 AM 0.05 32.09 0.107 7.28 3.46 13.76
12/18/2020 1:30:00 AM 0.05 32.09 0.108 7.27 3.37 13.75
12/18/2020 1:45:00 AM 0.06 32.108 0.107 7.28 3.4 13.76
12/18/2020 2:00:00 AM 0.05 32.09 0.107 7.28 3.46 13.76
12/18/2020 2:15:00 AM 0.05 32.09 0.107 7.27 3.1 13.76
12/18/2020 2:30:00 AM 0.05 32.09 0.106 7.27 3.19 13.76
12/18/2020 2:45:00 AM 0.05 32.09 0.106 7.27 3.04 13.77
12/18/2020 3:00:00 AM 0.05 32.09 0.106 7.29 3.46 13.76
12/18/2020 3:15:00 AM 0.05 32.09 0.107 7.28 3.3 13.78
12/18/2020 3:30:00 AM 0.04 32.072 0.106 7.27 3.17 13.78
12/18/2020 3:45:00 AM 0.05 32.09 0.106 7.27 3.01 13.78
12/18/2020 4:00:00 AM 0.05 32.09 0.106 7.28 2.92 13.78
12/18/2020 4:15:00 AM 0.05 32.09 0.106 7.28 2.85 13.78
12/18/2020 4:30:00 AM 0.04 32.072 0.106 7.28 3.12 13.78
12/18/2020 4:45:00 AM 0.05 32.09 0.106 7.27 3.62 13.78
12/18/2020 5:00:00 AM 0.05 32.09 0.106 7.28 3.24 13.79
12/18/2020 5:15:00 AM 0.05 32.09 0.106 7.28 3.25 13.79
12/18/2020 5:30:00 AM 0.06 32.108 0.106 7.28 3.18 13.78
12/18/2020 5:45:00 AM 0.05 32.09 0.106 7.28 3.36 13.79
12/18/2020 6:00:00 AM 0.06 32.108 0.106 7.27 3.24 13.79
12/18/2020 6:15:00 AM 0.05 32.09 0.106 7.28 3.09 13.8
12/18/2020 6:30:00 AM 0.06 32.108 0.106 7.27 2.77 13.8
12/18/2020 6:45:00 AM 0.06 32.108 0.106 7.28 3.03 13.8
12/18/2020 7:00:00 AM 0.06 32.108 0.107 7.28 2.88 13.8
12/18/2020 7:15:00 AM 0.05 32.09 0.107 7.28 3.28 13.81
12/18/2020 7:30:00 AM 0.06 32.108 0.108 7.28 2.86 13.81
12/18/2020 7:45:00 AM 0.06 32.108 0.107 7.28 3.92 13.82
12/18/2020 8:00:00 AM 0.05 32.09 0.107 7.29 2.89 13.86
12/18/2020 8:15:00 AM 0.05 32.09 0.107 7.14 2.98 13.88
12/18/2020 8:30:00 AM 0.05 32.09 0.108 7.29 3.12 13.92
12/18/2020 8:45:00 AM 0.05 32.09 0.109 7.31 2.74 13.98
12/18/2020 9:00:00 AM 0.05 32.09 0.108 7.32 2.85 14.05
12/18/2020 9:15:00 AM 0.04 32.072 0.108 7.34 2.72 14.13
12/18/2020 9:30:00 AM 0.05 32.09 0.109 7.36 2.81 14.19
12/18/2020 9:45:00 AM 0.05 32.09 0.109 7.37 2.72 14.28
12/18/2020 10:00:00 AM 0.05 32.09 0.109 7.39 2.79 14.36
12/18/2020 10:15:00 AM 0.05 32.09 0.109 7.42 2.9 14.44
12/18/2020 10:30:00 AM 0.05 32.09 0.109 7.44 2.85 14.51
12/18/2020 10:45:00 AM 0.06 32.108 0.109 7.46 2.87 14.59
12/18/2020 11:00:00 AM 0.05 32.09 0.109 7.48 3.1 14.69
12/18/2020 11:15:00 AM 0.04 32.072 0.109 7.51 2.79 14.77
12/18/2020 11:30:00 AM 0.03 32.054 0.109 7.53 2.8 14.85
12/18/2020 11:45:00 AM 0.03 32.054 0.109 7.55 2.82 14.9
12/18/2020 12:00:00 PM 0.03 32.054 0.109 7.58 2.79 14.94
12/18/2020 12:15:00 PM 0.04 32.072 0.109 7.59 3.03 14.96
12/18/2020 12:30:00 PM 0.03 32.054 0.109 7.61 3 14.99
12/18/2020 12:45:00 PM 0.04 32.072 0.11 7.62 2.63 15.01
12/18/2020 1:00:00 PM 0.03 32.054 0.108 7.64 3.26 15.02
12/18/2020 1:15:00 PM 0.03 32.054 0.109 7.65 2.95 15.02
12/18/2020 1:30:00 PM 0.04 32.072 0.109 7.66 3 15.02
12/18/2020 1:45:00 PM 0.04 32.072 0.109 7.66 2.88 15.01
12/18/2020 2:00:00 PM 0.04 32.072 0.11 7.53 2.84 14.98
12/18/2020 2:15:00 PM 0.05 32.09 0.11 7.66 2.74 14.96
12/18/2020 2:30:00 PM 0.05 32.09 0.11 7.67 2.7 14.95
12/18/2020 2:45:00 PM 0.03 32.054 0.111 7.67 2.59 14.94
12/18/2020 3:00:00 PM 0.04 32.072 0.11 7.66 2.84 14.93
12/18/2020 3:15:00 PM 0.05 32.09 0.111 7.65 2.77 14.9
12/18/2020 3:30:00 PM 0.04 32.072 0.111 7.66 2.61 14.88
12/18/2020 3:45:00 PM 0.04 32.072 0.111 7.65 2.66 14.86
12/18/2020 4:00:00 PM 0.04 32.072 0.112 7.64 2.73 14.81
12/18/2020 4:15:00 PM 0.04 32.072 0.112 7.63 2.77 14.76
12/18/2020 4:30:00 PM 0.03 32.054 0.112 7.6 2.7 14.71
12/18/2020 4:45:00 PM 0.04 32.072 0.113 7.57 2.69 14.64
12/18/2020 5:00:00 PM 0.03 32.054 0.113 7.55 2.62 14.57
12/18/2020 5:15:00 PM 0.03 32.054 0.113 7.4 2.78 14.49
12/18/2020 5:30:00 PM 0.03 32.054 0.113 7.49 2.61 14.42
12/18/2020 5:45:00 PM 0.03 32.054 0.114 7.47 2.83 14.36
12/18/2020 6:00:00 PM 0.04 32.072 0.114 7.35 2.75 14.29
12/18/2020 6:15:00 PM 0.03 32.054 0.115 7.45 2.77 14.25
12/18/2020 6:30:00 PM 0.03 32.054 0.115 7.43 2.75 14.22
12/18/2020 6:45:00 PM 0.03 32.054 0.115 7.3 2.7 14.18
12/18/2020 7:00:00 PM 0.03 32.054 0.116 7.42 2.81 14.17
12/18/2020 7:15:00 PM 0.03 32.054 0.116 7.41 2.77 14.15
12/18/2020 7:30:00 PM 0.03 32.054 0.116 7.4 2.65 14.14
12/18/2020 7:45:00 PM 0.03 32.054 0.117 7.39 2.77 14.13
12/18/2020 8:00:00 PM 0.03 32.054 0.117 7.38 2.79 14.12
12/18/2020 8:15:00 PM 0.04 32.072 0.117 7.39 3.24 14.12
12/18/2020 8:30:00 PM 0.03 32.054 0.118 7.37 3.17 14.12
12/18/2020 8:45:00 PM 0.03 32.054 0.118 7.37 3.4 14.11
12/18/2020 9:00:00 PM 0.04 32.072 0.118 7.38 2.88 14.11
12/18/2020 9:15:00 PM 0.04 32.072 0.118 7.37 2.86 14.11
12/18/2020 9:30:00 PM 0.04 32.072 0.119 7.37 2.76 14.1
12/18/2020 9:45:00 PM 0.04 32.072 0.119 7.36 2.81 14.1
12/18/2020 10:00:00 PM 0.04 32.072 0.12 7.36 2.76 14.1
12/18/2020 10:15:00 PM 0.04 32.072 0.12 7.35 2.77 14.09
12/18/2020 10:30:00 PM 0.03 32.054 0.12 7.35 2.87 14.09
12/18/2020 10:45:00 PM 0.03 32.054 0.12 7.35 2.84 14.09
12/18/2020 11:00:00 PM 0.03 32.054 0.12 7.34 2.92 14.09
12/18/2020 11:15:00 PM 0.03 32.054 0.12 7.35 3.24 14.08
12/18/2020 11:30:00 PM 0.03 32.054 0.121 7.34 3.05 14.08
12/18/2020 11:45:00 PM 0.03 32.054 0.122 7.34 2.94 14.08
12/19/2020 12:00:00 AM 0.02 32.036 0.121 7.34 2.78 14.07
12/19/2020 12:15:00 AM 0.02 32.036 0.121 7.35 2.68 14.07
12/19/2020 12:30:00 AM 0.02 32.036 0.121 7.35 2.68 14.07
12/19/2020 12:45:00 AM 0.04 32.072 0.122 7.33 2.71 14.06
12/19/2020 1:00:00 AM 0.05 32.09 0.122 7.35 2.84 14.06
12/19/2020 1:15:00 AM 0.04 32.072 0.122 7.34 2.88 14.05
12/19/2020 1:30:00 AM 0.05 32.09 0.123 7.34 2.73 14.05
12/19/2020 1:45:00 AM 0.05 32.09 0.123 7.33 2.67 14.05
12/19/2020 2:00:00 AM 0.05 32.09 0.123 7.34 2.76 14.05
12/19/2020 2:15:00 AM 0.04 32.072 0.123 7.32 2.9 14.05
12/19/2020 2:30:00 AM 0.04 32.072 0.123 7.33 2.81 14.05
12/19/2020 2:45:00 AM 0.03 32.054 0.123 7.33 2.67 14.05
12/19/2020 3:00:00 AM 0.03 32.054 0.123 7.33 2.7 14.05
12/19/2020 3:15:00 AM 0.03 32.054 0.124 7.34 2.79 14.05
12/19/2020 3:30:00 AM 0.03 32.054 0.124 7.33 2.94 14.05
12/19/2020 3:45:00 AM 0.03 32.054 0.124 7.33 2.87 14.05
12/19/2020 4:00:00 AM 0.02 32.036 0.124 7.33 2.81 14.04
12/19/2020 4:15:00 AM 0.03 32.054 0.124 7.32 2.68 14.04
12/19/2020 4:30:00 AM 0.04 32.072 0.124 7.19 2.68 14.02
12/19/2020 4:45:00 AM 0.04 32.072 0.124 7.32 2.66 14.03
12/19/2020 5:00:00 AM 0.04 32.072 0.124 7.31 2.98 14.02
12/19/2020 5:15:00 AM 0.03 32.054 0.124 7.31 2.86 14.03
12/19/2020 5:30:00 AM 0.03 32.054 0.124 7.31 2.79 14.02
12/19/2020 5:45:00 AM 0.04 32.072 0.124 7.3 2.79 14.01
12/19/2020 6:00:00 AM 0.03 32.054 0.124 7.3 2.73 14.01
12/19/2020 6:15:00 AM 0.03 32.054 0.124 7.31 2.72 14
12/19/2020 6:30:00 AM 0.03 32.054 0.124 7.3 2.62 13.99
12/19/2020 6:45:00 AM 0.03 32.054 0.124 7.3 2.59 13.99
12/19/2020 7:00:00 AM 0.04 32.072 0.124 7.3 2.6 13.97
12/19/2020 7:15:00 AM 0.03 32.054 0.124 7.17 2.75 13.97
12/19/2020 7:30:00 AM 0.04 32.072 0.123 7.3 2.57 13.97
12/19/2020 7:45:00 AM 0.03 32.054 0.124 7.3 2.62 13.97
12/19/2020 8:00:00 AM 0.03 32.054 0.123 7.31 2.63 14
12/19/2020 8:15:00 AM 0.03 32.054 0.123 7.31 2.64 14.04
12/19/2020 8:30:00 AM 0.04 32.072 0.123 7.31 2.64 14.12
12/19/2020 8:45:00 AM 0.04 32.072 0.123 7.34 2.7 14.22
12/19/2020 9:00:00 AM 0.04 32.072 0.122 7.35 2.66 14.33
12/19/2020 9:15:00 AM 0.05 32.09 0.122 7.36 2.74 14.46
12/19/2020 9:30:00 AM 0.04 32.072 0.122 7.41 2.79 14.58
12/19/2020 9:45:00 AM 0.04 32.072 0.122 7.42 2.62 14.71
12/19/2020 10:00:00 AM 0.04 32.072 0.121 7.45 2.7 14.83
12/19/2020 10:15:00 AM 0.04 32.072 0.121 7.48 2.65 14.95
12/19/2020 10:30:00 AM 0.03 32.054 0.121 7.51 2.66 15.06
12/19/2020 10:45:00 AM 0.04 32.072 0.12 7.54 2.84 15.15
12/19/2020 11:00:00 AM 0.03 32.054 0.12 7.56 2.69 15.21
12/19/2020 11:15:00 AM 0.03 32.054 0.12 7.58 2.63 15.26
12/19/2020 11:30:00 AM 0.03 32.054 0.119 7.62 2.72 15.29
12/19/2020 11:45:00 AM 0.03 32.054 0.119 7.64 2.83 15.32
12/19/2020 12:00:00 PM 0.03 32.054 0.119 7.65 2.79 15.33
12/19/2020 12:15:00 PM 0.03 32.054 0.118 7.69 3.07 15.34
12/19/2020 12:30:00 PM 0.04 32.072 0.118 7.7 2.98 15.34
12/19/2020 12:45:00 PM 0.04 32.072 0.118 7.71 2.67 15.33
12/19/2020 1:00:00 PM 0.04 32.072 0.118 7.72 2.86 15.31
12/19/2020 1:15:00 PM 0.03 32.054 0.118 7.72 2.86 15.3
12/19/2020 1:30:00 PM 0.03 32.054 0.118 7.75 2.78 15.27
12/19/2020 1:45:00 PM 0.04 32.072 0.118 7.74 2.66 15.24
12/19/2020 2:00:00 PM 0.03 32.054 0.119 7.74 2.61 15.21
12/19/2020 2:15:00 PM 0.03 32.054 0.118 7.75 2.8 15.21
12/19/2020 2:30:00 PM 0.03 32.054 0.118 7.76 3.12 15.19
12/19/2020 2:45:00 PM 0.02 32.036 0.118 7.76 2.94 15.18
12/19/2020 3:00:00 PM 0.02 32.036 0.123 7.76 2.57 15.16
12/19/2020 3:15:00 PM 0.01 32.018 0.119 7.76 2.95 15.14
12/19/2020 3:30:00 PM 0.01 32.018 0.119 7.75 2.93 15.11
12/19/2020 3:45:00 PM 0.02 32.036 0.119 7.75 2.71 15.04
12/19/2020 4:00:00 PM 0.01 32.018 0.119 7.72 2.83 15
12/19/2020 4:15:00 PM 0.01 32.018 0.119 7.7 3.01 14.92
12/19/2020 4:30:00 PM 0.01 32.018 0.119 7.68 3 14.83
12/19/2020 4:45:00 PM 0.01 32.018 0.12 7.64 2.87 14.72
12/19/2020 5:00:00 PM 0.01 32.018 0.12 7.61 2.81 14.62
12/19/2020 5:15:00 PM 0.01 32.018 0.12 7.58 2.7 14.51
12/19/2020 5:30:00 PM 0.02 32.036 0.12 7.56 2.8 14.41
12/19/2020 5:45:00 PM 0.01 32.018 0.12 7.53 2.87 14.32
12/19/2020 6:00:00 PM 0.02 32.036 0.12 7.51 2.81 14.24
12/19/2020 6:15:00 PM 0.02 32.036 0.119 7.48 2.78 14.19
12/19/2020 6:30:00 PM 0.03 32.054 0.119 7.47 2.79 14.13
12/19/2020 6:45:00 PM 0.02 32.036 0.119 7.45 3.25 14.09
12/19/2020 7:00:00 PM 0.02 32.036 0.119 7.43 3.09 14.06
12/19/2020 7:15:00 PM 0.02 32.036 0.12 7.43 2.72 14.04
12/19/2020 7:30:00 PM 0.02 32.036 0.119 7.43 2.83 14.01
12/19/2020 7:45:00 PM 0.02 32.036 0.119 7.42 2.98 14
12/19/2020 8:00:00 PM 0.02 32.036 0.119 7.41 2.93 13.99
12/19/2020 8:15:00 PM 0.02 32.036 0.119 7.41 2.75 13.98
12/19/2020 8:30:00 PM 0.02 32.036 0.119 7.27 2.81 13.97
12/19/2020 8:45:00 PM 0.02 32.036 0.119 7.4 2.74 13.96
12/19/2020 9:00:00 PM 0.02 32.036 0.119 7.38 2.67 13.95
12/19/2020 9:15:00 PM 0.02 32.036 0.118 7.39 2.96 13.95
12/19/2020 9:30:00 PM 0.02 32.036 0.119 7.38 2.77 13.94
12/19/2020 9:45:00 PM 0.02 32.036 0.118 7.37 2.8 13.93
12/19/2020 10:00:00 PM 0.02 32.036 0.118 7.37 2.66 13.93
12/19/2020 10:15:00 PM 0.02 32.036 0.118 7.37 2.58 13.91
12/19/2020 10:30:00 PM 0.02 32.036 0.118 7.37 2.81 13.91
12/19/2020 10:45:00 PM 0.02 32.036 0.118 7.37 2.89 13.9
12/19/2020 11:00:00 PM 0.02 32.036 0.118 7.36 2.94 13.9
12/19/2020 11:15:00 PM 0.01 32.018 0.118 7.36 2.99 13.9
12/19/2020 11:30:00 PM 0.02 32.036 0.118 7.36 2.96 13.89
12/19/2020 11:45:00 PM 0.01 32.018 0.118 7.36 2.78 13.88
12/20/2020 12:00:00 AM 0.02 32.036 0.118 7.36 2.48 13.88
12/20/2020 12:15:00 AM 0.01 32.018 0.118 7.35 2.55 13.88
12/20/2020 12:30:00 AM 0.02 32.036 0.117 7.34 2.73 13.87
12/20/2020 12:45:00 AM 0.01 32.018 0.117 7.35 2.74 13.87
12/20/2020 1:00:00 AM 0.02 32.036 0.118 7.35 2.62 13.87
12/20/2020 1:15:00 AM 0.02 32.036 0.117 7.35 2.67 13.87
12/20/2020 1:30:00 AM 0.02 32.036 0.117 7.35 2.54 13.86
12/20/2020 1:45:00 AM 0.02 32.036 0.118 7.35 2.66 13.87
12/20/2020 2:00:00 AM 0.01 32.018 0.118 7.34 2.58 13.87
12/20/2020 2:15:00 AM 0.02 32.036 0.118 7.34 2.54 13.86
12/20/2020 2:30:00 AM 0.01 32.018 0.118 7.35 2.7 13.87
12/20/2020 2:45:00 AM 0.02 32.036 0.118 7.34 2.62 13.86
12/20/2020 3:00:00 AM 0.02 32.036 0.118 7.34 2.6 13.86
12/20/2020 3:15:00 AM 0.02 32.036 0.118 7.34 2.74 13.86
12/20/2020 3:30:00 AM 0.02 32.036 0.118 7.34 2.63 13.86
12/20/2020 3:45:00 AM 0.02 32.036 0.118 7.34 2.61 13.86
12/20/2020 4:00:00 AM 0.02 32.036 0.118 7.32 2.68 13.85
12/20/2020 4:15:00 AM 0.02 32.036 0.118 7.33 2.79 13.85
12/20/2020 4:30:00 AM 0.02 32.036 0.119 7.33 2.85 13.84
12/20/2020 4:45:00 AM 0.02 32.036 0.118 7.26 2.85 13.84
12/20/2020 5:00:00 AM 0.02 32.036 0.119 7.34 2.64 13.83
12/20/2020 5:15:00 AM 0.02 32.036 0.118 7.33 2.64 13.83
12/20/2020 5:30:00 AM 0.02 32.036 0.119 7.34 2.56 13.82
12/20/2020 5:45:00 AM 0.02 32.036 0.118 7.34 2.68 13.83
12/20/2020 6:00:00 AM 0.02 32.036 0.119 7.34 2.83 13.82
12/20/2020 6:15:00 AM 0.02 32.036 0.119 7.32 2.79 13.82
12/20/2020 6:30:00 AM 0.03 32.054 0.118 7.34 2.68 13.81
12/20/2020 6:45:00 AM 0.03 32.054 0.118 7.33 3.39 13.82
12/20/2020 7:00:00 AM 0.03 32.054 0.118 7.34 2.69 13.82
12/20/2020 7:15:00 AM 0.03 32.054 0.118 7.34 2.86 13.81
12/20/2020 7:30:00 AM 0.02 32.036 0.118 7.34 2.68 13.81
12/20/2020 7:45:00 AM 0.03 32.054 0.118 7.34 3.23 13.82
12/20/2020 8:00:00 AM 0.02 32.036 0.118 7.33 2.6 13.83
12/20/2020 8:15:00 AM 0.02 32.036 0.118 7.34 2.56 13.85
12/20/2020 8:30:00 AM 0.03 32.054 0.118 7.36 2.65 13.92
12/20/2020 8:45:00 AM 0.02 32.036 0.118 7.38 2.96 13.99
12/20/2020 9:00:00 AM 0.02 32.036 0.118 7.39 2.85 14.09
12/20/2020 9:15:00 AM 0.02 32.036 0.118 7.27 2.69 14.18
12/20/2020 9:30:00 AM 0.02 32.036 0.118 7.43 2.57 14.24
12/20/2020 9:45:00 AM 0.02 32.036 0.118 7.44 2.56 14.29
12/20/2020 10:00:00 AM 0.02 32.036 0.117 7.46 2.83 14.35
12/20/2020 10:15:00 AM 0.02 32.036 0.117 7.46 2.59 14.39
12/20/2020 10:30:00 AM 0.03 32.054 0.117 7.31 2.6 14.45
12/20/2020 10:45:00 AM 0.03 32.054 0.117 7.49 2.65 14.5
12/20/2020 11:00:00 AM 0.03 32.054 0.117 7.52 2.59 14.57
12/20/2020 11:15:00 AM 0.04 32.072 0.116 7.55 2.72 14.62
12/20/2020 11:30:00 AM 0.03 32.054 0.117 7.56 2.71 14.68
12/20/2020 11:45:00 AM 0.03 32.054 0.116 7.59 2.72 14.73
12/20/2020 12:00:00 PM 0.03 32.054 0.116 7.6 2.89 14.75
12/20/2020 12:15:00 PM 0.04 32.072 0.116 7.62 2.78 14.75
12/20/2020 12:30:00 PM 0.03 32.054 0.116 7.62 2.71 14.75
12/20/2020 12:45:00 PM 0.03 32.054 0.116 7.64 2.66 14.73
12/20/2020 1:00:00 PM 0.03 32.054 0.116 7.63 2.73 14.69
12/20/2020 1:15:00 PM 0.02 32.036 0.115 7.63 2.62 14.66
12/20/2020 1:30:00 PM 0.03 32.054 0.116 7.62 2.54 14.64
12/20/2020 1:45:00 PM 0.03 32.054 0.116 7.64 2.8 14.61
12/20/2020 2:00:00 PM 0.02 32.036 0.115 7.62 2.65 14.58
12/20/2020 2:15:00 PM 0.03 32.054 0.115 7.61 2.65 14.55
12/20/2020 2:30:00 PM 0.03 32.054 0.115 7.61 2.59 14.54
12/20/2020 2:45:00 PM 0.03 32.054 0.115 7.6 2.66 14.53
12/20/2020 3:00:00 PM 0.03 32.054 0.115 7.61 2.72 14.5
12/20/2020 3:15:00 PM 0.03 32.054 0.115 7.59 2.64 14.47
12/20/2020 3:30:00 PM 0.03 32.054 0.115 7.57 2.54 14.42
12/20/2020 3:45:00 PM 0.03 32.054 0.115 7.57 2.69 14.37
12/20/2020 4:00:00 PM 0.03 32.054 0.115 7.55 2.62 14.32
12/20/2020 4:15:00 PM 0.02 32.036 0.116 7.54 4.84 14.26
12/20/2020 4:30:00 PM 0.03 32.054 0.116 7.51 2.63 14.19
12/20/2020 4:45:00 PM 0.03 32.054 0.115 7.51 2.6 14.12
12/20/2020 5:00:00 PM 0.03 32.054 0.115 7.49 2.5 14.06
12/20/2020 5:15:00 PM 0.03 32.054 0.116 7.47 2.58 14
12/20/2020 5:30:00 PM 0.03 32.054 0.115 7.46 2.57 13.96
12/20/2020 5:45:00 PM 0.03 32.054 0.116 7.45 2.76 13.92
12/20/2020 6:00:00 PM 0.03 32.054 0.116 7.43 3.06 13.9
12/20/2020 6:15:00 PM 0.03 32.054 0.116 7.43 2.58 13.87
12/20/2020 6:30:00 PM 0.03 32.054 0.116 7.42 2.77 13.86
12/20/2020 6:45:00 PM 0.03 32.054 0.115 7.41 2.63 13.85
12/20/2020 7:00:00 PM 0.03 32.054 0.115 7.41 2.67 13.84
12/20/2020 7:15:00 PM 0.03 32.054 0.115 7.4 2.59 13.83
12/20/2020 7:30:00 PM 0.03 32.054 0.115 7.41 2.99 13.83
12/20/2020 7:45:00 PM 0.04 32.072 0.116 7.39 3.09 13.82
12/20/2020 8:00:00 PM 0.03 32.054 0.115 7.26 2.72 13.82
12/20/2020 8:15:00 PM 0.03 32.054 0.115 7.38 2.75 13.81
12/20/2020 8:30:00 PM 0.04 32.072 0.115 7.38 2.97 13.81
12/20/2020 8:45:00 PM 0.04 32.072 0.115 7.39 2.66 13.8
12/20/2020 9:00:00 PM 0.04 32.072 0.115 7.37 2.8 13.8
12/20/2020 9:15:00 PM 0.03 32.054 0.115 7.22 2.72 13.8
12/20/2020 9:30:00 PM 0.04 32.072 0.115 7.39 2.69 13.8
12/20/2020 9:45:00 PM 0.04 32.072 0.114 7.36 2.6 13.8
12/20/2020 10:00:00 PM 0.04 32.072 0.115 7.37 2.66 13.79
12/20/2020 10:15:00 PM 0.04 32.072 0.114 7.38 2.69 13.79
12/20/2020 10:30:00 PM 0.04 32.072 0.115 7.36 2.69 13.79
12/20/2020 10:45:00 PM 0.04 32.072 0.115 7.37 2.64 13.79
12/20/2020 11:00:00 PM 0.04 32.072 0.115 7.35 2.69 13.79
12/20/2020 11:15:00 PM 0.04 32.072 0.115 7.36 2.63 13.79
12/20/2020 11:30:00 PM 0.04 32.072 0.115 7.36 2.75 13.79
12/20/2020 11:45:00 PM 0.04 32.072 0.115 7.37 2.86 13.79
12/21/2020 12:00:00 AM 0.04 32.072 0.115 7.36 2.65 13.79
12/21/2020 12:15:00 AM 0.04 32.072 0.115 7.37 2.69 13.78
12/21/2020 12:30:00 AM 0.04 32.072 0.115 7.36 2.73 13.79
12/21/2020 12:45:00 AM 0.05 32.09 0.115 7.38 2.61 13.78
12/21/2020 1:00:00 AM 0.05 32.09 0.115 7.37 2.74 13.78
12/21/2020 1:15:00 AM 0.04 32.072 0.115 7.37 2.62 13.78
12/21/2020 1:30:00 AM 0.05 32.09 0.115 7.36 2.71 13.78
12/21/2020 1:45:00 AM 0.04 32.072 0.115 7.34 2.67 13.78
12/21/2020 2:00:00 AM 0.05 32.09 0.116 7.37 2.58 13.78
12/21/2020 2:15:00 AM 0.05 32.09 0.115 7.36 2.57 13.77
12/21/2020 2:30:00 AM 0.05 32.09 0.115 7.36 2.63 13.78
12/21/2020 2:45:00 AM 0.05 32.09 0.115 7.35 2.69 13.77
12/21/2020 3:00:00 AM 0.04 32.072 0.116 7.37 2.53 13.78
12/21/2020 3:15:00 AM 0.04 32.072 0.115 7.37 2.76 13.77
12/21/2020 3:30:00 AM 0.05 32.09 0.116 7.24 2.69 13.78
12/21/2020 3:45:00 AM 0.05 32.09 0.115 7.36 2.64 13.77
12/21/2020 4:00:00 AM 0.04 32.072 0.115 7.36 2.53 13.79
12/21/2020 4:15:00 AM 0.04 32.072 0.116 7.36 2.63 13.78
12/21/2020 4:30:00 AM 0.04 32.072 0.116 7.36 2.6 13.78
12/21/2020 4:45:00 AM 0.03 32.054 0.116 7.35 2.59 13.78
12/21/2020 5:00:00 AM 0.03 32.054 0.116 7.37 2.64 13.79
12/21/2020 5:15:00 AM 0.03 32.054 0.116 7.36 2.61 13.79
12/21/2020 5:30:00 AM 0.04 32.072 0.116 7.36 2.68 13.8
12/21/2020 5:45:00 AM 0.03 32.054 0.117 7.36 2.55 13.81
12/21/2020 6:00:00 AM 0.04 32.072 0.117 7.36 2.69 13.81
12/21/2020 6:15:00 AM 0.04 32.072 0.117 7.36 2.65 13.82
12/21/2020 6:30:00 AM 0.05 32.09 0.116 7.37 2.62 13.82
12/21/2020 6:45:00 AM 0.04 32.072 0.117 7.37 2.73 13.83
12/21/2020 7:00:00 AM 0.04 32.072 0.116 7.37 2.72 13.82
12/21/2020 7:15:00 AM 0.04 32.072 0.117 7.36 2.61 13.82
12/21/2020 7:30:00 AM 0.04 32.072 0.116 7.36 2.75 13.81
12/21/2020 7:45:00 AM 0.04 32.072 0.116 7.37 2.63 13.82
12/21/2020 8:00:00 AM 0.04 32.072 0.116 7.37 2.62 13.84
12/21/2020 8:15:00 AM 0.05 32.09 0.115 7.38 2.76 13.9
12/21/2020 8:30:00 AM 0.05 32.09 0.115 7.41 3.03 13.96
12/21/2020 8:45:00 AM 0.06 32.108 0.116 7.43 3.2 14.06
12/21/2020 9:00:00 AM 0.06 32.108 0.115 7.46 2.69 14.17
12/21/2020 9:15:00 AM 0.06 32.108 0.115 7.48 2.69 14.27
12/21/2020 9:30:00 AM 0.06 32.108 0.115 7.49 2.84 14.35
12/21/2020 9:45:00 AM 0.06 32.108 0.115 7.53 2.71 14.41
12/21/2020 10:00:00 AM 0.07 32.126 0.115 7.54 3.02 14.46
12/21/2020 10:15:00 AM 0.06 32.108 0.114 7.57 3.12 14.5
12/21/2020 10:30:00 AM 0.06 32.108 0.114 7.58 3.05 14.53
12/21/2020 10:45:00 AM 0.05 32.09 0.114 7.59 2.88 14.54
12/21/2020 11:00:00 AM 0.06 32.108 0.114 7.47 2.86 14.54
12/21/2020 11:15:00 AM 0.06 32.108 0.114 7.63 2.89 14.52
12/21/2020 11:30:00 AM 0.07 32.126 0.114 7.64 2.73 14.51
12/21/2020 11:45:00 AM 0.08 32.144 0.114 7.65 3.06 14.51
12/21/2020 12:00:00 PM 0.07 32.126 0.114 7.66 2.82 14.51
12/21/2020 12:15:00 PM 0.07 32.126 0.113 7.68 2.89 14.5
12/21/2020 12:30:00 PM 0.07 32.126 0.113 7.7 2.97 14.48
12/21/2020 12:45:00 PM 0.07 32.126 0.113 7.7 2.89 14.48
12/21/2020 1:00:00 PM 0.07 32.126 0.113 7.7 2.89 14.48
12/21/2020 1:15:00 PM 0.07 32.126 0.113 7.71 3.13 14.47
12/21/2020 1:30:00 PM 0.06 32.108 0.113 7.72 3.24 14.49
12/21/2020 1:45:00 PM 0.06 32.108 0.113 7.75 3.29 14.47
12/21/2020 2:00:00 PM 0.07 32.126 0.112 7.73 3.23 14.47
12/21/2020 2:15:00 PM 0.08 32.144 0.112 7.75 3.53 14.46
12/21/2020 2:30:00 PM 0.1 32.18 0.112 7.75 4.03 14.43
12/21/2020 2:45:00 PM 0.12 32.216 0.113 7.77 3.44 14.4
12/21/2020 3:00:00 PM 0.13 32.234 0.112 7.75 3.25 14.37
12/21/2020 3:15:00 PM 0.13 32.234 0.112 7.76 3.41 14.35
12/21/2020 3:30:00 PM 0.14 32.252 0.112 7.74 3.57 14.32
12/21/2020 3:45:00 PM 0.16 32.288 0.112 7.73 3.15 14.27
12/21/2020 4:00:00 PM 0.16 32.288 0.112 7.7 3.35 14.22
12/21/2020 4:15:00 PM 0.16 32.288 0.113 7.68 4.19 14.16
12/21/2020 4:30:00 PM 0.18 32.324 0.113 7.64 4.13 14.06
12/21/2020 4:45:00 PM 0.2 32.36 0.113 7.63 3.18 13.98
12/21/2020 5:00:00 PM 0.24 32.432 0.113 7.6 3.04 13.89
12/21/2020 5:15:00 PM 0.25 32.45 0.113 7.56 3.1 13.83
12/21/2020 5:30:00 PM 0.27 32.486 0.113 7.54 3.18 13.8
12/21/2020 5:45:00 PM 0.29 32.522 0.113 7.52 3.04 13.77
12/21/2020 6:00:00 PM 0.31 32.558 0.113 7.51 3.12 13.73
12/21/2020 6:15:00 PM 0.32 32.576 0.114 7.5 3.02 13.71
12/21/2020 6:30:00 PM 0.31 32.558 0.114 7.48 3.09 13.71
12/21/2020 6:45:00 PM 0.3 32.54 0.114 7.49 3.9 13.69
12/21/2020 7:00:00 PM 0.31 32.558 0.113 7.47 3.37 13.68
12/21/2020 7:15:00 PM 0.38 32.684 0.113 7.47 3.07 13.64
12/21/2020 7:30:00 PM 0.4 32.72 0.113 7.47 3.03 13.68
12/21/2020 7:45:00 PM 0.42 32.756 0.113 7.46 3.13 13.68
12/21/2020 8:00:00 PM 0.41 32.738 0.113 7.45 2.99 13.69
12/21/2020 8:15:00 PM 0.44 32.792 0.114 7.46 2.71 13.7
12/21/2020 8:30:00 PM 0.46 32.828 0.113 7.45 2.91 13.69
12/21/2020 8:45:00 PM 0.46 32.828 0.113 7.45 3 13.7
12/21/2020 9:00:00 PM 0.49 32.882 0.113 7.45 2.98 13.68
12/21/2020 9:15:00 PM 0.48 32.864 0.114 7.44 3.25 13.69
12/21/2020 9:30:00 PM 0.5 32.9 0.114 7.44 3.24 13.69
12/21/2020 9:45:00 PM 0.51 32.918 0.114 7.44 2.87 13.67
12/21/2020 10:00:00 PM 0.52 32.936 0.114 7.44 2.9 13.68
12/21/2020 10:15:00 PM 0.54 32.972 0.114 7.43 2.85 13.67
12/21/2020 10:30:00 PM 0.55 32.99 0.114 7.44 2.81 13.67
12/21/2020 10:45:00 PM 0.55 32.99 0.114 7.43 2.73 13.67
12/21/2020 11:00:00 PM 0.56 33.008 0.114 7.42 2.74 13.67
12/21/2020 11:15:00 PM 0.58 33.044 0.114 7.44 2.93 13.66
12/21/2020 11:30:00 PM 0.57 33.026 0.114 7.43 2.86 13.67
12/21/2020 11:45:00 PM 0.59 33.062 0.115 7.44 2.65 13.65
12/22/2020 12:00:00 AM 0.59 33.062 0.115 7.44 2.85 13.66
12/22/2020 12:15:00 AM 0.61 33.098 0.114 7.44 2.9 13.66
12/22/2020 12:30:00 AM 0.63 33.134 0.115 7.44 2.7 13.65
12/22/2020 12:45:00 AM 0.63 33.134 0.115 7.43 2.76 13.64
12/22/2020 1:00:00 AM 0.65 33.17 0.115 7.44 2.9 13.63
12/22/2020 1:15:00 AM 0.66 33.188 0.115 7.44 2.66 13.63
12/22/2020 1:30:00 AM 0.67 33.206 0.115 7.43 2.78 13.62
12/22/2020 1:45:00 AM 0.66 33.188 0.116 7.43 2.69 13.62
12/22/2020 2:00:00 AM 0.65 33.17 0.115 7.29 2.77 13.62
12/22/2020 2:15:00 AM 0.65 33.17 0.115 7.43 2.65 13.62
12/22/2020 2:30:00 AM 0.65 33.17 0.115 7.42 2.74 13.62
12/22/2020 2:45:00 AM 0.66 33.188 0.116 7.42 2.73 13.62
12/22/2020 3:00:00 AM 0.68 33.224 0.116 7.42 2.74 13.62
12/22/2020 3:15:00 AM 0.68 33.224 0.116 7.29 2.74 13.62
12/22/2020 3:30:00 AM 0.67 33.206 0.115 7.43 2.77 13.62
12/22/2020 3:45:00 AM 0.66 33.188 0.116 7.44 2.61 13.62
12/22/2020 4:00:00 AM 0.64 33.152 0.115 7.44 2.85 13.63
12/22/2020 4:15:00 AM 0.63 33.134 0.116 7.41 2.73 13.63
12/22/2020 4:30:00 AM 0.64 33.152 0.116 7.44 2.9 13.62
12/22/2020 4:45:00 AM 0.66 33.188 0.116 7.44 2.76 13.62
12/22/2020 5:00:00 AM 0.67 33.206 0.116 7.43 2.79 13.63
12/22/2020 5:15:00 AM 0.68 33.224 0.116 7.44 2.83 13.62
12/22/2020 5:30:00 AM 0.69 33.242 0.115 7.42 2.68 13.62
12/22/2020 5:45:00 AM 0.7 33.26 0.116 7.41 2.68 13.62
12/22/2020 6:00:00 AM 0.71 33.278 0.116 7.41 2.78 13.62
12/22/2020 6:15:00 AM 0.71 33.278 0.117 7.44 2.73 13.62
12/22/2020 6:30:00 AM 0.64 33.152 0.117 7.44 3.16 13.59
12/22/2020 6:45:00 AM 0.74 33.332 0.116 7.42 3 13.61
12/22/2020 7:00:00 AM 0.77 33.386 0.116 7.43 2.89 13.61
12/22/2020 7:15:00 AM 0.79 33.422 0.117 7.44 2.61 13.6
12/22/2020 7:30:00 AM 0.81 33.458 0.116 7.43 2.74 13.6
12/22/2020 7:45:00 AM 0.83 33.494 0.116 7.43 2.76 13.61
12/22/2020 8:00:00 AM 0.82 33.476 0.116 7.44 2.72 13.64
12/22/2020 8:15:00 AM 0.85 33.53 0.116 7.44 2.53 13.67
12/22/2020 8:30:00 AM 0.88 33.584 0.116 7.45 2.76 13.71
12/22/2020 8:45:00 AM 0.89 33.602 0.116 7.47 2.8 13.76
12/22/2020 9:00:00 AM 0.91 33.638 0.116 7.49 2.8 13.87
12/22/2020 9:15:00 AM 0.96 33.728 0.115 7.52 2.73 13.99
12/22/2020 9:30:00 AM 0.99 33.782 0.115 7.54 2.66 14.03
12/22/2020 9:45:00 AM 1.04 33.872 0.115 7.57 2.71 14.1
12/22/2020 10:00:00 AM 1.08 33.944 0.115 7.57 2.68 14.14
12/22/2020 10:15:00 AM 1.12 34.016 0.115 7.61 2.79 14.19
12/22/2020 10:30:00 AM 1.22 34.196 0.114 7.66 2.85 14.24
12/22/2020 10:45:00 AM 1.26 34.268 0.114 7.69 2.74 14.27
12/22/2020 11:00:00 AM 1.33 34.394 0.114 7.72 2.73 14.29
12/22/2020 11:15:00 AM 1.37 34.466 0.114 7.72 2.9 14.3
12/22/2020 11:30:00 AM 1.38 34.484 0.114 7.73 2.76 14.28
12/22/2020 11:45:00 AM 1.46 34.628 0.114 7.74 2.66 14.29
12/22/2020 12:00:00 PM 1.5 34.7 0.114 7.76 2.79 14.27
12/22/2020 12:15:00 PM 1.55 34.79 0.114 7.78 2.72 14.26
12/22/2020 12:30:00 PM 1.55 34.79 0.114 7.78 2.68 14.21
12/22/2020 12:45:00 PM 1.55 34.79 0.114 7.79 2.66 14.2
12/22/2020 1:00:00 PM 1.56 34.808 0.114 7.78 2.8 14.15
12/22/2020 1:15:00 PM 1.59 34.862 0.114 7.79 2.78 14.16
12/22/2020 1:30:00 PM 1.59 34.862 0.114 7.79 2.66 14.19
12/22/2020 1:45:00 PM 1.62 34.916 0.114 7.82 2.74 14.22
12/22/2020 2:00:00 PM 1.68 35.024 0.114 7.83 2.69 14.24
12/22/2020 2:15:00 PM 1.71 35.078 0.114 7.84 2.74 14.24
12/22/2020 2:30:00 PM 1.73 35.114 0.114 7.85 2.75 14.24
12/22/2020 2:45:00 PM 1.74 35.132 0.113 7.84 2.76 14.23
12/22/2020 3:00:00 PM 1.74 35.132 0.114 7.85 2.77 14.18
12/22/2020 3:15:00 PM 1.75 35.15 0.114 7.82 2.91 14.12
12/22/2020 3:30:00 PM 1.75 35.15 0.114 7.8 2.79 14.05
12/22/2020 3:45:00 PM 1.73 35.114 0.115 7.76 2.69 13.94
12/22/2020 4:00:00 PM 1.72 35.096 0.115 7.71 2.61 13.85
12/22/2020 4:15:00 PM 1.69 35.042 0.114 7.68 2.72 13.79
12/22/2020 4:30:00 PM 1.66 34.988 0.114 7.67 2.89 13.74
12/22/2020 4:45:00 PM 1.63 34.934 0.114 7.62 2.85 13.68
12/22/2020 5:00:00 PM 1.62 34.916 0.115 7.6 2.72 13.62
12/22/2020 5:15:00 PM 1.61 34.898 0.115 7.59 2.8 13.57
12/22/2020 5:30:00 PM 1.6 34.88 0.115 7.56 2.75 13.54
12/22/2020 5:45:00 PM 1.59 34.862 0.115 7.55 2.76 13.51
12/22/2020 6:00:00 PM 1.58 34.844 0.115 7.53 2.76 13.49
12/22/2020 6:15:00 PM 1.55 34.79 0.116 7.54 2.73 13.5
12/22/2020 6:30:00 PM 1.54 34.772 0.116 7.53 2.71 13.49
12/22/2020 6:45:00 PM 1.52 34.736 0.116 7.53 2.65 13.49
12/22/2020 7:00:00 PM 1.51 34.718 0.116 7.51 2.72 13.49
12/22/2020 7:15:00 PM 1.5 34.7 0.116 7.49 2.86 13.5
12/22/2020 7:30:00 PM 1.48 34.664 0.116 7.48 3 13.5
12/22/2020 7:45:00 PM 1.47 34.646 0.116 7.49 2.8 13.51
12/22/2020 8:00:00 PM 1.47 34.646 0.115 7.49 2.88 13.52
12/22/2020 8:15:00 PM 1.46 34.628 0.116 7.48 2.79 13.52
12/22/2020 8:30:00 PM 1.46 34.628 0.115 7.48 2.95 13.52
12/22/2020 8:45:00 PM 1.45 34.61 0.116 7.49 3.07 13.52
12/22/2020 9:00:00 PM 1.43 34.574 0.116 7.48 2.76 13.53
12/22/2020 9:15:00 PM 1.43 34.574 0.116 7.49 2.72 13.52
12/22/2020 9:30:00 PM 1.44 34.592 0.116 7.49 2.85 13.52
12/22/2020 9:45:00 PM 1.43 34.574 0.116 7.46 2.91 13.53
12/22/2020 10:00:00 PM 1.42 34.556 0.116 7.47 2.82 13.54
12/22/2020 10:15:00 PM 1.42 34.556 0.116 7.49 2.91 13.54
12/22/2020 10:30:00 PM 1.42 34.556 0.116 7.47 2.79 13.54
12/22/2020 10:45:00 PM 1.43 34.574 0.116 7.49 2.8 13.55
12/22/2020 11:00:00 PM 1.43 34.574 0.116 7.47 2.78 13.54
12/22/2020 11:15:00 PM 1.43 34.574 0.117 7.48 2.62 13.55
12/22/2020 11:30:00 PM 1.43 34.574 0.117 7.46 2.74 13.55
12/22/2020 11:45:00 PM 1.43 34.574 0.116 7.46 2.8 13.54
12/23/2020 12:00:00 AM 1.42 34.556 0.117 7.47 2.71 13.54
12/23/2020 12:15:00 AM 1.42 34.556 0.117 7.46 2.84 13.53
12/23/2020 12:30:00 AM 1.39 34.502 0.117 7.47 2.74 13.54
12/23/2020 12:45:00 AM 1.37 34.466 0.117 7.47 2.62 13.55
12/23/2020 1:00:00 AM 1.34 34.412 0.117 7.46 2.74 13.56
12/23/2020 1:15:00 AM 1.31 34.358 0.117 7.47 2.72 13.57
12/23/2020 1:30:00 AM 1.3 34.34 0.117 7.46 2.73 13.57
12/23/2020 1:45:00 AM 1.29 34.322 0.117 7.47 2.66 13.58
12/23/2020 2:00:00 AM 1.28 34.304 0.117 7.45 2.68 13.59
12/23/2020 2:15:00 AM 1.29 34.322 0.118 7.45 2.63 13.59
12/23/2020 2:30:00 AM 1.29 34.322 0.118 7.46 2.71 13.6
12/23/2020 2:45:00 AM 1.28 34.304 0.118 7.47 2.73 13.6
12/23/2020 3:00:00 AM 1.28 34.304 0.119 7.46 2.58 13.61
12/23/2020 3:15:00 AM 1.27 34.286 0.119 7.46 2.66 13.61
12/23/2020 3:30:00 AM 1.28 34.304 0.118 7.46 2.77 13.61
12/23/2020 3:45:00 AM 1.28 34.304 0.118 7.45 2.59 13.61
12/23/2020 4:00:00 AM 1.28 34.304 0.118 7.45 2.7 13.61
12/23/2020 4:15:00 AM 1.29 34.322 0.119 7.46 2.69 13.62
12/23/2020 4:30:00 AM 1.27 34.286 0.118 7.46 2.64 13.61
12/23/2020 4:45:00 AM 1.24 34.232 0.118 7.45 2.67 13.62
12/23/2020 5:00:00 AM 1.21 34.178 0.119 7.44 2.79 13.62
12/23/2020 5:15:00 AM 1.17 34.106 0.119 7.45 2.66 13.64
12/23/2020 5:30:00 AM 1.13 34.034 0.119 7.45 2.73 13.65
12/23/2020 5:45:00 AM 1.09 33.962 0.119 7.44 2.7 13.67
12/23/2020 6:00:00 AM 1.05 33.89 0.119 7.45 2.62 13.69
12/23/2020 6:15:00 AM 1.01 33.818 0.119 7.45 2.58 13.71
12/23/2020 6:30:00 AM 0.97 33.746 0.119 7.46 8.36 13.72
12/23/2020 6:45:00 AM 0.93 33.674 0.119 7.46 4.98 13.74
12/23/2020 7:00:00 AM 0.9 33.62 0.119 7.45 3.68 13.75
12/23/2020 7:15:00 AM 0.88 33.584 0.12 7.45 3.33 13.77
12/23/2020 7:30:00 AM 0.86 33.548 0.119 7.45 3.17 13.79
12/23/2020 7:45:00 AM 0.84 33.512 0.119 7.45 2.86 13.82
12/23/2020 8:00:00 AM 0.82 33.476 0.119 7.47 2.97 13.9
12/23/2020 8:15:00 AM 0.81 33.458 0.119 7.49 2.63 14.01
12/23/2020 8:30:00 AM 0.81 33.458 0.119 7.51 2.73 14.12
12/23/2020 8:45:00 AM 0.81 33.458 0.119 7.55 2.8 14.23
12/23/2020 9:00:00 AM 0.8 33.44 0.12 7.57 2.66 14.32
12/23/2020 9:15:00 AM 0.82 33.476 0.12 7.59 2.63 14.39
12/23/2020 9:30:00 AM 0.84 33.512 0.119 7.63 2.69 14.46
12/23/2020 9:45:00 AM 0.86 33.548 0.119 7.65 2.81 14.52
12/23/2020 10:00:00 AM 0.89 33.602 0.119 7.67 2.67 14.56
12/23/2020 10:15:00 AM 0.96 33.728 0.118 7.7 2.7 14.6
12/23/2020 10:30:00 AM 1.04 33.872 0.118 7.72 2.65 14.61
12/23/2020 10:45:00 AM 1.15 34.07 0.118 7.75 2.76 14.61
12/23/2020 11:00:00 AM 1.25 34.25 0.118 7.76 2.56 14.61
12/23/2020 11:15:00 AM 1.36 34.448 0.118 7.8 2.68 14.59
12/23/2020 11:30:00 AM 1.46 34.628 0.118 7.81 2.57 14.56
12/23/2020 11:45:00 AM 1.56 34.808 0.118 7.82 2.64 14.53
12/23/2020 12:00:00 PM 1.66 34.988 0.119 7.84 2.52 14.5
12/23/2020 12:15:00 PM 1.77 35.186 0.118 7.84 2.73 14.47
12/23/2020 12:30:00 PM 1.85 35.33 0.118 7.85 2.7 14.43
12/23/2020 12:45:00 PM 1.95 35.51 0.118 7.85 2.69 14.4
12/23/2020 1:00:00 PM 2.01 35.618 0.118 7.7 2.6 14.38
12/23/2020 1:15:00 PM 2.07 35.726 0.118 7.89 2.82 14.35
12/23/2020 1:30:00 PM 2.11 35.798 0.118 7.88 2.6 14.31
12/23/2020 1:45:00 PM 2.17 35.906 0.119 7.91 2.53 14.29
12/23/2020 2:00:00 PM 2.21 35.978 0.118 7.9 2.63 14.27
12/23/2020 2:15:00 PM 2.24 36.032 0.118 7.92 2.58 14.26
12/23/2020 2:30:00 PM 2.27 36.086 0.118 7.92 2.73 14.23
12/23/2020 2:45:00 PM 2.29 36.122 0.118 7.91 2.72 14.2
12/23/2020 3:00:00 PM 2.28 36.104 0.118 7.9 2.6 14.17
12/23/2020 3:15:00 PM 2.29 36.122 0.118 7.91 2.71 14.15
12/23/2020 3:30:00 PM 2.28 36.104 0.118 7.9 2.68 14.14
12/23/2020 3:45:00 PM 2.27 36.086 0.119 7.89 2.65 14.11
12/23/2020 4:00:00 PM 2.24 36.032 0.118 7.88 2.64 14.04
12/23/2020 4:15:00 PM 2.19 35.942 0.119 7.82 2.73 13.93
12/23/2020 4:30:00 PM 2.13 35.834 0.119 7.76 2.69 13.84
12/23/2020 4:45:00 PM 2.08 35.744 0.119 7.74 2.71 13.73
12/23/2020 5:00:00 PM 2.04 35.672 0.119 7.68 2.8 13.63
12/23/2020 5:15:00 PM 2 35.6 0.12 7.65 2.63 13.54
12/23/2020 5:30:00 PM 1.95 35.51 0.12 7.62 2.67 13.49
12/23/2020 5:45:00 PM 1.91 35.438 0.12 7.59 2.88 13.46
12/23/2020 6:00:00 PM 1.86 35.348 0.12 7.57 2.73 13.43
12/23/2020 6:15:00 PM 1.81 35.258 0.12 7.54 2.71 13.43
12/23/2020 6:30:00 PM 1.78 35.204 0.12 7.55 2.63 13.43
12/23/2020 6:45:00 PM 1.77 35.186 0.121 7.54 2.65 13.42
12/23/2020 7:00:00 PM 1.74 35.132 0.12 7.52 2.66 13.42
12/23/2020 7:15:00 PM 1.73 35.114 0.12 7.5 2.78 13.42
12/23/2020 7:30:00 PM 1.71 35.078 0.12 7.51 2.72 13.42
12/23/2020 7:45:00 PM 1.69 35.042 0.121 7.5 2.82 13.42
12/23/2020 8:00:00 PM 1.68 35.024 0.121 7.49 2.75 13.42
12/23/2020 8:15:00 PM 1.66 34.988 0.121 7.5 2.63 13.43
12/23/2020 8:30:00 PM 1.64 34.952 0.121 7.48 2.67 13.43
12/23/2020 8:45:00 PM 1.61 34.898 0.121 7.49 2.53 13.44
12/23/2020 9:00:00 PM 1.6 34.88 0.121 7.48 2.63 13.44
12/23/2020 9:15:00 PM 1.58 34.844 0.121 7.47 2.77 13.44
12/23/2020 9:30:00 PM 1.57 34.826 0.121 7.47 2.81 13.45
12/23/2020 9:45:00 PM 1.55 34.79 0.121 7.47 2.74 13.45
12/23/2020 10:00:00 PM 1.54 34.772 0.121 7.48 2.87 13.45
12/23/2020 10:15:00 PM 1.52 34.736 0.121 7.47 2.71 13.46
12/23/2020 10:30:00 PM 1.52 34.736 0.122 7.49 2.55 13.46
12/23/2020 10:45:00 PM 1.53 34.754 0.122 7.48 2.58 13.45
12/23/2020 11:00:00 PM 1.54 34.772 0.121 7.47 2.64 13.46
12/23/2020 11:15:00 PM 1.53 34.754 0.122 7.48 3.44 13.45
12/23/2020 11:30:00 PM 1.52 34.736 0.121 7.47 2.93 13.45
12/23/2020 11:45:00 PM 1.51 34.718 0.122 7.46 2.6 13.45
12/24/2020 12:00:00 AM 1.49 34.682 0.122 7.48 2.65 13.46
12/24/2020 12:15:00 AM 1.49 34.682 0.122 7.47 2.61 13.46
12/24/2020 12:30:00 AM 1.47 34.646 0.122 7.47 2.66 13.46
12/24/2020 12:45:00 AM 1.47 34.646 0.122 7.48 2.6 13.46
12/24/2020 1:00:00 AM 1.45 34.61 0.122 7.48 2.92 13.46
12/24/2020 1:15:00 AM 1.44 34.592 0.122 7.47 2.87 13.46
12/24/2020 1:30:00 AM 1.43 34.574 0.123 7.46 2.56 13.47
12/24/2020 1:45:00 AM 1.42 34.556 0.123 7.48 2.62 13.47
12/24/2020 2:00:00 AM 1.43 34.574 0.122 7.47 2.71 13.47
12/24/2020 2:15:00 AM 1.43 34.574 0.123 7.46 2.68 13.46
12/24/2020 2:30:00 AM 1.41 34.538 0.122 7.48 2.57 13.47
12/24/2020 2:45:00 AM 1.4 34.52 0.123 7.47 2.59 13.47
12/24/2020 3:00:00 AM 1.39 34.502 0.123 7.47 2.65 13.47
12/24/2020 3:15:00 AM 1.39 34.502 0.123 7.48 2.66 13.47
12/24/2020 3:30:00 AM 1.4 34.52 0.123 7.47 2.93 13.47
12/24/2020 3:45:00 AM 1.42 34.556 0.123 7.47 2.73 13.46
12/24/2020 4:00:00 AM 1.45 34.61 0.123 7.47 2.55 13.46
12/24/2020 4:15:00 AM 1.48 34.664 0.123 7.46 2.68 13.45
12/24/2020 4:30:00 AM 1.52 34.736 0.123 7.46 2.72 13.44
12/24/2020 4:45:00 AM 1.54 34.772 0.123 7.46 2.53 13.43
12/24/2020 5:00:00 AM 1.57 34.826 0.123 7.47 3 13.43
12/24/2020 5:15:00 AM 1.6 34.88 0.124 7.46 2.6 13.41
12/24/2020 5:30:00 AM 1.63 34.934 0.123 7.47 2.71 13.39
12/24/2020 5:45:00 AM 1.67 35.006 0.123 7.46 2.81 13.38
12/24/2020 6:00:00 AM 1.69 35.042 0.123 7.48 2.92 13.36
12/24/2020 6:15:00 AM 1.72 35.096 0.123 7.46 2.66 13.35
12/24/2020 6:30:00 AM 1.75 35.15 0.124 7.48 2.65 13.34
12/24/2020 6:45:00 AM 1.78 35.204 0.123 7.46 2.72 13.33
12/24/2020 7:00:00 AM 1.81 35.258 0.123 7.47 2.75 13.31
12/24/2020 7:15:00 AM 1.82 35.276 0.123 7.47 2.71 13.3
12/24/2020 7:30:00 AM 1.83 35.294 0.123 7.47 2.73 13.3
12/24/2020 7:45:00 AM 1.84 35.312 0.122 7.47 2.66 13.3
12/24/2020 8:00:00 AM 1.87 35.366 0.122 7.47 2.75 13.3
12/24/2020 8:15:00 AM 1.9 35.42 0.122 7.48 2.73 13.32
12/24/2020 8:30:00 AM 1.91 35.438 0.121 7.48 2.83 13.35
12/24/2020 8:45:00 AM 1.9 35.42 0.12 7.5 2.87 13.42
12/24/2020 9:00:00 AM 1.92 35.456 0.12 7.51 2.89 13.46
12/24/2020 9:15:00 AM 1.95 35.51 0.119 7.53 3.27 13.52
12/24/2020 9:30:00 AM 1.96 35.528 0.123 7.54 2.59 13.55
12/24/2020 9:45:00 AM 1.97 35.546 0.118 7.53 3.14 13.57
12/24/2020 10:00:00 AM 1.98 35.564 0.117 7.54 3.29 13.6
12/24/2020 10:15:00 AM 1.98 35.564 0.117 7.53 3.19 13.61
12/24/2020 10:30:00 AM 1.98 35.564 0.116 7.55 3.54 13.63
12/24/2020 10:45:00 AM 1.97 35.546 0.115 7.55 3.74 13.66
12/24/2020 11:00:00 AM 1.98 35.564 0.114 7.56 4.09 13.67
12/24/2020 11:15:00 AM 1.96 35.528 0.113 7.55 4.31 13.65
12/24/2020 11:30:00 AM 1.94 35.492 0.112 7.53 5.47 13.67
12/24/2020 11:45:00 AM 1.91 35.438 0.112 7.54 5.69 13.68
12/24/2020 12:00:00 PM 1.87 35.366 0.111 7.54 5.41 13.68
12/24/2020 12:15:00 PM 1.81 35.258 0.11 7.52 6.45 13.69
12/24/2020 12:30:00 PM 1.73 35.114 0.107 7.5 8.62 13.68
12/24/2020 12:45:00 PM 1.65 34.97 0.104 7.48 8.88 13.67
12/24/2020 1:00:00 PM 1.48 34.664 0.1 7.45 11.41 13.68
12/24/2020 1:15:00 PM 1.27 34.286 0.096 7.41 14.81 13.67
12/24/2020 1:30:00 PM 1.09 33.962 0.092 7.38 18.14 13.67
12/24/2020 1:45:00 PM 0.92 33.656 0.089 7.32 38.08 13.67
12/24/2020 2:00:00 PM 0.75 33.35 0.088 7.08 45.89 13.66
12/24/2020 2:15:00 PM 0.7 33.26 0.087 7.25 68.54 13.66
12/24/2020 2:30:00 PM 0.56 33.008 0.088 7.23 100.75 13.71
12/24/2020 2:45:00 PM 0.52 32.936 0.091 7.22 89.26 13.75
12/24/2020 3:00:00 PM 0.46 32.828 0.093 7.17 123.78 13.78
12/24/2020 3:15:00 PM 0.41 32.738 0.094 7.12 195.25 13.78
12/24/2020 3:30:00 PM 0.43 32.774 0.097 7.05 147.05 13.78
12/24/2020 3:45:00 PM 0.41 32.738 0.101 7.04 184.43 13.76
12/24/2020 4:00:00 PM 0.41 32.738 0.101 7.02 189.45 13.73
12/24/2020 4:15:00 PM 0.48 32.864 0.099 7 226.36 13.71
12/24/2020 4:30:00 PM 0.46 32.828 0.096 7 217.25 13.67
12/24/2020 4:45:00 PM 0.55 32.99 0.093 6.97 299.29 13.67
12/24/2020 5:00:00 PM 0.63 33.134 0.092 6.97 233.35 13.67
12/24/2020 5:15:00 PM 0.62 33.116 0.095 6.95 263.69 13.65
12/24/2020 5:30:00 PM 0.65 33.17 0.097 6.95 296.12 13.64
12/24/2020 5:45:00 PM 0.64 33.152 0.099 6.91 284.57 13.66
12/24/2020 6:00:00 PM 0.66 33.188 0.099 6.9 274.73 13.65
12/24/2020 6:15:00 PM 0.68 33.224 0.098 6.91 331.79 13.63
12/24/2020 6:30:00 PM 0.74 33.332 0.096 6.86 330.28 13.62
12/24/2020 6:45:00 PM 0.8 33.44 0.094 6.84 339.61 13.62
12/24/2020 7:00:00 PM 0.85 33.53 0.092 6.91 365.14 13.59
12/24/2020 7:15:00 PM 0.9 33.62 0.091 6.87 401.55 13.57
12/24/2020 7:30:00 PM 0.94 33.692 0.09 6.86 350.8 13.56
12/24/2020 7:45:00 PM 1 33.8 0.088 6.9 460.97 13.55
12/24/2020 8:00:00 PM 1.04 33.872 0.087 6.85 341.84 13.52
12/24/2020 8:15:00 PM 1.07 33.926 0.084 6.84 294.79 13.5
12/24/2020 8:30:00 PM 1.11 33.998 0.082 6.86 253.9 13.49
12/24/2020 8:45:00 PM 1.15 34.07 0.081 6.82 308.04 13.48
12/24/2020 9:00:00 PM 1.21 34.178 0.079 6.82 341.01 13.46
12/24/2020 9:15:00 PM 1.26 34.268 0.079 6.86 344.01 13.44
12/24/2020 9:30:00 PM 1.34 34.412 0.078 6.86 301.48 13.42
12/24/2020 9:45:00 PM 1.43 34.574 0.077 6.87 260.58 13.39
12/24/2020 10:00:00 PM 1.52 34.736 0.076 6.8 242.93 13.37
12/24/2020 10:15:00 PM 1.61 34.898 0.075 6.81 234.12 13.34
12/24/2020 10:30:00 PM 1.68 35.024 0.073 6.82 263.38 13.31
12/24/2020 10:45:00 PM 1.73 35.114 0.072 6.81 222.39 13.29
12/24/2020 11:00:00 PM 1.77 35.186 0.072 6.83 226.5 13.28
12/24/2020 11:15:00 PM 1.8 35.24 0.071 6.83 225.83 13.26
12/24/2020 11:30:00 PM 1.84 35.312 0.07 6.83 218.57 13.24
12/24/2020 11:45:00 PM 1.9 35.42 0.069 6.81 206.4 13.22
12/25/2020 12:00:00 AM 1.95 35.51 0.068 6.83 207.28 13.2
12/25/2020 12:15:00 AM 2.02 35.636 0.067 6.79 614.73 13.18
12/25/2020 12:30:00 AM 2.09 35.762 0.066 6.78 199.61 13.16
12/25/2020 12:45:00 AM 2.16 35.888 0.065 6.81 208.99 13.13
12/25/2020 1:00:00 AM 2.22 35.996 0.064 6.77 201.91 13.11
12/25/2020 1:15:00 AM 2.24 36.032 0.062 6.76 268.06 13.09
12/25/2020 1:30:00 AM 2.22 35.996 0.061 6.75 335.31 13.09
12/25/2020 1:45:00 AM 2.18 35.924 0.06 6.67 492.59 13.09
12/25/2020 2:00:00 AM 2.13 35.834 0.059 6.71 445.03 13.09
12/25/2020 2:15:00 AM 2.07 35.726 0.058 6.66 522.16 13.1
12/25/2020 2:30:00 AM 2.02 35.636 0.057 6.59 558.2 13.11
12/25/2020 2:45:00 AM 1.99 35.582 0.057 6.61 595.33 13.12
12/25/2020 3:00:00 AM 1.93 35.474 0.057 6.64 577.29 13.14
12/25/2020 3:15:00 AM 1.88 35.384 0.056 6.56 653.91 13.16
12/25/2020 3:30:00 AM 1.82 35.276 0.057 6.6 651.42 13.19
12/25/2020 3:45:00 AM 1.75 35.15 0.056 6.56 638.45 13.22
12/25/2020 4:00:00 AM 1.74 35.132 0.056 6.54 637.77 13.24
12/25/2020 4:15:00 AM 1.77 35.186 0.057 6.63 620.44 13.24
12/25/2020 4:30:00 AM 1.84 35.312 0.056 6.61 635.85 13.23
12/25/2020 4:45:00 AM 1.96 35.528 0.056 6.65 566.97 13.21
12/25/2020 5:00:00 AM 2.05 35.69 0.056 6.67 456.56 13.18
12/25/2020 5:15:00 AM 2.14 35.852 0.056 6.62 507.6 13.16
12/25/2020 5:30:00 AM 2.21 35.978 0.053 6.61 501.05 13.15
12/25/2020 5:45:00 AM 2.29 36.122 0.056 6.64 442.22 13.13
12/25/2020 6:00:00 AM 2.33 36.194 0.056 6.69 477.33 13.11
12/25/2020 6:15:00 AM 2.37 36.266 0.056 6.65 449.55 13.09
12/25/2020 6:30:00 AM 2.43 36.374 0.055 6.65 325.77 13.07
12/25/2020 6:45:00 AM 2.47 36.446 0.055 6.67 337.52 13.06
12/25/2020 7:00:00 AM 2.52 36.536 0.055 6.67 360.9 13.04
12/25/2020 7:15:00 AM 2.56 36.608 0.055 6.66 263.45 13.02
12/25/2020 7:30:00 AM 2.61 36.698 0.055 6.68 352.61 13
12/25/2020 7:45:00 AM 2.65 36.77 0.055 6.66 264.63 12.99
12/25/2020 8:00:00 AM 2.7 36.86 0.055 6.69 190.21 12.97
12/25/2020 8:15:00 AM 2.76 36.968 0.055 6.71 165.31 12.96
12/25/2020 8:30:00 AM 2.83 37.094 0.054 6.68 232.76 12.94
12/25/2020 8:45:00 AM 2.89 37.202 0.054 6.71 286.01 12.92
12/25/2020 9:00:00 AM 2.95 37.31 0.054 6.67 189.64 12.89
12/25/2020 9:15:00 AM 3 37.4 0.055 6.72 166.85 12.87
12/25/2020 9:30:00 AM 3.05 37.49 0.055 6.69 176.66 12.84
12/25/2020 9:45:00 AM 3.1 37.58 0.055 6.72 137.65 12.84
12/25/2020 10:00:00 AM 3.15 37.67 0.055 6.71 127.63 12.81
12/25/2020 10:15:00 AM 3.19 37.742 0.055 6.72 144.59 12.8
12/25/2020 10:30:00 AM 3.25 37.85 0.055 6.71 133.87 12.78
12/25/2020 10:45:00 AM 3.3 37.94 0.054 6.73 174.32 12.76
12/25/2020 11:00:00 AM 3.34 38.012 0.054 6.72 113.46 12.75
12/25/2020 11:15:00 AM 3.39 38.102 0.054 6.71 113.88 12.73
12/25/2020 11:30:00 AM 3.43 38.174 0.054 6.74 102.94 12.71
12/25/2020 11:45:00 AM 3.46 38.228 0.054 6.74 107.1 12.7
12/25/2020 12:00:00 PM 3.49 38.282 0.055 6.73 116.22 12.69
12/25/2020 12:15:00 PM 3.51 38.318 0.049 6.74 91.34 12.67
12/25/2020 12:30:00 PM 3.54 38.372 0.054 6.75 110.18 12.66
12/25/2020 12:45:00 PM 3.56 38.408 0.054 6.75 85.73 12.65
12/25/2020 1:00:00 PM 3.58 38.444 0.054 6.76 110.73 12.64
12/25/2020 1:15:00 PM 3.6 38.48 0.054 6.76 68.94 12.64
12/25/2020 1:30:00 PM 3.62 38.516 0.054 6.76 94.67 12.63
12/25/2020 1:45:00 PM 3.65 38.57 0.054 6.76 99.8 12.62
12/25/2020 2:00:00 PM 3.66 38.588 0.054 6.79 73.74 12.61
12/25/2020 2:15:00 PM 3.68 38.624 0.054 6.78 68.18 12.62
12/25/2020 2:30:00 PM 3.69 38.642 0.054 6.79 91.69 12.6
12/25/2020 2:45:00 PM 3.71 38.678 0.054 6.79 87.31 12.6
12/25/2020 3:00:00 PM 3.73 38.714 0.054 6.78 65.52 12.6
12/25/2020 3:15:00 PM 3.74 38.732 0.054 6.8 70.32 12.59
12/25/2020 3:30:00 PM 3.74 38.732 0.054 6.79 61.48 12.58
12/25/2020 3:45:00 PM 3.73 38.714 0.054 6.79 58.34 12.59
12/25/2020 4:00:00 PM 3.72 38.696 0.054 6.81 61.17 12.58
12/25/2020 4:15:00 PM 3.72 38.696 0.054 6.78 71.36 12.59
12/25/2020 4:30:00 PM 3.71 38.678 0.054 6.81 59.52 12.59
12/25/2020 4:45:00 PM 3.69 38.642 0.055 6.8 53.4 12.59
12/25/2020 5:00:00 PM 3.67 38.606 0.055 6.8 49.48 12.61
12/25/2020 5:15:00 PM 3.66 38.588 0.054 6.8 45.35 12.62
12/25/2020 5:30:00 PM 3.64 38.552 0.055 6.78 46.37 12.62
12/25/2020 5:45:00 PM 3.62 38.516 0.054 6.81 46.33 12.63
12/25/2020 6:00:00 PM 3.59 38.462 0.055 6.8 48.06 12.64
12/25/2020 6:15:00 PM 3.56 38.408 0.055 6.79 68.98 12.65
12/25/2020 6:30:00 PM 3.53 38.354 0.055 6.8 49.51 12.67
12/25/2020 6:45:00 PM 3.5 38.3 0.055 6.82 40.74 12.67
12/25/2020 7:00:00 PM 3.48 38.264 0.055 6.82 41.14 12.68
12/25/2020 7:15:00 PM 3.45 38.21 0.055 6.8 37.65 12.7
12/25/2020 7:30:00 PM 3.41 38.138 0.055 6.83 41.7 12.71
12/25/2020 7:45:00 PM 3.37 38.066 0.055 6.82 33.19 12.73
12/25/2020 8:00:00 PM 3.35 38.03 0.055 6.83 32.93 12.74
12/25/2020 8:15:00 PM 3.32 37.976 0.056 6.83 45.46 12.75
12/25/2020 8:30:00 PM 3.29 37.922 0.055 6.83 34.23 12.76
12/25/2020 8:45:00 PM 3.26 37.868 0.055 6.82 33.03 12.77
12/25/2020 9:00:00 PM 3.24 37.832 0.056 6.84 37.64 12.78
12/25/2020 9:15:00 PM 3.21 37.778 0.055 6.82 29.95 12.79
12/25/2020 9:30:00 PM 3.19 37.742 0.056 6.82 43.91 12.8
12/25/2020 9:45:00 PM 3.15 37.67 0.056 6.81 29.11 12.81
12/25/2020 10:00:00 PM 3.11 37.598 0.056 6.83 30 12.83
12/25/2020 10:15:00 PM 3.08 37.544 0.056 6.84 27.7 12.83
12/25/2020 10:30:00 PM 3.05 37.49 0.056 6.83 28.57 12.85
12/25/2020 10:45:00 PM 3.02 37.436 0.056 6.85 28.08 12.87
12/25/2020 11:00:00 PM 2.99 37.382 0.056 6.83 31.2 12.87
12/25/2020 11:15:00 PM 2.95 37.31 0.056 6.84 28.67 12.89
12/25/2020 11:30:00 PM 2.91 37.238 0.056 6.84 26.24 12.9
12/25/2020 11:45:00 PM 2.89 37.202 0.056 6.85 26.03 12.91
12/26/2020 12:00:00 AM 2.87 37.166 0.057 6.84 17.03 12.91
12/26/2020 12:15:00 AM 2.85 37.13 0.057 6.87 30.44 12.92
12/26/2020 12:30:00 AM 2.82 37.076 0.057 6.88 26 12.94
12/26/2020 12:45:00 AM 2.8 37.04 0.057 6.86 22.27 12.95
12/26/2020 1:00:00 AM 2.78 37.004 0.057 6.86 25.77 12.96
12/26/2020 1:15:00 AM 2.76 36.968 0.057 6.86 30.09 12.96
12/26/2020 1:30:00 AM 2.74 36.932 0.057 6.86 27.36 12.97
12/26/2020 1:45:00 AM 2.72 36.896 0.057 6.86 16.55 12.98
12/26/2020 2:00:00 AM 2.7 36.86 0.057 6.86 23.19 12.98
12/26/2020 2:15:00 AM 2.69 36.842 0.057 6.87 29.54 12.99
12/26/2020 2:30:00 AM 2.67 36.806 0.057 6.85 23.9 13
12/26/2020 2:45:00 AM 2.66 36.788 0.058 6.87 20.02 13.01
12/26/2020 3:00:00 AM 2.64 36.752 0.057 6.86 23.04 13.02
12/26/2020 3:15:00 AM 2.63 36.734 0.057 6.86 20.78 13.02
12/26/2020 3:30:00 AM 2.61 36.698 0.057 6.85 23.62 13.02
12/26/2020 3:45:00 AM 2.6 36.68 0.057 6.88 15.4 13.03
12/26/2020 4:00:00 AM 2.58 36.644 0.058 6.88 19.41 13.04
12/26/2020 4:15:00 AM 2.56 36.608 0.058 6.87 18.78 13.04
12/26/2020 4:30:00 AM 2.55 36.59 0.058 6.88 19.26 13.05
12/26/2020 4:45:00 AM 2.54 36.572 0.058 6.87 20.6 13.05
12/26/2020 5:00:00 AM 2.52 36.536 0.058 6.89 19.2 13.06
12/26/2020 5:15:00 AM 2.5 36.5 0.058 6.87 17.94 13.07
12/26/2020 5:30:00 AM 2.49 36.482 0.058 6.89 16.57 13.07
12/26/2020 5:45:00 AM 2.46 36.428 0.058 6.88 18.33 13.08
12/26/2020 6:00:00 AM 2.42 36.356 0.058 6.88 18.79 13.09
12/26/2020 6:15:00 AM 2.39 36.302 0.058 6.87 21.57 13.1
12/26/2020 6:30:00 AM 2.36 36.248 0.058 6.89 16.63 13.11
12/26/2020 6:45:00 AM 2.33 36.194 0.058 6.89 16.65 13.13
12/26/2020 7:00:00 AM 2.31 36.158 0.058 6.88 36.29 13.13
12/26/2020 7:15:00 AM 2.29 36.122 0.059 6.9 17.17 13.15
12/26/2020 7:30:00 AM 2.27 36.086 0.059 6.9 16.75 13.16
12/26/2020 7:45:00 AM 2.25 36.05 0.059 6.9 15.54 13.17
12/26/2020 8:00:00 AM 2.24 36.032 0.059 6.91 16.99 13.17
12/26/2020 8:15:00 AM 2.24 36.032 0.059 6.89 14.75 13.19
12/26/2020 8:30:00 AM 2.24 36.032 0.059 6.92 16.25 13.2
12/26/2020 8:45:00 AM 2.24 36.032 0.059 6.9 15.55 13.19
12/26/2020 9:00:00 AM 2.26 36.068 0.059 6.92 15.2 13.2
12/26/2020 9:15:00 AM 2.27 36.086 0.059 6.93 15.39 13.21
12/26/2020 9:30:00 AM 2.28 36.104 0.059 6.92 15.96 13.2
12/26/2020 9:45:00 AM 2.29 36.122 0.059 6.93 15.25 13.2
12/26/2020 10:00:00 AM 2.31 36.158 0.06 6.92 14.71 13.2
12/26/2020 10:15:00 AM 2.33 36.194 0.06 6.92 14.97 13.2
12/26/2020 10:30:00 AM 2.35 36.23 0.06 6.92 14.12 13.2
12/26/2020 10:45:00 AM 2.36 36.248 0.06 6.92 14.72 13.19
12/26/2020 11:00:00 AM 2.37 36.266 0.06 6.93 15 13.19
12/26/2020 11:15:00 AM 2.39 36.302 0.06 6.92 14.18 13.19
12/26/2020 11:30:00 AM 2.4 36.32 0.06 6.92 14.21 13.19
12/26/2020 11:45:00 AM 2.43 36.374 0.06 6.92 13.51 13.18
12/26/2020 12:00:00 PM 2.47 36.446 0.06 6.94 13.59 13.17
12/26/2020 12:15:00 PM 2.52 36.536 0.06 6.95 13 13.15
12/26/2020 12:30:00 PM 2.56 36.608 0.06 6.93 13.97 13.14
12/26/2020 12:45:00 PM 2.6 36.68 0.061 6.94 13.23 13.13
12/26/2020 1:00:00 PM 2.64 36.752 0.061 6.93 13.85 13.12
12/26/2020 1:15:00 PM 2.67 36.806 0.061 6.94 13.32 13.11
12/26/2020 1:30:00 PM 2.68 36.824 0.061 6.94 13.25 13.09
12/26/2020 1:45:00 PM 2.7 36.86 0.061 6.94 11.75 13.09
12/26/2020 2:00:00 PM 2.72 36.896 0.061 6.94 12.89 13.08
12/26/2020 2:15:00 PM 2.73 36.914 0.061 6.94 13.41 13.07
12/26/2020 2:30:00 PM 2.74 36.932 0.061 6.94 13.36 13.07
12/26/2020 2:45:00 PM 2.74 36.932 0.061 6.94 12.61 13.06
12/26/2020 3:00:00 PM 2.75 36.95 0.061 6.95 12.44 13.06
12/26/2020 3:15:00 PM 2.74 36.932 0.061 6.95 12.31 13.05
12/26/2020 3:30:00 PM 2.73 36.914 0.061 6.95 12.55 13.06
12/26/2020 3:45:00 PM 2.72 36.896 0.061 6.92 12.67 13.06
12/26/2020 4:00:00 PM 2.7 36.86 0.061 6.94 13 13.06
12/26/2020 4:15:00 PM 2.67 36.806 0.061 6.95 12.03 13.07
12/26/2020 4:30:00 PM 2.63 36.734 0.062 6.94 11.77 13.08
12/26/2020 4:45:00 PM 2.6 36.68 0.062 6.97 14.12 13.08
12/26/2020 5:00:00 PM 2.58 36.644 0.062 6.94 11.07 13.08
12/26/2020 5:15:00 PM 2.56 36.608 0.062 6.94 11.34 13.1
12/26/2020 5:30:00 PM 2.56 36.608 0.062 6.95 11.17 13.1
12/26/2020 5:45:00 PM 2.55 36.59 0.062 6.95 12.32 13.1
12/26/2020 6:00:00 PM 2.53 36.554 0.062 6.95 12.15 13.12
12/26/2020 6:15:00 PM 2.49 36.482 0.062 6.94 11.37 13.12
12/26/2020 6:30:00 PM 2.47 36.446 0.062 6.95 11.21 13.14
12/26/2020 6:45:00 PM 2.44 36.392 0.062 6.97 11.22 13.14
12/26/2020 7:00:00 PM 2.42 36.356 0.062 6.95 10.83 13.16
12/26/2020 7:15:00 PM 2.39 36.302 0.062 6.95 10.91 13.16
12/26/2020 7:30:00 PM 2.37 36.266 0.063 6.95 11.45 13.17
12/26/2020 7:45:00 PM 2.35 36.23 0.063 6.95 9.97 13.19
12/26/2020 8:00:00 PM 2.34 36.212 0.063 6.96 10.39 13.2
12/26/2020 8:15:00 PM 2.32 36.176 0.063 6.95 10.16 13.2
12/26/2020 8:30:00 PM 2.32 36.176 0.063 6.94 10.59 13.21
12/26/2020 8:45:00 PM 2.3 36.14 0.063 6.98 11.19 13.22
12/26/2020 9:00:00 PM 2.29 36.122 0.063 7 11.18 13.23
12/26/2020 9:15:00 PM 2.28 36.104 0.063 6.96 11.72 13.23
12/26/2020 9:30:00 PM 2.27 36.086 0.063 7.01 10.82 13.24
12/26/2020 9:45:00 PM 2.27 36.086 0.063 6.97 11.22 13.24
12/26/2020 10:00:00 PM 2.27 36.086 0.064 7.01 10.77 13.25
12/26/2020 10:15:00 PM 2.26 36.068 0.064 6.95 10.82 13.26
12/26/2020 10:30:00 PM 2.25 36.05 0.064 6.98 9.63 13.26
12/26/2020 10:45:00 PM 2.25 36.05 0.064 7.01 9.88 13.26
12/26/2020 11:00:00 PM 2.25 36.05 0.064 7.01 10.32 13.26
12/26/2020 11:15:00 PM 2.24 36.032 0.064 6.97 10.11 13.27
12/26/2020 11:30:00 PM 2.24 36.032 0.064 7 9.55 13.27
12/26/2020 11:45:00 PM 2.23 36.014 0.064 6.98 9.72 13.28
12/27/2020 12:00:00 AM 2.22 35.996 0.065 6.99 9.72 13.28
12/27/2020 12:15:00 AM 2.22 35.996 0.065 6.97 9.49 13.28
12/27/2020 12:30:00 AM 2.22 35.996 0.065 6.98 9.45 13.29
12/27/2020 12:45:00 AM 2.22 35.996 0.065 6.98 9.82 13.29
12/27/2020 1:00:00 AM 2.23 36.014 0.065 6.99 9.33 13.29
12/27/2020 1:15:00 AM 2.22 35.996 0.065 6.99 9.37 13.29
12/27/2020 1:30:00 AM 2.21 35.978 0.065 6.99 9.55 13.29
12/27/2020 1:45:00 AM 2.21 35.978 0.065 6.99 9.47 13.3
12/27/2020 2:00:00 AM 2.21 35.978 0.065 6.96 10.18 13.29
12/27/2020 2:15:00 AM 2.22 35.996 0.065 6.99 9.85 13.29
12/27/2020 2:30:00 AM 2.24 36.032 0.065 6.99 10.11 13.3
12/27/2020 2:45:00 AM 2.24 36.032 0.065 7 9.83 13.3
12/27/2020 3:00:00 AM 2.26 36.068 0.065 7.02 9.33 13.3
12/27/2020 3:15:00 AM 2.27 36.086 0.065 6.99 9.59 13.29
12/27/2020 3:30:00 AM 2.27 36.086 0.065 6.99 9.64 13.3
12/27/2020 3:45:00 AM 2.28 36.104 0.065 6.98 9.67 13.3
12/27/2020 4:00:00 AM 2.29 36.122 0.065 7 9.52 13.3
12/27/2020 4:15:00 AM 2.29 36.122 0.065 7 9.03 13.29
12/27/2020 4:30:00 AM 2.3 36.14 0.065 7.01 9.67 13.29
12/27/2020 4:45:00 AM 2.3 36.14 0.065 7 8.87 13.29
12/27/2020 5:00:00 AM 2.31 36.158 0.065 7 8.96 13.29
12/27/2020 5:15:00 AM 2.31 36.158 0.065 7 9.1 13.3
12/27/2020 5:30:00 AM 2.32 36.176 0.065 7.01 8.71 13.3
12/27/2020 5:45:00 AM 2.33 36.194 0.065 7.01 9.18 13.3
12/27/2020 6:00:00 AM 2.33 36.194 0.065 6.99 9.31 13.3
12/27/2020 6:15:00 AM 2.34 36.212 0.065 7 9.15 13.29
12/27/2020 6:30:00 AM 2.35 36.23 0.065 7 9.33 13.3
12/27/2020 6:45:00 AM 2.35 36.23 0.065 7 9.06 13.3
12/27/2020 7:00:00 AM 2.36 36.248 0.065 7.03 8.02 13.3
12/27/2020 7:15:00 AM 2.36 36.248 0.066 7 8.92 13.29
12/27/2020 7:30:00 AM 2.37 36.266 0.066 7 8.38 13.3
12/27/2020 7:45:00 AM 2.37 36.266 0.066 6.99 8.25 13.3
12/27/2020 8:00:00 AM 2.37 36.266 0.065 7.01 8.7 13.31
12/27/2020 8:15:00 AM 2.38 36.284 0.066 7.01 8.33 13.31
12/27/2020 8:30:00 AM 2.39 36.302 0.066 7 7.72 13.3
12/27/2020 8:45:00 AM 2.4 36.32 0.066 7.02 8.08 13.31
12/27/2020 9:00:00 AM 2.42 36.356 0.066 7.03 8.64 13.31
12/27/2020 9:15:00 AM 2.44 36.392 0.066 7 8.34 13.3
12/27/2020 9:30:00 AM 2.46 36.428 0.066 7.02 8.7 13.29
12/27/2020 9:45:00 AM 2.48 36.464 0.066 7.01 8.62 13.3
12/27/2020 10:00:00 AM 2.51 36.518 0.066 7.01 8.75 13.29
12/27/2020 10:15:00 AM 2.55 36.59 0.066 7.03 8.12 13.28
12/27/2020 10:30:00 AM 2.6 36.68 0.066 7.01 8.15 13.28
12/27/2020 10:45:00 AM 2.65 36.77 0.066 7.02 8.26 13.26
12/27/2020 11:00:00 AM 2.69 36.842 0.066 7 8.15 13.26
12/27/2020 11:15:00 AM 2.75 36.95 0.066 7.03 8.39 13.25
12/27/2020 11:30:00 AM 2.8 37.04 0.066 7.02 8.35 13.22
12/27/2020 11:45:00 AM 2.85 37.13 0.066 7.03 8.55 13.22
12/27/2020 12:00:00 PM 2.9 37.22 0.066 7.02 8.68 13.19
12/27/2020 12:15:00 PM 2.96 37.328 0.066 7.03 8.1 13.18
12/27/2020 12:30:00 PM 3.01 37.418 0.066 7.03 8.3 13.15
12/27/2020 12:45:00 PM 3.06 37.508 0.066 7.03 8.32 13.14
12/27/2020 1:00:00 PM 3.11 37.598 0.066 7.02 8.01 13.11
12/27/2020 1:15:00 PM 3.17 37.706 0.066 7.04 9.41 13.08
12/27/2020 1:30:00 PM 3.21 37.778 0.066 7.04 8.44 13.07
12/27/2020 1:45:00 PM 3.25 37.85 0.066 7.04 8.4 13.05
12/27/2020 2:00:00 PM 3.3 37.94 0.066 7.03 8.14 13.03
12/27/2020 2:15:00 PM 3.34 38.012 0.066 7.03 7.8 13.01
12/27/2020 2:30:00 PM 3.37 38.066 0.066 7.03 7.84 13
12/27/2020 2:45:00 PM 3.4 38.12 0.066 7.04 7.33 12.99
12/27/2020 3:00:00 PM 3.41 38.138 0.067 7.04 7.74 12.98
12/27/2020 3:15:00 PM 3.42 38.156 0.066 7.03 7.83 12.99
12/27/2020 3:30:00 PM 3.41 38.138 0.067 7.03 7.92 12.98
12/27/2020 3:45:00 PM 3.39 38.102 0.067 7.03 7.99 12.98
12/27/2020 4:00:00 PM 3.38 38.084 0.066 7.03 8.06 12.98
12/27/2020 4:15:00 PM 3.36 38.048 0.067 7.02 7.67 12.97
12/27/2020 4:30:00 PM 3.34 38.012 0.067 7.04 7.61 12.98
12/27/2020 4:45:00 PM 3.31 37.958 0.067 7.06 7.02 12.98
12/27/2020 5:00:00 PM 3.29 37.922 0.067 7.04 7.07 12.97
12/27/2020 5:15:00 PM 3.26 37.868 0.067 7.04 7.8 12.97
12/27/2020 5:30:00 PM 3.23 37.814 0.067 7.02 8.08 12.98
12/27/2020 5:45:00 PM 3.2 37.76 0.067 7.04 7.57 12.98
12/27/2020 6:00:00 PM 3.17 37.706 0.067 7.04 7.34 13
12/27/2020 6:15:00 PM 3.14 37.652 0.067 7.04 7.3 13
12/27/2020 6:30:00 PM 3.11 37.598 0.068 7.04 7.04 13.01
12/27/2020 6:45:00 PM 3.08 37.544 0.068 7.04 7.33 13.02
12/27/2020 7:00:00 PM 3.05 37.49 0.068 7.03 7.66 13.04
12/27/2020 7:15:00 PM 3.02 37.436 0.068 7.04 6.87 13.05
12/27/2020 7:30:00 PM 2.99 37.382 0.068 7.03 7.33 13.06
12/27/2020 7:45:00 PM 2.96 37.328 0.068 7.04 7.33 13.08
12/27/2020 8:00:00 PM 2.93 37.274 0.068 7.04 7.61 13.08
12/27/2020 8:15:00 PM 2.89 37.202 0.068 7.04 7.2 13.1
12/27/2020 8:30:00 PM 2.87 37.166 0.068 7.04 7.29 13.1
12/27/2020 8:45:00 PM 2.84 37.112 0.069 7.04 7.24 13.11
12/27/2020 9:00:00 PM 2.82 37.076 0.068 7.03 7.01 13.12
12/27/2020 9:15:00 PM 2.8 37.04 0.068 7.04 7.16 13.12
12/27/2020 9:30:00 PM 2.78 37.004 0.068 7.04 7.46 13.14
12/27/2020 9:45:00 PM 2.77 36.986 0.069 7.04 7.7 13.15
12/27/2020 10:00:00 PM 2.76 36.968 0.069 7.04 7.12 13.14
12/27/2020 10:15:00 PM 2.74 36.932 0.069 7.04 7.11 13.15
12/27/2020 10:30:00 PM 2.73 36.914 0.069 7.03 7.32 13.15
12/27/2020 10:45:00 PM 2.72 36.896 0.069 7.04 7.22 13.16
12/27/2020 11:00:00 PM 2.71 36.878 0.069 7.05 7.43 13.16
12/27/2020 11:15:00 PM 2.7 36.86 0.069 7.04 7.2 13.16
12/27/2020 11:30:00 PM 2.69 36.842 0.069 7.04 7.33 13.17
12/27/2020 11:45:00 PM 2.68 36.824 0.069 7.05 6.63 13.17
12/28/2020 12:00:00 AM 2.67 36.806 0.069 7.05 6.41 13.17
12/28/2020 12:15:00 AM 2.65 36.77 0.069 7.05 6.4 13.17
12/28/2020 12:30:00 AM 2.65 36.77 0.069 7.04 6.45 13.17
12/28/2020 12:45:00 AM 2.63 36.734 0.069 7.04 7.33 13.17
12/28/2020 1:00:00 AM 2.63 36.734 0.069 7.04 6.55 13.17
12/28/2020 1:15:00 AM 2.62 36.716 0.069 7.04 6.89 13.17
12/28/2020 1:30:00 AM 2.61 36.698 0.069 7.06 6.84 13.17
12/28/2020 1:45:00 AM 2.61 36.698 0.069 7.05 6.59 13.17
12/28/2020 2:00:00 AM 2.61 36.698 0.069 7.04 6.31 13.17
12/28/2020 2:15:00 AM 2.61 36.698 0.069 7.05 6.6 13.17
12/28/2020 2:30:00 AM 2.6 36.68 0.069 7.05 6.48 13.16
12/28/2020 2:45:00 AM 2.61 36.698 0.069 7.05 6.3 13.16
12/28/2020 3:00:00 AM 2.61 36.698 0.069 7.04 6.78 13.16
12/28/2020 3:15:00 AM 2.61 36.698 0.069 7.04 6.44 13.16
12/28/2020 3:30:00 AM 2.61 36.698 0.069 7.05 6.44 13.16
12/28/2020 3:45:00 AM 2.62 36.716 0.069 7.05 6.54 13.16
12/28/2020 4:00:00 AM 2.61 36.698 0.069 7.06 6.7 13.16
12/28/2020 4:15:00 AM 2.62 36.716 0.069 7.05 6.58 13.16
12/28/2020 4:30:00 AM 2.63 36.734 0.069 7.06 6.55 13.15
12/28/2020 4:45:00 AM 2.64 36.752 0.069 7.05 6.56 13.15
12/28/2020 5:00:00 AM 2.66 36.788 0.069 7.06 6.26 13.15
12/28/2020 5:15:00 AM 2.66 36.788 0.07 7.06 5.97 13.14
12/28/2020 5:30:00 AM 2.64 36.752 0.069 7.05 6.49 13.13
12/28/2020 5:45:00 AM 2.63 36.734 0.069 7.05 5.94 13.13
12/28/2020 6:00:00 AM 2.65 36.77 0.069 7.06 6.14 13.14
12/28/2020 6:15:00 AM 2.67 36.806 0.069 7.05 6.55 13.13
12/28/2020 6:30:00 AM 2.68 36.824 0.069 7.05 5.96 13.13
12/28/2020 6:45:00 AM 2.71 36.878 0.069 7.05 5.85 13.13
12/28/2020 7:00:00 AM 2.72 36.896 0.069 7.06 6.28 13.11
12/28/2020 7:15:00 AM 2.73 36.914 0.069 7.08 5.85 13.12
12/28/2020 7:30:00 AM 2.76 36.968 0.069 7.06 5.97 13.11
12/28/2020 7:45:00 AM 2.78 37.004 0.069 7.05 5.95 13.11
12/28/2020 8:00:00 AM 2.8 37.04 0.07 7.05 6.18 13.1
12/28/2020 8:15:00 AM 2.82 37.076 0.069 7.06 5.83 13.1
12/28/2020 8:30:00 AM 2.84 37.112 0.07 7.07 6.26 13.09
12/28/2020 8:45:00 AM 2.86 37.148 0.07 7.06 6.12 13.09
12/28/2020 9:00:00 AM 2.88 37.184 0.07 7.07 5.99 13.08
12/28/2020 9:15:00 AM 2.92 37.256 0.07 7.08 5.67 13.08
12/28/2020 9:30:00 AM 2.97